PWSweather.com
Personal Weather Stations
Station Observations
HVALPSUND
Hvalpsund, FarsoeDK 9640

HvalpsundFarsoeDK 9640

Lat: 56.705311, Lon: 9.203638

Elevation: 5

Station Type: Vantage Pro2

http://hvalpsundvejr.dk

High Low Average
Temperature 52.8°F11.6°C 50.0°F10.0°C 51.7°F10.9°C
Dew Point 44.8°F7.1°C 38.9°F3.8°C 42.3°F5.7°C
Winds 33.2 mph 53.4 kmh 13.7 mph 22.0 kmh 25.0 mph NW40.2 kmh NW
Wind Gusts 38.0 mph61.2 kmh 16.0 mph25.7 kmh 29.0 mph46.7 kmh
Humidity 77% 61% 70%
Pressure 30.40 in1029.5 mb 29.87 in1011.5 mb -
Precipitation 0.00 in0.0 mm - -
Hour Temp Dew Point Humidity Winds Wind Gusts Pressure Precip Precip Rate Daily Precip Total
12:00 AM 51.8°F11.0°C 43.8°F6.6°C 74% 25.5 mph NW41.0 kmh NW 29.0 mph46.7 kmh 29.87 in1011.5 mb 0.00 in0.0 mm 0.00 in0.0 mm 0.00 in0.0 mm
12:01 AM 51.8°F11.0°C 43.8°F6.6°C 74% 24.7 mph NW39.8 kmh NW 29.0 mph46.7 kmh 29.87 in1011.5 mb 0.00 in0.0 mm 0.00 in0.0 mm 0.00 in0.0 mm
12:02 AM 51.8°F11.0°C 43.8°F6.6°C 74% 24.9 mph NW40.1 kmh NW 29.0 mph46.7 kmh 29.87 in1011.5 mb 0.00 in0.0 mm 0.00 in0.0 mm 0.00 in0.0 mm
12:03 AM 51.8°F11.0°C 43.8°F6.6°C 74% 24.1 mph NW38.8 kmh NW 29.0 mph46.7 kmh 29.87 in1011.5 mb 0.00 in0.0 mm 0.00 in0.0 mm 0.00 in0.0 mm
12:04 AM 51.7°F10.9°C 43.3°F6.3°C 73% 25.6 mph NW41.2 kmh NW 29.0 mph46.7 kmh 29.87 in1011.5 mb 0.00 in0.0 mm 0.00 in0.0 mm 0.00 in0.0 mm
12:05 AM 51.7°F10.9°C 43.7°F6.5°C 74% 24.1 mph NW38.8 kmh NW 29.0 mph46.7 kmh 29.88 in1011.9 mb 0.00 in0.0 mm 0.00 in0.0 mm 0.00 in0.0 mm
12:06 AM 51.8°F11.0°C 44.5°F6.9°C 76% 24.3 mph NW39.1 kmh NW 27.0 mph43.5 kmh 29.88 in1011.9 mb 0.00 in0.0 mm 0.00 in0.0 mm 0.00 in0.0 mm
12:07 AM 51.8°F11.0°C 43.8°F6.6°C 74% 25.5 mph NW41.0 kmh NW 28.0 mph45.1 kmh 29.87 in1011.5 mb 0.00 in0.0 mm 0.00 in0.0 mm 0.00 in0.0 mm
12:08 AM 51.7°F10.9°C 43.7°F6.5°C 74% 24.4 mph NW39.3 kmh NW 29.0 mph46.7 kmh 29.87 in1011.5 mb 0.00 in0.0 mm 0.00 in0.0 mm 0.00 in0.0 mm
12:09 AM 51.9°F11.1°C 43.9°F6.6°C 74% 22.7 mph NW36.5 kmh NW 29.0 mph46.7 kmh 29.87 in1011.5 mb 0.00 in0.0 mm 0.00 in0.0 mm 0.00 in0.0 mm
12:10 AM 51.8°F11.0°C 43.4°F6.3°C 73% 23.7 mph NW38.1 kmh NW 27.0 mph43.5 kmh 29.88 in1011.9 mb 0.00 in0.0 mm 0.00 in0.0 mm 0.00 in0.0 mm
12:11 AM 51.7°F10.9°C 43.7°F6.5°C 74% 23.2 mph NW37.3 kmh NW 27.0 mph43.5 kmh 29.88 in1011.9 mb 0.00 in0.0 mm 0.00 in0.0 mm 0.00 in0.0 mm
12:12 AM 51.7°F10.9°C 43.7°F6.5°C 74% 23.6 mph NW38.0 kmh NW 26.0 mph41.8 kmh 29.88 in1011.9 mb 0.00 in0.0 mm 0.00 in0.0 mm 0.00 in0.0 mm
12:13 AM 51.8°F11.0°C 43.8°F6.6°C 74% 23.6 mph NW38.0 kmh NW 26.0 mph41.8 kmh 29.88 in1011.9 mb 0.00 in0.0 mm 0.00 in0.0 mm 0.00 in0.0 mm
12:14 AM 51.7°F10.9°C 43.3°F6.3°C 73% 24.2 mph NW38.9 kmh NW 27.0 mph43.5 kmh 29.88 in1011.9 mb 0.00 in0.0 mm 0.00 in0.0 mm 0.00 in0.0 mm
12:15 AM 51.7°F10.9°C 43.3°F6.3°C 73% 24.1 mph NW38.8 kmh NW 27.0 mph43.5 kmh 29.88 in1011.9 mb 0.00 in0.0 mm 0.00 in0.0 mm 0.00 in0.0 mm
12:16 AM 51.7°F10.9°C 43.3°F6.3°C 73% 22.9 mph NW36.9 kmh NW 27.0 mph43.5 kmh 29.88 in1011.9 mb 0.00 in0.0 mm 0.00 in0.0 mm 0.00 in0.0 mm
12:17 AM 51.7°F10.9°C 43.3°F6.3°C 73% 23.6 mph NW38.0 kmh NW 27.0 mph43.5 kmh 29.88 in1011.9 mb 0.00 in0.0 mm 0.00 in0.0 mm 0.00 in0.0 mm
12:18 AM 51.8°F11.0°C 43.8°F6.6°C 74% 23.5 mph NW37.8 kmh NW 27.0 mph43.5 kmh 29.88 in1011.9 mb 0.00 in0.0 mm 0.00 in0.0 mm 0.00 in0.0 mm
12:19 AM 51.7°F10.9°C 43.7°F6.5°C 74% 24.4 mph NW39.3 kmh NW 28.0 mph45.1 kmh 29.88 in1011.9 mb 0.00 in0.0 mm 0.00 in0.0 mm 0.00 in0.0 mm
12:20 AM 51.8°F11.0°C 43.4°F6.3°C 73% 24.4 mph NW39.3 kmh NW 28.0 mph45.1 kmh 29.88 in1011.9 mb 0.00 in0.0 mm 0.00 in0.0 mm 0.00 in0.0 mm
12:21 AM 51.9°F11.1°C 44.2°F6.8°C 75% 25.8 mph NW41.5 kmh NW 29.0 mph46.7 kmh 29.88 in1011.9 mb 0.00 in0.0 mm 0.00 in0.0 mm 0.00 in0.0 mm
12:22 AM 51.9°F11.1°C 43.5°F6.4°C 73% 24.7 mph NW39.8 kmh NW 29.0 mph46.7 kmh 29.88 in1011.9 mb 0.00 in0.0 mm 0.00 in0.0 mm 0.00 in0.0 mm
12:23 AM 51.7°F10.9°C 43.0°F6.1°C 72% 25.5 mph NW41.0 kmh NW 28.0 mph45.1 kmh 29.88 in1011.9 mb 0.00 in0.0 mm 0.00 in0.0 mm 0.00 in0.0 mm
12:24 AM 51.7°F10.9°C 43.3°F6.3°C 73% 25.2 mph NW40.6 kmh NW 29.0 mph46.7 kmh 29.88 in1011.9 mb 0.00 in0.0 mm 0.00 in0.0 mm 0.00 in0.0 mm
12:25 AM 51.7°F10.9°C 43.0°F6.1°C 72% 24.6 mph NW39.6 kmh NW 29.0 mph46.7 kmh 29.88 in1011.9 mb 0.00 in0.0 mm 0.00 in0.0 mm 0.00 in0.0 mm
12:26 AM 51.7°F10.9°C 43.3°F6.3°C 73% 24.8 mph NW39.9 kmh NW 28.0 mph45.1 kmh 29.88 in1011.9 mb 0.00 in0.0 mm 0.00 in0.0 mm 0.00 in0.0 mm
12:27 AM 51.7°F10.9°C 43.3°F6.3°C 73% 24.3 mph NW39.1 kmh NW 28.0 mph45.1 kmh 29.88 in1011.9 mb 0.00 in0.0 mm 0.00 in0.0 mm 0.00 in0.0 mm
12:28 AM 51.9°F11.1°C 44.6°F7.0°C 76% 21.1 mph NW34.0 kmh NW 26.0 mph41.8 kmh 29.88 in1011.9 mb 0.00 in0.0 mm 0.00 in0.0 mm 0.00 in0.0 mm
12:29 AM 51.8°F11.0°C 43.4°F6.3°C 73% 25.0 mph NW40.2 kmh NW 27.0 mph43.5 kmh 29.88 in1011.9 mb 0.00 in0.0 mm 0.00 in0.0 mm 0.00 in0.0 mm
12:30 AM 51.8°F11.0°C 43.4°F6.3°C 73% 23.4 mph NW37.7 kmh NW 27.0 mph43.5 kmh 29.88 in1011.9 mb 0.00 in0.0 mm 0.00 in0.0 mm 0.00 in0.0 mm
12:31 AM 51.7°F10.9°C 43.3°F6.3°C 73% 24.2 mph NW38.9 kmh NW 27.0 mph43.5 kmh 29.88 in1011.9 mb 0.00 in0.0 mm 0.00 in0.0 mm 0.00 in0.0 mm
12:32 AM 51.7°F10.9°C 44.0°F6.7°C 75% 22.2 mph NW35.7 kmh NW 27.0 mph43.5 kmh 29.88 in1011.9 mb 0.00 in0.0 mm 0.00 in0.0 mm 0.00 in0.0 mm
12:33 AM 51.7°F10.9°C 43.7°F6.5°C 74% 23.1 mph NW37.2 kmh NW 27.0 mph43.5 kmh 29.88 in1011.9 mb 0.00 in0.0 mm 0.00 in0.0 mm 0.00 in0.0 mm
12:34 AM 51.8°F11.0°C 43.8°F6.6°C 74% 23.5 mph NW37.8 kmh NW 26.0 mph41.8 kmh 29.88 in1011.9 mb 0.00 in0.0 mm 0.00 in0.0 mm 0.00 in0.0 mm
12:35 AM 51.8°F11.0°C 43.8°F6.6°C 74% 24.3 mph NW39.1 kmh NW 27.0 mph43.5 kmh 29.89 in1012.2 mb 0.00 in0.0 mm 0.00 in0.0 mm 0.00 in0.0 mm
12:36 AM 51.8°F11.0°C 43.8°F6.6°C 74% 25.1 mph NW40.4 kmh NW 27.0 mph43.5 kmh 29.89 in1012.2 mb 0.00 in0.0 mm 0.00 in0.0 mm 0.00 in0.0 mm
12:37 AM 51.8°F11.0°C 43.4°F6.3°C 73% 23.0 mph NW37.0 kmh NW 27.0 mph43.5 kmh 29.89 in1012.2 mb 0.00 in0.0 mm 0.00 in0.0 mm 0.00 in0.0 mm
12:38 AM 51.8°F11.0°C 43.8°F6.6°C 74% 22.0 mph NW35.4 kmh NW 26.0 mph41.8 kmh 29.89 in1012.2 mb 0.00 in0.0 mm 0.00 in0.0 mm 0.00 in0.0 mm
12:39 AM 51.8°F11.0°C 44.1°F6.7°C 75% 22.5 mph NW36.2 kmh NW 25.0 mph40.2 kmh 29.89 in1012.2 mb 0.00 in0.0 mm 0.00 in0.0 mm 0.00 in0.0 mm
12:40 AM 51.8°F11.0°C 44.1°F6.7°C 75% 23.2 mph NW37.3 kmh NW 27.0 mph43.5 kmh 29.89 in1012.2 mb 0.00 in0.0 mm 0.00 in0.0 mm 0.00 in0.0 mm
12:41 AM 51.9°F11.1°C 43.9°F6.6°C 74% 24.3 mph NW39.1 kmh NW 28.0 mph45.1 kmh 29.89 in1012.2 mb 0.00 in0.0 mm 0.00 in0.0 mm 0.00 in0.0 mm
12:42 AM 51.9°F11.1°C 43.9°F6.6°C 74% 23.9 mph NW38.5 kmh NW 28.0 mph45.1 kmh 29.89 in1012.2 mb 0.00 in0.0 mm 0.00 in0.0 mm 0.00 in0.0 mm
12:43 AM 52.0°F11.1°C 44.7°F7.1°C 76% 25.0 mph NW40.2 kmh NW 29.0 mph46.7 kmh 29.89 in1012.2 mb 0.00 in0.0 mm 0.00 in0.0 mm 0.00 in0.0 mm
12:44 AM 52.0°F11.1°C 44.0°F6.7°C 74% 24.6 mph NW39.6 kmh NW 29.0 mph46.7 kmh 29.89 in1012.2 mb 0.00 in0.0 mm 0.00 in0.0 mm 0.00 in0.0 mm
12:45 AM 52.0°F11.1°C 44.0°F6.7°C 74% 22.6 mph NW36.4 kmh NW 29.0 mph46.7 kmh 29.89 in1012.2 mb 0.00 in0.0 mm 0.00 in0.0 mm 0.00 in0.0 mm
12:46 AM 52.0°F11.1°C 44.0°F6.7°C 74% 26.3 mph NW42.3 kmh NW 31.0 mph49.9 kmh 29.89 in1012.2 mb 0.00 in0.0 mm 0.00 in0.0 mm 0.00 in0.0 mm
12:47 AM 52.1°F11.2°C 43.7°F6.5°C 73% 23.9 mph NW38.5 kmh NW 31.0 mph49.9 kmh 29.89 in1012.2 mb 0.00 in0.0 mm 0.00 in0.0 mm 0.00 in0.0 mm
12:48 AM 52.1°F11.2°C 44.4°F6.9°C 75% 25.6 mph NW41.2 kmh NW 29.0 mph46.7 kmh 29.89 in1012.2 mb 0.00 in0.0 mm 0.00 in0.0 mm 0.00 in0.0 mm
12:49 AM 52.0°F11.1°C 43.3°F6.3°C 72% 25.5 mph NW41.0 kmh NW 29.0 mph46.7 kmh 29.89 in1012.2 mb 0.00 in0.0 mm 0.00 in0.0 mm 0.00 in0.0 mm
12:50 AM 51.9°F11.1°C 43.9°F6.6°C 74% 23.2 mph NW37.3 kmh NW 29.0 mph46.7 kmh 29.89 in1012.2 mb 0.00 in0.0 mm 0.00 in0.0 mm 0.00 in0.0 mm
12:51 AM 51.9°F11.1°C 43.9°F6.6°C 74% 21.7 mph NW34.9 kmh NW 25.0 mph40.2 kmh 29.89 in1012.2 mb 0.00 in0.0 mm 0.00 in0.0 mm 0.00 in0.0 mm
12:52 AM 51.9°F11.1°C 43.9°F6.6°C 74% 23.3 mph NW37.5 kmh NW 26.0 mph41.8 kmh 29.89 in1012.2 mb 0.00 in0.0 mm 0.00 in0.0 mm 0.00 in0.0 mm
12:53 AM 51.9°F11.1°C 44.2°F6.8°C 75% 21.4 mph NW34.4 kmh NW 26.0 mph41.8 kmh 29.90 in1012.5 mb 0.00 in0.0 mm 0.00 in0.0 mm 0.00 in0.0 mm
12:54 AM 51.9°F11.1°C 43.9°F6.6°C 74% 21.6 mph NW34.8 kmh NW 26.0 mph41.8 kmh 29.90 in1012.5 mb 0.00 in0.0 mm 0.00 in0.0 mm 0.00 in0.0 mm
12:55 AM 51.8°F11.0°C 43.4°F6.3°C 73% 23.9 mph NW38.5 kmh NW 26.0 mph41.8 kmh 29.90 in1012.5 mb 0.00 in0.0 mm 0.00 in0.0 mm 0.00 in0.0 mm
12:56 AM 51.8°F11.0°C 43.8°F6.6°C 74% 22.9 mph NW36.9 kmh NW 29.0 mph46.7 kmh 29.90 in1012.5 mb 0.00 in0.0 mm 0.00 in0.0 mm 0.00 in0.0 mm
12:57 AM 51.7°F10.9°C 43.3°F6.3°C 73% 24.3 mph NW39.1 kmh NW 29.0 mph46.7 kmh 29.90 in1012.5 mb 0.00 in0.0 mm 0.00 in0.0 mm 0.00 in0.0 mm
12:58 AM 51.7°F10.9°C 43.7°F6.5°C 74% 22.9 mph NW36.9 kmh NW 27.0 mph43.5 kmh 29.90 in1012.5 mb 0.00 in0.0 mm 0.00 in0.0 mm 0.00 in0.0 mm
12:59 AM 51.8°F11.0°C 43.8°F6.6°C 74% 23.8 mph NW38.3 kmh NW 26.0 mph41.8 kmh 29.90 in1012.5 mb 0.00 in0.0 mm 0.00 in0.0 mm 0.00 in0.0 mm
01:00 AM 51.8°F11.0°C 43.8°F6.6°C 74% 23.8 mph NW38.3 kmh NW 26.0 mph41.8 kmh 29.90 in1012.5 mb 0.00 in0.0 mm 0.00 in0.0 mm 0.00 in0.0 mm
01:01 AM 51.8°F11.0°C 43.4°F6.3°C 73% 21.7 mph NW34.9 kmh NW 26.0 mph41.8 kmh 29.90 in1012.5 mb 0.00 in0.0 mm 0.00 in0.0 mm 0.00 in0.0 mm
01:02 AM 51.8°F11.0°C 43.8°F6.6°C 74% 23.5 mph NW37.8 kmh NW 28.0 mph45.1 kmh 29.90 in1012.5 mb 0.00 in0.0 mm 0.00 in0.0 mm 0.00 in0.0 mm
01:03 AM 51.8°F11.0°C 43.8°F6.6°C 74% 23.8 mph NW38.3 kmh NW 28.0 mph45.1 kmh 29.90 in1012.5 mb 0.00 in0.0 mm 0.00 in0.0 mm 0.00 in0.0 mm
01:04 AM 51.7°F10.9°C 43.0°F6.1°C 72% 22.9 mph NW36.9 kmh NW 28.0 mph45.1 kmh 29.90 in1012.5 mb 0.00 in0.0 mm 0.00 in0.0 mm 0.00 in0.0 mm
01:05 AM 51.8°F11.0°C 43.8°F6.6°C 74% 23.0 mph NW37.0 kmh NW 26.0 mph41.8 kmh 29.90 in1012.5 mb 0.00 in0.0 mm 0.00 in0.0 mm 0.00 in0.0 mm
01:06 AM 51.9°F11.1°C 43.9°F6.6°C 74% 20.2 mph NW32.5 kmh NW 26.0 mph41.8 kmh 29.90 in1012.5 mb 0.00 in0.0 mm 0.00 in0.0 mm 0.00 in0.0 mm
01:07 AM 51.8°F11.0°C 44.5°F6.9°C 76% 22.0 mph NW35.4 kmh NW 26.0 mph41.8 kmh 29.90 in1012.5 mb 0.00 in0.0 mm 0.00 in0.0 mm 0.00 in0.0 mm
01:08 AM 51.7°F10.9°C 43.7°F6.5°C 74% 21.6 mph NW34.8 kmh NW 26.0 mph41.8 kmh 29.90 in1012.5 mb 0.00 in0.0 mm 0.00 in0.0 mm 0.00 in0.0 mm
01:09 AM 51.7°F10.9°C 44.0°F6.7°C 75% 20.6 mph NW33.2 kmh NW 24.0 mph38.6 kmh 29.90 in1012.5 mb 0.00 in0.0 mm 0.00 in0.0 mm 0.00 in0.0 mm
01:10 AM 51.7°F10.9°C 43.3°F6.3°C 73% 21.6 mph NW34.8 kmh NW 24.0 mph38.6 kmh 29.90 in1012.5 mb 0.00 in0.0 mm 0.00 in0.0 mm 0.00 in0.0 mm
01:11 AM 51.7°F10.9°C 44.0°F6.7°C 75% 22.1 mph NW35.6 kmh NW 25.0 mph40.2 kmh 29.90 in1012.5 mb 0.00 in0.0 mm 0.00 in0.0 mm 0.00 in0.0 mm
01:12 AM 51.6°F10.9°C 43.6°F6.4°C 74% 23.2 mph NW37.3 kmh NW 26.0 mph41.8 kmh 29.91 in1012.9 mb 0.00 in0.0 mm 0.00 in0.0 mm 0.00 in0.0 mm
01:13 AM 51.7°F10.9°C 44.0°F6.7°C 75% 24.2 mph NW38.9 kmh NW 26.0 mph41.8 kmh 29.91 in1012.9 mb 0.00 in0.0 mm 0.00 in0.0 mm 0.00 in0.0 mm
01:14 AM 51.7°F10.9°C 44.0°F6.7°C 75% 21.5 mph NW34.6 kmh NW 26.0 mph41.8 kmh 29.91 in1012.9 mb 0.00 in0.0 mm 0.00 in0.0 mm 0.00 in0.0 mm
01:15 AM 51.8°F11.0°C 44.5°F6.9°C 76% 24.0 mph NW38.6 kmh NW 28.0 mph45.1 kmh 29.91 in1012.9 mb 0.00 in0.0 mm 0.00 in0.0 mm 0.00 in0.0 mm
01:16 AM 51.7°F10.9°C 43.7°F6.5°C 74% 25.5 mph NW41.0 kmh NW 28.0 mph45.1 kmh 29.91 in1012.9 mb 0.00 in0.0 mm 0.00 in0.0 mm 0.00 in0.0 mm
01:17 AM 51.8°F11.0°C 43.8°F6.6°C 74% 23.4 mph NW37.7 kmh NW 28.0 mph45.1 kmh 29.91 in1012.9 mb 0.00 in0.0 mm 0.00 in0.0 mm 0.00 in0.0 mm
01:18 AM 51.7°F10.9°C 44.0°F6.7°C 75% 23.5 mph NW37.8 kmh NW 27.0 mph43.5 kmh 29.91 in1012.9 mb 0.00 in0.0 mm 0.00 in0.0 mm 0.00 in0.0 mm
01:19 AM 51.6°F10.9°C 43.2°F6.2°C 73% 25.1 mph NW40.4 kmh NW 29.0 mph46.7 kmh 29.91 in1012.9 mb 0.00 in0.0 mm 0.00 in0.0 mm 0.00 in0.0 mm
01:20 AM 51.5°F10.8°C 43.1°F6.2°C 73% 26.5 mph NW42.6 kmh NW 32.0 mph51.5 kmh 29.91 in1012.9 mb 0.00 in0.0 mm 0.00 in0.0 mm 0.00 in0.0 mm
01:21 AM 51.5°F10.8°C 43.1°F6.2°C 73% 24.9 mph NW40.1 kmh NW 32.0 mph51.5 kmh 29.91 in1012.9 mb 0.00 in0.0 mm 0.00 in0.0 mm 0.00 in0.0 mm
01:22 AM 51.8°F11.0°C 44.8°F7.1°C 77% 21.1 mph NW34.0 kmh NW 28.0 mph45.1 kmh 29.91 in1012.9 mb 0.00 in0.0 mm 0.00 in0.0 mm 0.00 in0.0 mm
01:23 AM 51.8°F11.0°C 44.1°F6.7°C 75% 23.1 mph NW37.2 kmh NW 26.0 mph41.8 kmh 29.91 in1012.9 mb 0.00 in0.0 mm 0.00 in0.0 mm 0.00 in0.0 mm
01:24 AM 51.8°F11.0°C 43.8°F6.6°C 74% 24.9 mph NW40.1 kmh NW 28.0 mph45.1 kmh 29.91 in1012.9 mb 0.00 in0.0 mm 0.00 in0.0 mm 0.00 in0.0 mm
01:25 AM 51.6°F10.9°C 43.6°F6.4°C 74% 25.6 mph NW41.2 kmh NW 28.0 mph45.1 kmh 29.91 in1012.9 mb 0.00 in0.0 mm 0.00 in0.0 mm 0.00 in0.0 mm
01:26 AM 51.7°F10.9°C 43.7°F6.5°C 74% 23.0 mph NW37.0 kmh NW 28.0 mph45.1 kmh 29.91 in1012.9 mb 0.00 in0.0 mm 0.00 in0.0 mm 0.00 in0.0 mm
01:27 AM 51.7°F10.9°C 43.7°F6.5°C 74% 25.1 mph NW40.4 kmh NW 30.0 mph48.3 kmh 29.91 in1012.9 mb 0.00 in0.0 mm 0.00 in0.0 mm 0.00 in0.0 mm
01:28 AM 51.7°F10.9°C 43.7°F6.5°C 74% 25.2 mph NW40.6 kmh NW 30.0 mph48.3 kmh 29.91 in1012.9 mb 0.00 in0.0 mm 0.00 in0.0 mm 0.00 in0.0 mm
01:29 AM 51.6°F10.9°C 43.2°F6.2°C 73% 25.7 mph NW41.4 kmh NW 30.0 mph48.3 kmh 29.91 in1012.9 mb 0.00 in0.0 mm 0.00 in0.0 mm 0.00 in0.0 mm
01:30 AM 51.6°F10.9°C 43.6°F6.4°C 74% 24.2 mph NW38.9 kmh NW 29.0 mph46.7 kmh 29.91 in1012.9 mb 0.00 in0.0 mm 0.00 in0.0 mm 0.00 in0.0 mm
01:31 AM 51.7°F10.9°C 43.7°F6.5°C 74% 22.7 mph NW36.5 kmh NW 28.0 mph45.1 kmh 29.91 in1012.9 mb 0.00 in0.0 mm 0.00 in0.0 mm 0.00 in0.0 mm
01:32 AM 51.7°F10.9°C 43.7°F6.5°C 74% 24.5 mph NW39.4 kmh NW 27.0 mph43.5 kmh 29.91 in1012.9 mb 0.00 in0.0 mm 0.00 in0.0 mm 0.00 in0.0 mm
01:33 AM 51.7°F10.9°C 43.7°F6.5°C 74% 24.3 mph NW39.1 kmh NW 31.0 mph49.9 kmh 29.92 in1013.2 mb 0.00 in0.0 mm 0.00 in0.0 mm 0.00 in0.0 mm
01:34 AM 51.7°F10.9°C 43.3°F6.3°C 73% 25.1 mph NW40.4 kmh NW 31.0 mph49.9 kmh 29.91 in1012.9 mb 0.00 in0.0 mm 0.00 in0.0 mm 0.00 in0.0 mm
01:35 AM 51.7°F10.9°C 43.7°F6.5°C 74% 25.2 mph NW40.6 kmh NW 29.0 mph46.7 kmh 29.92 in1013.2 mb 0.00 in0.0 mm 0.00 in0.0 mm 0.00 in0.0 mm
01:36 AM 51.7°F10.9°C 43.7°F6.5°C 74% 25.9 mph NW41.7 kmh NW 29.0 mph46.7 kmh 29.91 in1012.9 mb 0.00 in0.0 mm 0.00 in0.0 mm 0.00 in0.0 mm
01:37 AM 51.7°F10.9°C 44.0°F6.7°C 75% 23.8 mph NW38.3 kmh NW 27.0 mph43.5 kmh 29.91 in1012.9 mb 0.00 in0.0 mm 0.00 in0.0 mm 0.00 in0.0 mm
01:38 AM 51.6°F10.9°C 43.2°F6.2°C 73% 24.3 mph NW39.1 kmh NW 27.0 mph43.5 kmh 29.92 in1013.2 mb 0.00 in0.0 mm 0.00 in0.0 mm 0.00 in0.0 mm
01:39 AM 51.6°F10.9°C 43.2°F6.2°C 73% 21.6 mph NW34.8 kmh NW 28.0 mph45.1 kmh 29.92 in1013.2 mb 0.00 in0.0 mm 0.00 in0.0 mm 0.00 in0.0 mm
01:40 AM 51.8°F11.0°C 44.5°F6.9°C 76% 20.8 mph NW33.5 kmh NW 28.0 mph45.1 kmh 29.92 in1013.2 mb 0.00 in0.0 mm 0.00 in0.0 mm 0.00 in0.0 mm
01:41 AM 51.6°F10.9°C 43.2°F6.2°C 73% 24.1 mph NW38.8 kmh NW 27.0 mph43.5 kmh 29.92 in1013.2 mb 0.00 in0.0 mm 0.00 in0.0 mm 0.00 in0.0 mm
01:42 AM 51.6°F10.9°C 43.2°F6.2°C 73% 23.2 mph NW37.3 kmh NW 27.0 mph43.5 kmh 29.92 in1013.2 mb 0.00 in0.0 mm 0.00 in0.0 mm 0.00 in0.0 mm
01:43 AM 51.6°F10.9°C 43.9°F6.6°C 75% 22.0 mph NW35.4 kmh NW 27.0 mph43.5 kmh 29.92 in1013.2 mb 0.00 in0.0 mm 0.00 in0.0 mm 0.00 in0.0 mm
01:44 AM 51.6°F10.9°C 43.9°F6.6°C 75% 23.6 mph NW38.0 kmh NW 28.0 mph45.1 kmh 29.92 in1013.2 mb 0.00 in0.0 mm 0.00 in0.0 mm 0.00 in0.0 mm
01:45 AM 51.7°F10.9°C 44.0°F6.7°C 75% 23.0 mph NW37.0 kmh NW 28.0 mph45.1 kmh 29.92 in1013.2 mb 0.00 in0.0 mm 0.00 in0.0 mm 0.00 in0.0 mm
01:46 AM 51.6°F10.9°C 43.2°F6.2°C 73% 23.3 mph NW37.5 kmh NW 28.0 mph45.1 kmh 29.92 in1013.2 mb 0.00 in0.0 mm 0.00 in0.0 mm 0.00 in0.0 mm
01:47 AM 51.7°F10.9°C 44.0°F6.7°C 75% 23.4 mph NW37.7 kmh NW 28.0 mph45.1 kmh 29.92 in1013.2 mb 0.00 in0.0 mm 0.00 in0.0 mm 0.00 in0.0 mm
01:48 AM 51.6°F10.9°C 43.2°F6.2°C 73% 23.7 mph NW38.1 kmh NW 28.0 mph45.1 kmh 29.92 in1013.2 mb 0.00 in0.0 mm 0.00 in0.0 mm 0.00 in0.0 mm
01:49 AM 51.7°F10.9°C 43.3°F6.3°C 73% 25.5 mph NW41.0 kmh NW 28.0 mph45.1 kmh 29.92 in1013.2 mb 0.00 in0.0 mm 0.00 in0.0 mm 0.00 in0.0 mm
01:50 AM 51.7°F10.9°C 44.0°F6.7°C 75% 22.3 mph NW35.9 kmh NW 28.0 mph45.1 kmh 29.92 in1013.2 mb 0.00 in0.0 mm 0.00 in0.0 mm 0.00 in0.0 mm
01:51 AM 51.7°F10.9°C 43.7°F6.5°C 74% 24.3 mph NW39.1 kmh NW 27.0 mph43.5 kmh 29.92 in1013.2 mb 0.00 in0.0 mm 0.00 in0.0 mm 0.00 in0.0 mm
01:52 AM 51.7°F10.9°C 44.0°F6.7°C 75% 22.7 mph NW36.5 kmh NW 27.0 mph43.5 kmh 29.92 in1013.2 mb 0.00 in0.0 mm 0.00 in0.0 mm 0.00 in0.0 mm
01:53 AM 51.6°F10.9°C 43.6°F6.4°C 74% 23.9 mph NW38.5 kmh NW 27.0 mph43.5 kmh 29.93 in1013.5 mb 0.00 in0.0 mm 0.00 in0.0 mm 0.00 in0.0 mm
01:54 AM 51.6°F10.9°C 43.9°F6.6°C 75% 23.0 mph NW37.0 kmh NW 28.0 mph45.1 kmh 29.92 in1013.2 mb 0.00 in0.0 mm 0.00 in0.0 mm 0.00 in0.0 mm
01:55 AM 51.6°F10.9°C 43.9°F6.6°C 75% 23.8 mph NW38.3 kmh NW 28.0 mph45.1 kmh 29.93 in1013.5 mb 0.00 in0.0 mm 0.00 in0.0 mm 0.00 in0.0 mm
01:56 AM 51.7°F10.9°C 44.0°F6.7°C 75% 23.0 mph NW37.0 kmh NW 28.0 mph45.1 kmh 29.93 in1013.5 mb 0.00 in0.0 mm 0.00 in0.0 mm 0.00 in0.0 mm
01:57 AM 51.7°F10.9°C 44.0°F6.7°C 75% 23.7 mph NW38.1 kmh NW 27.0 mph43.5 kmh 29.93 in1013.5 mb 0.00 in0.0 mm 0.00 in0.0 mm 0.00 in0.0 mm
01:58 AM 51.7°F10.9°C 43.7°F6.5°C 74% 23.7 mph NW38.1 kmh NW 28.0 mph45.1 kmh 29.93 in1013.5 mb 0.00 in0.0 mm 0.00 in0.0 mm 0.00 in0.0 mm
01:59 AM 51.7°F10.9°C 43.7°F6.5°C 74% 22.5 mph NW36.2 kmh NW 28.0 mph45.1 kmh 29.93 in1013.5 mb 0.00 in0.0 mm 0.00 in0.0 mm 0.00 in0.0 mm
02:00 AM 51.7°F10.9°C 43.7°F6.5°C 74% 23.4 mph NW37.7 kmh NW 27.0 mph43.5 kmh 29.93 in1013.5 mb 0.00 in0.0 mm 0.00 in0.0 mm 0.00 in0.0 mm
02:01 AM 51.5°F10.8°C 43.5°F6.4°C 74% 23.1 mph NW37.2 kmh NW 26.0 mph41.8 kmh 29.93 in1013.5 mb 0.00 in0.0 mm 0.00 in0.0 mm 0.00 in0.0 mm
02:02 AM 51.5°F10.8°C 43.1°F6.2°C 73% 25.1 mph NW40.4 kmh NW 29.0 mph46.7 kmh 29.93 in1013.5 mb 0.00 in0.0 mm 0.00 in0.0 mm 0.00 in0.0 mm
02:03 AM 51.5°F10.8°C 43.5°F6.4°C 74% 23.0 mph NW37.0 kmh NW 29.0 mph46.7 kmh 29.93 in1013.5 mb 0.00 in0.0 mm 0.00 in0.0 mm 0.00 in0.0 mm
02:04 AM 51.5°F10.8°C 43.8°F6.6°C 75% 22.7 mph NW36.5 kmh NW 26.0 mph41.8 kmh 29.93 in1013.5 mb 0.00 in0.0 mm 0.00 in0.0 mm 0.00 in0.0 mm
02:05 AM 51.5°F10.8°C 43.8°F6.6°C 75% 22.9 mph NW36.9 kmh NW 27.0 mph43.5 kmh 29.93 in1013.5 mb 0.00 in0.0 mm 0.00 in0.0 mm 0.00 in0.0 mm
02:06 AM 51.5°F10.8°C 43.8°F6.6°C 75% 21.9 mph NW35.2 kmh NW 27.0 mph43.5 kmh 29.93 in1013.5 mb 0.00 in0.0 mm 0.00 in0.0 mm 0.00 in0.0 mm
02:07 AM 51.5°F10.8°C 43.5°F6.4°C 74% 24.6 mph NW39.6 kmh NW 27.0 mph43.5 kmh 29.93 in1013.5 mb 0.00 in0.0 mm 0.00 in0.0 mm 0.00 in0.0 mm
02:08 AM 51.5°F10.8°C 43.5°F6.4°C 74% 23.5 mph NW37.8 kmh NW 27.0 mph43.5 kmh 29.93 in1013.5 mb 0.00 in0.0 mm 0.00 in0.0 mm 0.00 in0.0 mm
02:09 AM 51.5°F10.8°C 43.5°F6.4°C 74% 25.7 mph NW41.4 kmh NW 28.0 mph45.1 kmh 29.93 in1013.5 mb 0.00 in0.0 mm 0.00 in0.0 mm 0.00 in0.0 mm
02:10 AM 51.7°F10.9°C 43.7°F6.5°C 74% 23.4 mph NW37.7 kmh NW 28.0 mph45.1 kmh 29.93 in1013.5 mb 0.00 in0.0 mm 0.00 in0.0 mm 0.00 in0.0 mm
02:11 AM 51.8°F11.0°C 44.5°F6.9°C 76% 21.8 mph NW35.1 kmh NW 26.0 mph41.8 kmh 29.93 in1013.5 mb 0.00 in0.0 mm 0.00 in0.0 mm 0.00 in0.0 mm
02:12 AM 51.8°F11.0°C 44.1°F6.7°C 75% 23.4 mph NW37.7 kmh NW 27.0 mph43.5 kmh 29.93 in1013.5 mb 0.00 in0.0 mm 0.00 in0.0 mm 0.00 in0.0 mm
02:13 AM 51.7°F10.9°C 43.7°F6.5°C 74% 25.7 mph NW41.4 kmh NW 28.0 mph45.1 kmh 29.93 in1013.5 mb 0.00 in0.0 mm 0.00 in0.0 mm 0.00 in0.0 mm
02:14 AM 51.7°F10.9°C 43.7°F6.5°C 74% 23.7 mph NW38.1 kmh NW 28.0 mph45.1 kmh 29.93 in1013.5 mb 0.00 in0.0 mm 0.00 in0.0 mm 0.00 in0.0 mm
02:15 AM 51.7°F10.9°C 44.0°F6.7°C 75% 24.0 mph NW38.6 kmh NW 28.0 mph45.1 kmh 29.93 in1013.5 mb 0.00 in0.0 mm 0.00 in0.0 mm 0.00 in0.0 mm
02:16 AM 51.6°F10.9°C 43.2°F6.2°C 73% 25.7 mph NW41.4 kmh NW 30.0 mph48.3 kmh 29.93 in1013.5 mb 0.00 in0.0 mm 0.00 in0.0 mm 0.00 in0.0 mm
02:17 AM 51.5°F10.8°C 43.1°F6.2°C 73% 25.3 mph NW40.7 kmh NW 30.0 mph48.3 kmh 29.93 in1013.5 mb 0.00 in0.0 mm 0.00 in0.0 mm 0.00 in0.0 mm
02:18 AM 51.5°F10.8°C 43.8°F6.6°C 75% 23.0 mph NW37.0 kmh NW 28.0 mph45.1 kmh 29.93 in1013.5 mb 0.00 in0.0 mm 0.00 in0.0 mm 0.00 in0.0 mm
02:19 AM 51.8°F11.0°C 44.5°F6.9°C 76% 20.2 mph NW32.5 kmh NW 28.0 mph45.1 kmh 29.93 in1013.5 mb 0.00 in0.0 mm 0.00 in0.0 mm 0.00 in0.0 mm
02:20 AM 51.7°F10.9°C 44.0°F6.7°C 75% 23.0 mph NW37.0 kmh NW 27.0 mph43.5 kmh 29.93 in1013.5 mb 0.00 in0.0 mm 0.00 in0.0 mm 0.00 in0.0 mm
02:21 AM 51.7°F10.9°C 43.7°F6.5°C 74% 23.8 mph NW38.3 kmh NW 27.0 mph43.5 kmh 29.94 in1013.9 mb 0.00 in0.0 mm 0.00 in0.0 mm 0.00 in0.0 mm
02:22 AM 51.7°F10.9°C 43.7°F6.5°C 74% 25.3 mph NW40.7 kmh NW 28.0 mph45.1 kmh 29.94 in1013.9 mb 0.00 in0.0 mm 0.00 in0.0 mm 0.00 in0.0 mm
02:23 AM 51.8°F11.0°C 43.4°F6.3°C 73% 24.2 mph NW38.9 kmh NW 28.0 mph45.1 kmh 29.94 in1013.9 mb 0.00 in0.0 mm 0.00 in0.0 mm 0.00 in0.0 mm
02:24 AM 51.7°F10.9°C 43.3°F6.3°C 73% 25.3 mph NW40.7 kmh NW 28.0 mph45.1 kmh 29.94 in1013.9 mb 0.00 in0.0 mm 0.00 in0.0 mm 0.00 in0.0 mm
02:25 AM 51.7°F10.9°C 43.3°F6.3°C 73% 24.0 mph NW38.6 kmh NW 28.0 mph45.1 kmh 29.94 in1013.9 mb 0.00 in0.0 mm 0.00 in0.0 mm 0.00 in0.0 mm
02:26 AM 51.7°F10.9°C 43.7°F6.5°C 74% 21.4 mph NW34.4 kmh NW 26.0 mph41.8 kmh 29.94 in1013.9 mb 0.00 in0.0 mm 0.00 in0.0 mm 0.00 in0.0 mm
02:27 AM 51.7°F10.9°C 43.7°F6.5°C 74% 23.8 mph NW38.3 kmh NW 26.0 mph41.8 kmh 29.94 in1013.9 mb 0.00 in0.0 mm 0.00 in0.0 mm 0.00 in0.0 mm
02:28 AM 51.6°F10.9°C 42.5°F5.8°C 71% 24.7 mph NW39.8 kmh NW 28.0 mph45.1 kmh 29.94 in1013.9 mb 0.00 in0.0 mm 0.00 in0.0 mm 0.00 in0.0 mm
02:29 AM 51.6°F10.9°C 43.2°F6.2°C 73% 22.4 mph NW36.0 kmh NW 28.0 mph45.1 kmh 29.94 in1013.9 mb 0.00 in0.0 mm 0.00 in0.0 mm 0.00 in0.0 mm
02:30 AM 51.6°F10.9°C 43.2°F6.2°C 73% 23.3 mph NW37.5 kmh NW 25.0 mph40.2 kmh 29.94 in1013.9 mb 0.00 in0.0 mm 0.00 in0.0 mm 0.00 in0.0 mm
02:31 AM 51.6°F10.9°C 43.6°F6.4°C 74% 24.6 mph NW39.6 kmh NW 28.0 mph45.1 kmh 29.94 in1013.9 mb 0.00 in0.0 mm 0.00 in0.0 mm 0.00 in0.0 mm
02:32 AM 51.7°F10.9°C 43.7°F6.5°C 74% 22.7 mph NW36.5 kmh NW 28.0 mph45.1 kmh 29.94 in1013.9 mb 0.00 in0.0 mm 0.00 in0.0 mm 0.00 in0.0 mm
02:33 AM 51.8°F11.0°C 43.4°F6.3°C 73% 22.3 mph NW35.9 kmh NW 26.0 mph41.8 kmh 29.94 in1013.9 mb 0.00 in0.0 mm 0.00 in0.0 mm 0.00 in0.0 mm
02:34 AM 51.8°F11.0°C 43.8°F6.6°C 74% 22.2 mph NW35.7 kmh NW 26.0 mph41.8 kmh 29.94 in1013.9 mb 0.00 in0.0 mm 0.00 in0.0 mm 0.00 in0.0 mm
02:35 AM 51.7°F10.9°C 43.3°F6.3°C 73% 22.2 mph NW35.7 kmh NW 25.0 mph40.2 kmh 29.94 in1013.9 mb 0.00 in0.0 mm 0.00 in0.0 mm 0.00 in0.0 mm
02:36 AM 51.7°F10.9°C 43.3°F6.3°C 73% 23.1 mph NW37.2 kmh NW 25.0 mph40.2 kmh 29.94 in1013.9 mb 0.00 in0.0 mm 0.00 in0.0 mm 0.00 in0.0 mm
02:37 AM 51.6°F10.9°C 43.2°F6.2°C 73% 22.0 mph NW35.4 kmh NW 25.0 mph40.2 kmh 29.94 in1013.9 mb 0.00 in0.0 mm 0.00 in0.0 mm 0.00 in0.0 mm
02:38 AM 51.7°F10.9°C 43.7°F6.5°C 74% 20.4 mph NW32.8 kmh NW 25.0 mph40.2 kmh 29.94 in1013.9 mb 0.00 in0.0 mm 0.00 in0.0 mm 0.00 in0.0 mm
02:39 AM 51.7°F10.9°C 43.7°F6.5°C 74% 22.2 mph NW35.7 kmh NW 26.0 mph41.8 kmh 29.95 in1014.2 mb 0.00 in0.0 mm 0.00 in0.0 mm 0.00 in0.0 mm
02:40 AM 51.6°F10.9°C 43.2°F6.2°C 73% 22.4 mph NW36.0 kmh NW 26.0 mph41.8 kmh 29.95 in1014.2 mb 0.00 in0.0 mm 0.00 in0.0 mm 0.00 in0.0 mm
02:41 AM 51.6°F10.9°C 43.2°F6.2°C 73% 21.8 mph NW35.1 kmh NW 26.0 mph41.8 kmh 29.95 in1014.2 mb 0.00 in0.0 mm 0.00 in0.0 mm 0.00 in0.0 mm
02:42 AM 51.6°F10.9°C 42.5°F5.8°C 71% 25.4 mph NW40.9 kmh NW 29.0 mph46.7 kmh 29.95 in1014.2 mb 0.00 in0.0 mm 0.00 in0.0 mm 0.00 in0.0 mm
02:43 AM 51.5°F10.8°C 42.4°F5.8°C 71% 22.6 mph NW36.4 kmh NW 29.0 mph46.7 kmh 29.95 in1014.2 mb 0.00 in0.0 mm 0.00 in0.0 mm 0.00 in0.0 mm
02:44 AM 51.6°F10.9°C 43.6°F6.4°C 74% 22.9 mph NW36.9 kmh NW 27.0 mph43.5 kmh 29.95 in1014.2 mb 0.00 in0.0 mm 0.00 in0.0 mm 0.00 in0.0 mm
02:45 AM 51.5°F10.8°C 42.4°F5.8°C 71% 22.6 mph NW36.4 kmh NW 27.0 mph43.5 kmh 29.95 in1014.2 mb 0.00 in0.0 mm 0.00 in0.0 mm 0.00 in0.0 mm
02:46 AM 51.6°F10.9°C 43.6°F6.4°C 74% 21.5 mph NW34.6 kmh NW 25.0 mph40.2 kmh 29.95 in1014.2 mb 0.00 in0.0 mm 0.00 in0.0 mm 0.00 in0.0 mm
02:47 AM 51.8°F11.0°C 43.8°F6.6°C 74% 22.0 mph NW35.4 kmh NW 26.0 mph41.8 kmh 29.95 in1014.2 mb 0.00 in0.0 mm 0.00 in0.0 mm 0.00 in0.0 mm
02:48 AM 51.7°F10.9°C 43.0°F6.1°C 72% 23.0 mph NW37.0 kmh NW 27.0 mph43.5 kmh 29.95 in1014.2 mb 0.00 in0.0 mm 0.00 in0.0 mm 0.00 in0.0 mm
02:49 AM 51.7°F10.9°C 43.7°F6.5°C 74% 21.5 mph NW34.6 kmh NW 27.0 mph43.5 kmh 29.95 in1014.2 mb 0.00 in0.0 mm 0.00 in0.0 mm 0.00 in0.0 mm
02:50 AM 51.6°F10.9°C 42.5°F5.8°C 71% 23.2 mph NW37.3 kmh NW 26.0 mph41.8 kmh 29.95 in1014.2 mb 0.00 in0.0 mm 0.00 in0.0 mm 0.00 in0.0 mm
02:51 AM 51.6°F10.9°C 43.2°F6.2°C 73% 20.3 mph NW32.7 kmh NW 26.0 mph41.8 kmh 29.95 in1014.2 mb 0.00 in0.0 mm 0.00 in0.0 mm 0.00 in0.0 mm
02:52 AM 51.7°F10.9°C 44.0°F6.7°C 75% 21.8 mph NW35.1 kmh NW 23.0 mph37.0 kmh 29.95 in1014.2 mb 0.00 in0.0 mm 0.00 in0.0 mm 0.00 in0.0 mm
02:53 AM 51.7°F10.9°C 43.7°F6.5°C 74% 21.8 mph NW35.1 kmh NW 25.0 mph40.2 kmh 29.95 in1014.2 mb 0.00 in0.0 mm 0.00 in0.0 mm 0.00 in0.0 mm
02:54 AM 51.7°F10.9°C 43.0°F6.1°C 72% 25.2 mph NW40.6 kmh NW 31.0 mph49.9 kmh 29.95 in1014.2 mb 0.00 in0.0 mm 0.00 in0.0 mm 0.00 in0.0 mm
02:55 AM 51.6°F10.9°C 42.5°F5.8°C 71% 24.4 mph NW39.3 kmh NW 31.0 mph49.9 kmh 29.95 in1014.2 mb 0.00 in0.0 mm 0.00 in0.0 mm 0.00 in0.0 mm
02:56 AM 51.5°F10.8°C 42.0°F5.6°C 70% 24.2 mph NW38.9 kmh NW 29.0 mph46.7 kmh 29.95 in1014.2 mb 0.00 in0.0 mm 0.00 in0.0 mm 0.00 in0.0 mm
02:57 AM 51.6°F10.9°C 42.5°F5.8°C 71% 22.9 mph NW36.9 kmh NW 28.0 mph45.1 kmh 29.95 in1014.2 mb 0.00 in0.0 mm 0.00 in0.0 mm 0.00 in0.0 mm
02:58 AM 51.8°F11.0°C 43.4°F6.3°C 73% 21.9 mph NW35.2 kmh NW 26.0 mph41.8 kmh 29.95 in1014.2 mb 0.00 in0.0 mm 0.00 in0.0 mm 0.00 in0.0 mm
02:59 AM 51.7°F10.9°C 42.6°F5.9°C 71% 25.2 mph NW40.6 kmh NW 28.0 mph45.1 kmh 29.95 in1014.2 mb 0.00 in0.0 mm 0.00 in0.0 mm 0.00 in0.0 mm
03:00 AM 51.8°F11.0°C 43.4°F6.3°C 73% 21.9 mph NW35.2 kmh NW 28.0 mph45.1 kmh 29.95 in1014.2 mb 0.00 in0.0 mm 0.00 in0.0 mm 0.00 in0.0 mm
03:01 AM 51.7°F10.9°C 43.0°F6.1°C 72% 23.5 mph NW37.8 kmh NW 27.0 mph43.5 kmh 29.96 in1014.6 mb 0.00 in0.0 mm 0.00 in0.0 mm 0.00 in0.0 mm
03:02 AM 51.6°F10.9°C 43.2°F6.2°C 73% 25.5 mph NW41.0 kmh NW 29.0 mph46.7 kmh 29.96 in1014.6 mb 0.00 in0.0 mm 0.00 in0.0 mm 0.00 in0.0 mm
03:03 AM 51.5°F10.8°C 42.4°F5.8°C 71% 22.8 mph NW36.7 kmh NW 29.0 mph46.7 kmh 29.96 in1014.6 mb 0.00 in0.0 mm 0.00 in0.0 mm 0.00 in0.0 mm
03:04 AM 51.6°F10.9°C 43.2°F6.2°C 73% 23.1 mph NW37.2 kmh NW 27.0 mph43.5 kmh 29.96 in1014.6 mb 0.00 in0.0 mm 0.00 in0.0 mm 0.00 in0.0 mm
03:05 AM 51.5°F10.8°C 42.4°F5.8°C 71% 24.9 mph NW40.1 kmh NW 28.0 mph45.1 kmh 29.96 in1014.6 mb 0.00 in0.0 mm 0.00 in0.0 mm 0.00 in0.0 mm
03:06 AM 51.6°F10.9°C 42.9°F6.1°C 72% 25.7 mph NW41.4 kmh NW 28.0 mph45.1 kmh 29.96 in1014.6 mb 0.00 in0.0 mm 0.00 in0.0 mm 0.00 in0.0 mm
03:07 AM 51.7°F10.9°C 43.0°F6.1°C 72% 22.8 mph NW36.7 kmh NW 28.0 mph45.1 kmh 29.96 in1014.6 mb 0.00 in0.0 mm 0.00 in0.0 mm 0.00 in0.0 mm
03:08 AM 51.7°F10.9°C 42.6°F5.9°C 71% 25.3 mph NW40.7 kmh NW 29.0 mph46.7 kmh 29.96 in1014.6 mb 0.00 in0.0 mm 0.00 in0.0 mm 0.00 in0.0 mm
03:09 AM 51.6°F10.9°C 42.9°F6.1°C 72% 24.5 mph NW39.4 kmh NW 29.0 mph46.7 kmh 29.96 in1014.6 mb 0.00 in0.0 mm 0.00 in0.0 mm 0.00 in0.0 mm
03:10 AM 51.6°F10.9°C 42.9°F6.1°C 72% 26.5 mph NW42.6 kmh NW 29.0 mph46.7 kmh 29.96 in1014.6 mb 0.00 in0.0 mm 0.00 in0.0 mm 0.00 in0.0 mm
03:11 AM 51.8°F11.0°C 43.4°F6.3°C 73% 23.4 mph NW37.7 kmh NW 29.0 mph46.7 kmh 29.96 in1014.6 mb 0.00 in0.0 mm 0.00 in0.0 mm 0.00 in0.0 mm
03:12 AM 51.7°F10.9°C 42.6°F5.9°C 71% 24.0 mph NW38.6 kmh NW 28.0 mph45.1 kmh 29.96 in1014.6 mb 0.00 in0.0 mm 0.00 in0.0 mm 0.00 in0.0 mm
03:13 AM 51.8°F11.0°C 42.7°F5.9°C 71% 23.3 mph NW37.5 kmh NW 28.0 mph45.1 kmh 29.96 in1014.6 mb 0.00 in0.0 mm 0.00 in0.0 mm 0.00 in0.0 mm
03:14 AM 51.6°F10.9°C 42.9°F6.1°C 72% 23.4 mph NW37.7 kmh NW 27.0 mph43.5 kmh 29.96 in1014.6 mb 0.00 in0.0 mm 0.00 in0.0 mm 0.00 in0.0 mm
03:15 AM 51.6°F10.9°C 42.9°F6.1°C 72% 21.0 mph NW33.8 kmh NW 26.0 mph41.8 kmh 29.96 in1014.6 mb 0.00 in0.0 mm 0.00 in0.0 mm 0.00 in0.0 mm
03:16 AM 51.7°F10.9°C 43.7°F6.5°C 74% 23.0 mph NW37.0 kmh NW 27.0 mph43.5 kmh 29.96 in1014.6 mb 0.00 in0.0 mm 0.00 in0.0 mm 0.00 in0.0 mm
03:17 AM 51.6°F10.9°C 42.9°F6.1°C 72% 23.5 mph NW37.8 kmh NW 27.0 mph43.5 kmh 29.96 in1014.6 mb 0.00 in0.0 mm 0.00 in0.0 mm 0.00 in0.0 mm
03:18 AM 51.5°F10.8°C 42.4°F5.8°C 71% 24.1 mph NW38.8 kmh NW 27.0 mph43.5 kmh 29.97 in1014.9 mb 0.00 in0.0 mm 0.00 in0.0 mm 0.00 in0.0 mm
03:19 AM 51.4°F10.8°C 42.3°F5.7°C 71% 24.4 mph NW39.3 kmh NW 29.0 mph46.7 kmh 29.97 in1014.9 mb 0.00 in0.0 mm 0.00 in0.0 mm 0.00 in0.0 mm
03:20 AM 51.5°F10.8°C 43.5°F6.4°C 74% 23.3 mph NW37.5 kmh NW 29.0 mph46.7 kmh 29.97 in1014.9 mb 0.00 in0.0 mm 0.00 in0.0 mm 0.00 in0.0 mm
03:21 AM 51.5°F10.8°C 43.1°F6.2°C 73% 24.0 mph NW38.6 kmh NW 26.0 mph41.8 kmh 29.97 in1014.9 mb 0.00 in0.0 mm 0.00 in0.0 mm 0.00 in0.0 mm
03:22 AM 51.5°F10.8°C 43.8°F6.6°C 75% 21.4 mph NW34.4 kmh NW 26.0 mph41.8 kmh 29.97 in1014.9 mb 0.00 in0.0 mm 0.00 in0.0 mm 0.00 in0.0 mm
03:23 AM 51.7°F10.9°C 44.0°F6.7°C 75% 21.5 mph NW34.6 kmh NW 29.0 mph46.7 kmh 29.97 in1014.9 mb 0.00 in0.0 mm 0.00 in0.0 mm 0.00 in0.0 mm
03:24 AM 51.6°F10.9°C 42.9°F6.1°C 72% 25.5 mph NW41.0 kmh NW 29.0 mph46.7 kmh 29.97 in1014.9 mb 0.00 in0.0 mm 0.00 in0.0 mm 0.00 in0.0 mm
03:25 AM 51.5°F10.8°C 43.1°F6.2°C 73% 23.1 mph NW37.2 kmh NW 28.0 mph45.1 kmh 29.97 in1014.9 mb 0.00 in0.0 mm 0.00 in0.0 mm 0.00 in0.0 mm
03:26 AM 51.6°F10.9°C 43.2°F6.2°C 73% 24.5 mph NW39.4 kmh NW 27.0 mph43.5 kmh 29.97 in1014.9 mb 0.00 in0.0 mm 0.00 in0.0 mm 0.00 in0.0 mm
03:27 AM 51.5°F10.8°C 42.4°F5.8°C 71% 24.9 mph NW40.1 kmh NW 29.0 mph46.7 kmh 29.97 in1014.9 mb 0.00 in0.0 mm 0.00 in0.0 mm 0.00 in0.0 mm
03:28 AM 51.6°F10.9°C 43.2°F6.2°C 73% 26.2 mph NW42.2 kmh NW 30.0 mph48.3 kmh 29.97 in1014.9 mb 0.00 in0.0 mm 0.00 in0.0 mm 0.00 in0.0 mm
03:29 AM 51.5°F10.8°C 43.1°F6.2°C 73% 24.8 mph NW39.9 kmh NW 30.0 mph48.3 kmh 29.97 in1014.9 mb 0.00 in0.0 mm 0.00 in0.0 mm 0.00 in0.0 mm
03:30 AM 51.5°F10.8°C 42.8°F6.0°C 72% 25.1 mph NW40.4 kmh NW 28.0 mph45.1 kmh 29.97 in1014.9 mb 0.00 in0.0 mm 0.00 in0.0 mm 0.00 in0.0 mm
03:31 AM 51.5°F10.8°C 43.1°F6.2°C 73% 23.7 mph NW38.1 kmh NW 28.0 mph45.1 kmh 29.97 in1014.9 mb 0.00 in0.0 mm 0.00 in0.0 mm 0.00 in0.0 mm
03:32 AM 51.5°F10.8°C 43.1°F6.2°C 73% 22.8 mph NW36.7 kmh NW 27.0 mph43.5 kmh 29.97 in1014.9 mb 0.00 in0.0 mm 0.00 in0.0 mm 0.00 in0.0 mm
03:33 AM 51.5°F10.8°C 42.8°F6.0°C 72% 22.5 mph NW36.2 kmh NW 27.0 mph43.5 kmh 29.97 in1014.9 mb 0.00 in0.0 mm 0.00 in0.0 mm 0.00 in0.0 mm
03:34 AM 51.5°F10.8°C 43.1°F6.2°C 73% 22.0 mph NW35.4 kmh NW 25.0 mph40.2 kmh 29.97 in1014.9 mb 0.00 in0.0 mm 0.00 in0.0 mm 0.00 in0.0 mm
03:35 AM 51.5°F10.8°C 42.8°F6.0°C 72% 24.6 mph NW39.6 kmh NW 28.0 mph45.1 kmh 29.98 in1015.2 mb 0.00 in0.0 mm 0.00 in0.0 mm 0.00 in0.0 mm
03:36 AM 51.5°F10.8°C 42.8°F6.0°C 72% 26.6 mph NW42.8 kmh NW 29.0 mph46.7 kmh 29.97 in1014.9 mb 0.00 in0.0 mm 0.00 in0.0 mm 0.00 in0.0 mm
03:37 AM 51.5°F10.8°C 43.1°F6.2°C 73% 22.1 mph NW35.6 kmh NW 29.0 mph46.7 kmh 29.98 in1015.2 mb 0.00 in0.0 mm 0.00 in0.0 mm 0.00 in0.0 mm
03:38 AM 51.6°F10.9°C 43.2°F6.2°C 73% 23.4 mph NW37.7 kmh NW 27.0 mph43.5 kmh 29.98 in1015.2 mb 0.00 in0.0 mm 0.00 in0.0 mm 0.00 in0.0 mm
03:39 AM 51.5°F10.8°C 43.1°F6.2°C 73% 23.7 mph NW38.1 kmh NW 27.0 mph43.5 kmh 29.98 in1015.2 mb 0.00 in0.0 mm 0.00 in0.0 mm 0.00 in0.0 mm
03:40 AM 51.6°F10.9°C 43.2°F6.2°C 73% 24.2 mph NW38.9 kmh NW 28.0 mph45.1 kmh 29.98 in1015.2 mb 0.00 in0.0 mm 0.00 in0.0 mm 0.00 in0.0 mm
03:41 AM 51.6°F10.9°C 42.9°F6.1°C 72% 26.9 mph NW43.3 kmh NW 30.0 mph48.3 kmh 29.98 in1015.2 mb 0.00 in0.0 mm 0.00 in0.0 mm 0.00 in0.0 mm
03:42 AM 51.6°F10.9°C 43.6°F6.4°C 74% 23.2 mph NW37.3 kmh NW 29.0 mph46.7 kmh 29.98 in1015.2 mb 0.00 in0.0 mm 0.00 in0.0 mm 0.00 in0.0 mm
03:43 AM 51.7°F10.9°C 43.0°F6.1°C 72% 26.6 mph NW42.8 kmh NW 30.0 mph48.3 kmh 29.98 in1015.2 mb 0.00 in0.0 mm 0.00 in0.0 mm 0.00 in0.0 mm
03:44 AM 51.6°F10.9°C 42.5°F5.8°C 71% 26.2 mph NW42.2 kmh NW 30.0 mph48.3 kmh 29.98 in1015.2 mb 0.00 in0.0 mm 0.00 in0.0 mm 0.00 in0.0 mm
03:45 AM 51.6°F10.9°C 42.5°F5.8°C 71% 25.8 mph NW41.5 kmh NW 30.0 mph48.3 kmh 29.98 in1015.2 mb 0.00 in0.0 mm 0.00 in0.0 mm 0.00 in0.0 mm
03:46 AM 51.6°F10.9°C 42.9°F6.1°C 72% 24.6 mph NW39.6 kmh NW 30.0 mph48.3 kmh 29.98 in1015.2 mb 0.00 in0.0 mm 0.00 in0.0 mm 0.00 in0.0 mm
03:47 AM 51.6°F10.9°C 43.2°F6.2°C 73% 25.2 mph NW40.6 kmh NW 30.0 mph48.3 kmh 29.98 in1015.2 mb 0.00 in0.0 mm 0.00 in0.0 mm 0.00 in0.0 mm
03:48 AM 51.6°F10.9°C 42.5°F5.8°C 71% 26.3 mph NW42.3 kmh NW 29.0 mph46.7 kmh 29.98 in1015.2 mb 0.00 in0.0 mm 0.00 in0.0 mm 0.00 in0.0 mm
03:49 AM 51.5°F10.8°C 42.0°F5.6°C 70% 26.3 mph NW42.3 kmh NW 31.0 mph49.9 kmh 29.98 in1015.2 mb 0.00 in0.0 mm 0.00 in0.0 mm 0.00 in0.0 mm
03:50 AM 51.6°F10.9°C 42.5°F5.8°C 71% 26.7 mph NW43.0 kmh NW 31.0 mph49.9 kmh 29.98 in1015.2 mb 0.00 in0.0 mm 0.00 in0.0 mm 0.00 in0.0 mm
03:51 AM 51.7°F10.9°C 42.6°F5.9°C 71% 25.6 mph NW41.2 kmh NW 29.0 mph46.7 kmh 29.98 in1015.2 mb 0.00 in0.0 mm 0.00 in0.0 mm 0.00 in0.0 mm
03:52 AM 51.6°F10.9°C 41.4°F5.2°C 68% 26.0 mph NW41.8 kmh NW 29.0 mph46.7 kmh 29.98 in1015.2 mb 0.00 in0.0 mm 0.00 in0.0 mm 0.00 in0.0 mm
03:53 AM 51.6°F10.9°C 42.5°F5.8°C 71% 24.8 mph NW39.9 kmh NW 29.0 mph46.7 kmh 29.98 in1015.2 mb 0.00 in0.0 mm 0.00 in0.0 mm 0.00 in0.0 mm
03:54 AM 51.7°F10.9°C 43.0°F6.1°C 72% 24.8 mph NW39.9 kmh NW 32.0 mph51.5 kmh 29.98 in1015.2 mb 0.00 in0.0 mm 0.00 in0.0 mm 0.00 in0.0 mm
03:55 AM 51.7°F10.9°C 41.9°F5.5°C 69% 27.3 mph NW43.9 kmh NW 32.0 mph51.5 kmh 29.98 in1015.2 mb 0.00 in0.0 mm 0.00 in0.0 mm 0.00 in0.0 mm
03:56 AM 51.8°F11.0°C 42.7°F5.9°C 71% 24.9 mph NW40.1 kmh NW 31.0 mph49.9 kmh 29.98 in1015.2 mb 0.00 in0.0 mm 0.00 in0.0 mm 0.00 in0.0 mm
03:57 AM 51.9°F11.1°C 43.2°F6.2°C 72% 24.2 mph NW38.9 kmh NW 28.0 mph45.1 kmh 29.98 in1015.2 mb 0.00 in0.0 mm 0.00 in0.0 mm 0.00 in0.0 mm
03:58 AM 51.8°F11.0°C 42.0°F5.6°C 69% 26.9 mph NW43.3 kmh NW 31.0 mph49.9 kmh 29.98 in1015.2 mb 0.00 in0.0 mm 0.00 in0.0 mm 0.00 in0.0 mm
03:59 AM 51.8°F11.0°C 42.0°F5.6°C 69% 26.0 mph NW41.8 kmh NW 31.0 mph49.9 kmh 29.98 in1015.2 mb 0.00 in0.0 mm 0.00 in0.0 mm 0.00 in0.0 mm
04:00 AM 51.8°F11.0°C 42.7°F5.9°C 71% 24.4 mph NW39.3 kmh NW 28.0 mph45.1 kmh 29.98 in1015.2 mb 0.00 in0.0 mm 0.00 in0.0 mm 0.00 in0.0 mm
04:01 AM 51.8°F11.0°C 42.3°F5.7°C 70% 28.3 mph NW45.5 kmh NW 32.0 mph51.5 kmh 29.98 in1015.2 mb 0.00 in0.0 mm 0.00 in0.0 mm 0.00 in0.0 mm
04:02 AM 51.8°F11.0°C 41.2°F5.1°C 67% 25.9 mph NW41.7 kmh NW 32.0 mph51.5 kmh 29.98 in1015.2 mb 0.00 in0.0 mm 0.00 in0.0 mm 0.00 in0.0 mm
04:03 AM 51.9°F11.1°C 41.7°F5.4°C 68% 27.5 mph NW44.3 kmh NW 31.0 mph49.9 kmh 29.98 in1015.2 mb 0.00 in0.0 mm 0.00 in0.0 mm 0.00 in0.0 mm
04:04 AM 51.8°F11.0°C 42.3°F5.7°C 70% 24.2 mph NW38.9 kmh NW 31.0 mph49.9 kmh 29.99 in1015.6 mb 0.00 in0.0 mm 0.00 in0.0 mm 0.00 in0.0 mm
04:05 AM 51.8°F11.0°C 42.7°F5.9°C 71% 24.5 mph NW39.4 kmh NW 30.0 mph48.3 kmh 29.99 in1015.6 mb 0.00 in0.0 mm 0.00 in0.0 mm 0.00 in0.0 mm
04:06 AM 51.8°F11.0°C 42.3°F5.7°C 70% 24.6 mph NW39.6 kmh NW 30.0 mph48.3 kmh 29.99 in1015.6 mb 0.00 in0.0 mm 0.00 in0.0 mm 0.00 in0.0 mm
04:07 AM 51.8°F11.0°C 42.7°F5.9°C 71% 24.5 mph NW39.4 kmh NW 28.0 mph45.1 kmh 29.99 in1015.6 mb 0.00 in0.0 mm 0.00 in0.0 mm 0.00 in0.0 mm
04:08 AM 51.8°F11.0°C 42.3°F5.7°C 70% 23.4 mph NW37.7 kmh NW 28.0 mph45.1 kmh 29.99 in1015.6 mb 0.00 in0.0 mm 0.00 in0.0 mm 0.00 in0.0 mm
04:09 AM 51.8°F11.0°C 41.6°F5.3°C 68% 25.5 mph NW41.0 kmh NW 28.0 mph45.1 kmh 29.99 in1015.6 mb 0.00 in0.0 mm 0.00 in0.0 mm 0.00 in0.0 mm
04:10 AM 51.7°F10.9°C 41.9°F5.5°C 69% 25.0 mph NW40.2 kmh NW 29.0 mph46.7 kmh 29.99 in1015.6 mb 0.00 in0.0 mm 0.00 in0.0 mm 0.00 in0.0 mm
04:11 AM 51.8°F11.0°C 42.0°F5.6°C 69% 28.1 mph NW45.2 kmh NW 31.0 mph49.9 kmh 29.99 in1015.6 mb 0.00 in0.0 mm 0.00 in0.0 mm 0.00 in0.0 mm
04:12 AM 51.7°F10.9°C 41.9°F5.5°C 69% 27.7 mph NW44.6 kmh NW 31.0 mph49.9 kmh 29.99 in1015.6 mb 0.00 in0.0 mm 0.00 in0.0 mm 0.00 in0.0 mm
04:13 AM 51.7°F10.9°C 41.5°F5.3°C 68% 26.1 mph NW42.0 kmh NW 31.0 mph49.9 kmh 29.99 in1015.6 mb 0.00 in0.0 mm 0.00 in0.0 mm 0.00 in0.0 mm
04:14 AM 51.7°F10.9°C 41.9°F5.5°C 69% 25.2 mph NW40.6 kmh NW 29.0 mph46.7 kmh 29.99 in1015.6 mb 0.00 in0.0 mm 0.00 in0.0 mm 0.00 in0.0 mm
04:15 AM 51.8°F11.0°C 43.1°F6.2°C 72% 23.7 mph NW38.1 kmh NW 28.0 mph45.1 kmh 29.99 in1015.6 mb 0.00 in0.0 mm 0.00 in0.0 mm 0.00 in0.0 mm
04:16 AM 51.8°F11.0°C 43.8°F6.6°C 74% 21.6 mph NW34.8 kmh NW 27.0 mph43.5 kmh 29.99 in1015.6 mb 0.00 in0.0 mm 0.00 in0.0 mm 0.00 in0.0 mm
04:17 AM 51.8°F11.0°C 42.7°F5.9°C 71% 25.1 mph NW40.4 kmh NW 29.0 mph46.7 kmh 29.99 in1015.6 mb 0.00 in0.0 mm 0.00 in0.0 mm 0.00 in0.0 mm
04:18 AM 51.7°F10.9°C 42.6°F5.9°C 71% 23.4 mph NW37.7 kmh NW 29.0 mph46.7 kmh 29.99 in1015.6 mb 0.00 in0.0 mm 0.00 in0.0 mm 0.00 in0.0 mm
04:19 AM 51.7°F10.9°C 41.9°F5.5°C 69% 25.9 mph NW41.7 kmh NW 32.0 mph51.5 kmh 29.99 in1015.6 mb 0.00 in0.0 mm 0.00 in0.0 mm 0.00 in0.0 mm
04:20 AM 51.6°F10.9°C 41.4°F5.2°C 68% 25.7 mph NW41.4 kmh NW 32.0 mph51.5 kmh 29.99 in1015.6 mb 0.00 in0.0 mm 0.00 in0.0 mm 0.00 in0.0 mm
04:21 AM 51.8°F11.0°C 43.8°F6.6°C 74% 22.6 mph NW36.4 kmh NW 31.0 mph49.9 kmh 29.99 in1015.6 mb 0.00 in0.0 mm 0.00 in0.0 mm 0.00 in0.0 mm
04:22 AM 51.8°F11.0°C 42.7°F5.9°C 71% 23.0 mph NW37.0 kmh NW 27.0 mph43.5 kmh 29.99 in1015.6 mb 0.00 in0.0 mm 0.00 in0.0 mm 0.00 in0.0 mm
04:23 AM 51.7°F10.9°C 42.2°F5.7°C 70% 24.7 mph NW39.8 kmh NW 27.0 mph43.5 kmh 29.99 in1015.6 mb 0.00 in0.0 mm 0.00 in0.0 mm 0.00 in0.0 mm
04:24 AM 51.7°F10.9°C 42.6°F5.9°C 71% 23.4 mph NW37.7 kmh NW 28.0 mph45.1 kmh 29.99 in1015.6 mb 0.00 in0.0 mm 0.00 in0.0 mm 0.00 in0.0 mm
04:25 AM 51.7°F10.9°C 42.6°F5.9°C 71% 24.4 mph NW39.3 kmh NW 28.0 mph45.1 kmh 29.99 in1015.6 mb 0.00 in0.0 mm 0.00 in0.0 mm 0.00 in0.0 mm
04:26 AM 51.5°F10.8°C 42.0°F5.6°C 70% 23.9 mph NW38.5 kmh NW 27.0 mph43.5 kmh 29.99 in1015.6 mb 0.00 in0.0 mm 0.00 in0.0 mm 0.00 in0.0 mm
04:27 AM 51.5°F10.8°C 42.0°F5.6°C 70% 23.7 mph NW38.1 kmh NW 26.0 mph41.8 kmh 29.99 in1015.6 mb 0.00 in0.0 mm 0.00 in0.0 mm 0.00 in0.0 mm
04:28 AM 51.6°F10.9°C 42.5°F5.8°C 71% 23.4 mph NW37.7 kmh NW 27.0 mph43.5 kmh 29.99 in1015.6 mb 0.00 in0.0 mm 0.00 in0.0 mm 0.00 in0.0 mm
04:29 AM 51.6°F10.9°C 42.1°F5.6°C 70% 24.0 mph NW38.6 kmh NW 27.0 mph43.5 kmh 29.99 in1015.6 mb 0.00 in0.0 mm 0.00 in0.0 mm 0.00 in0.0 mm
04:30 AM 51.6°F10.9°C 42.5°F5.8°C 71% 23.7 mph NW38.1 kmh NW 27.0 mph43.5 kmh 29.99 in1015.6 mb 0.00 in0.0 mm 0.00 in0.0 mm 0.00 in0.0 mm
04:31 AM 51.6°F10.9°C 42.5°F5.8°C 71% 24.3 mph NW39.1 kmh NW 27.0 mph43.5 kmh 29.99 in1015.6 mb 0.00 in0.0 mm 0.00 in0.0 mm 0.00 in0.0 mm
04:32 AM 51.7°F10.9°C 42.6°F5.9°C 71% 22.3 mph NW35.9 kmh NW 27.0 mph43.5 kmh 29.99 in1015.6 mb 0.00 in0.0 mm 0.00 in0.0 mm 0.00 in0.0 mm
04:33 AM 51.8°F11.0°C 43.1°F6.2°C 72% 23.5 mph NW37.8 kmh NW 28.0 mph45.1 kmh 29.99 in1015.6 mb 0.00 in0.0 mm 0.00 in0.0 mm 0.00 in0.0 mm
04:34 AM 51.7°F10.9°C 42.6°F5.9°C 71% 22.6 mph NW36.4 kmh NW 28.0 mph45.1 kmh 29.99 in1015.6 mb 0.00 in0.0 mm 0.00 in0.0 mm 0.00 in0.0 mm
04:35 AM 51.7°F10.9°C 43.3°F6.3°C 73% 21.9 mph NW35.2 kmh NW 26.0 mph41.8 kmh 29.99 in1015.6 mb 0.00 in0.0 mm 0.00 in0.0 mm 0.00 in0.0 mm
04:36 AM 51.6°F10.9°C 42.5°F5.8°C 71% 23.1 mph NW37.2 kmh NW 28.0 mph45.1 kmh 29.99 in1015.6 mb 0.00 in0.0 mm 0.00 in0.0 mm 0.00 in0.0 mm
04:37 AM 51.6°F10.9°C 42.5°F5.8°C 71% 22.4 mph NW36.0 kmh NW 28.0 mph45.1 kmh 30.00 in1015.9 mb 0.00 in0.0 mm 0.00 in0.0 mm 0.00 in0.0 mm
04:38 AM 51.5°F10.8°C 42.4°F5.8°C 71% 22.4 mph NW36.0 kmh NW 26.0 mph41.8 kmh 30.00 in1015.9 mb 0.00 in0.0 mm 0.00 in0.0 mm 0.00 in0.0 mm
04:39 AM 51.6°F10.9°C 42.9°F6.1°C 72% 23.1 mph NW37.2 kmh NW 26.0 mph41.8 kmh 29.99 in1015.6 mb 0.00 in0.0 mm 0.00 in0.0 mm 0.00 in0.0 mm
04:40 AM 51.6°F10.9°C 42.5°F5.8°C 71% 23.8 mph NW38.3 kmh NW 27.0 mph43.5 kmh 29.99 in1015.6 mb 0.00 in0.0 mm 0.00 in0.0 mm 0.00 in0.0 mm
04:41 AM 51.5°F10.8°C 42.0°F5.6°C 70% 25.6 mph NW41.2 kmh NW 30.0 mph48.3 kmh 30.00 in1015.9 mb 0.00 in0.0 mm 0.00 in0.0 mm 0.00 in0.0 mm
04:42 AM 51.5°F10.8°C 42.4°F5.8°C 71% 23.4 mph NW37.7 kmh NW 30.0 mph48.3 kmh 30.00 in1015.9 mb 0.00 in0.0 mm 0.00 in0.0 mm 0.00 in0.0 mm
04:43 AM 51.5°F10.8°C 42.4°F5.8°C 71% 23.6 mph NW38.0 kmh NW 27.0 mph43.5 kmh 30.00 in1015.9 mb 0.00 in0.0 mm 0.00 in0.0 mm 0.00 in0.0 mm
04:44 AM 51.4°F10.8°C 42.7°F5.9°C 72% 22.4 mph NW36.0 kmh NW 26.0 mph41.8 kmh 30.00 in1015.9 mb 0.00 in0.0 mm 0.00 in0.0 mm 0.00 in0.0 mm
04:45 AM 51.5°F10.8°C 42.4°F5.8°C 71% 22.4 mph NW36.0 kmh NW 25.0 mph40.2 kmh 30.00 in1015.9 mb 0.00 in0.0 mm 0.00 in0.0 mm 0.00 in0.0 mm
04:46 AM 51.4°F10.8°C 42.7°F5.9°C 72% 21.8 mph NW35.1 kmh NW 26.0 mph41.8 kmh 30.00 in1015.9 mb 0.00 in0.0 mm 0.00 in0.0 mm 0.00 in0.0 mm
04:47 AM 51.4°F10.8°C 42.3°F5.7°C 71% 24.4 mph NW39.3 kmh NW 29.0 mph46.7 kmh 30.00 in1015.9 mb 0.00 in0.0 mm 0.00 in0.0 mm 0.00 in0.0 mm
04:48 AM 51.3°F10.7°C 41.5°F5.3°C 69% 22.4 mph NW36.0 kmh NW 29.0 mph46.7 kmh 30.00 in1015.9 mb 0.00 in0.0 mm 0.00 in0.0 mm 0.00 in0.0 mm
04:49 AM 51.3°F10.7°C 41.9°F5.5°C 70% 22.9 mph NW36.9 kmh NW 27.0 mph43.5 kmh 30.00 in1015.9 mb 0.00 in0.0 mm 0.00 in0.0 mm 0.00 in0.0 mm
04:50 AM 51.3°F10.7°C 41.9°F5.5°C 70% 22.8 mph NW36.7 kmh NW 27.0 mph43.5 kmh 30.00 in1015.9 mb 0.00 in0.0 mm 0.00 in0.0 mm 0.00 in0.0 mm
04:51 AM 51.3°F10.7°C 42.9°F6.1°C 73% 21.2 mph NW34.1 kmh NW 27.0 mph43.5 kmh 30.00 in1015.9 mb 0.00 in0.0 mm 0.00 in0.0 mm 0.00 in0.0 mm
04:52 AM 51.2°F10.7°C 42.5°F5.8°C 72% 21.0 mph NW33.8 kmh NW 26.0 mph41.8 kmh 30.00 in1015.9 mb 0.00 in0.0 mm 0.00 in0.0 mm 0.00 in0.0 mm
04:53 AM 51.2°F10.7°C 42.5°F5.8°C 72% 21.7 mph NW34.9 kmh NW 26.0 mph41.8 kmh 30.00 in1015.9 mb 0.00 in0.0 mm 0.00 in0.0 mm 0.00 in0.0 mm
04:54 AM 51.1°F10.6°C 42.4°F5.8°C 72% 22.2 mph NW35.7 kmh NW 25.0 mph40.2 kmh 30.00 in1015.9 mb 0.00 in0.0 mm 0.00 in0.0 mm 0.00 in0.0 mm
04:55 AM 51.1°F10.6°C 42.4°F5.8°C 72% 21.2 mph NW34.1 kmh NW 26.0 mph41.8 kmh 30.00 in1015.9 mb 0.00 in0.0 mm 0.00 in0.0 mm 0.00 in0.0 mm
04:56 AM 51.2°F10.7°C 42.8°F6.0°C 73% 20.3 mph NW32.7 kmh NW 26.0 mph41.8 kmh 30.00 in1015.9 mb 0.00 in0.0 mm 0.00 in0.0 mm 0.00 in0.0 mm
04:57 AM 51.2°F10.7°C 43.2°F6.2°C 74% 20.1 mph NW32.3 kmh NW 25.0 mph40.2 kmh 30.00 in1015.9 mb 0.00 in0.0 mm 0.00 in0.0 mm 0.00 in0.0 mm
04:58 AM 51.2°F10.7°C 42.5°F5.8°C 72% 24.2 mph NW38.9 kmh NW 27.0 mph43.5 kmh 30.00 in1015.9 mb 0.00 in0.0 mm 0.00 in0.0 mm 0.00 in0.0 mm
04:59 AM 51.2°F10.7°C 42.5°F5.8°C 72% 21.4 mph NW34.4 kmh NW 27.0 mph43.5 kmh 30.00 in1015.9 mb 0.00 in0.0 mm 0.00 in0.0 mm 0.00 in0.0 mm
05:00 AM 51.2°F10.7°C 42.5°F5.8°C 72% 21.5 mph NW34.6 kmh NW 25.0 mph40.2 kmh 30.00 in1015.9 mb 0.00 in0.0 mm 0.00 in0.0 mm 0.00 in0.0 mm
05:01 AM 51.2°F10.7°C 42.8°F6.0°C 73% 22.1 mph NW35.6 kmh NW 26.0 mph41.8 kmh 30.00 in1015.9 mb 0.00 in0.0 mm 0.00 in0.0 mm 0.00 in0.0 mm
05:02 AM 51.3°F10.7°C 42.9°F6.1°C 73% 23.5 mph NW37.8 kmh NW 26.0 mph41.8 kmh 30.00 in1015.9 mb 0.00 in0.0 mm 0.00 in0.0 mm 0.00 in0.0 mm
05:03 AM 51.3°F10.7°C 42.6°F5.9°C 72% 22.8 mph NW36.7 kmh NW 26.0 mph41.8 kmh 30.01 in1016.3 mb 0.00 in0.0 mm 0.00 in0.0 mm 0.00 in0.0 mm
05:04 AM 51.2°F10.7°C 42.1°F5.6°C 71% 24.7 mph NW39.8 kmh NW 28.0 mph45.1 kmh 30.00 in1015.9 mb 0.00 in0.0 mm 0.00 in0.0 mm 0.00 in0.0 mm
05:05 AM 51.2°F10.7°C 42.1°F5.6°C 71% 24.5 mph NW39.4 kmh NW 28.0 mph45.1 kmh 30.01 in1016.3 mb 0.00 in0.0 mm 0.00 in0.0 mm 0.00 in0.0 mm
05:06 AM 51.2°F10.7°C 42.1°F5.6°C 71% 25.0 mph NW40.2 kmh NW 29.0 mph46.7 kmh 30.01 in1016.3 mb 0.00 in0.0 mm 0.00 in0.0 mm 0.00 in0.0 mm
05:07 AM 51.4°F10.8°C 42.3°F5.7°C 71% 22.2 mph NW35.7 kmh NW 29.0 mph46.7 kmh 30.01 in1016.3 mb 0.00 in0.0 mm 0.00 in0.0 mm 0.00 in0.0 mm
05:08 AM 51.3°F10.7°C 42.2°F5.7°C 71% 23.2 mph NW37.3 kmh NW 26.0 mph41.8 kmh 30.01 in1016.3 mb 0.00 in0.0 mm 0.00 in0.0 mm 0.00 in0.0 mm
05:09 AM 51.2°F10.7°C 41.8°F5.4°C 70% 25.2 mph NW40.6 kmh NW 28.0 mph45.1 kmh 30.01 in1016.3 mb 0.00 in0.0 mm 0.00 in0.0 mm 0.00 in0.0 mm
05:10 AM 51.2°F10.7°C 42.1°F5.6°C 71% 22.1 mph NW35.6 kmh NW 28.0 mph45.1 kmh 30.01 in1016.3 mb 0.00 in0.0 mm 0.00 in0.0 mm 0.00 in0.0 mm
05:11 AM 51.3°F10.7°C 42.9°F6.1°C 73% 21.4 mph NW34.4 kmh NW 25.0 mph40.2 kmh 30.01 in1016.3 mb 0.00 in0.0 mm 0.00 in0.0 mm 0.00 in0.0 mm
05:12 AM 51.2°F10.7°C 42.8°F6.0°C 73% 20.5 mph NW33.0 kmh NW 24.0 mph38.6 kmh 30.01 in1016.3 mb 0.00 in0.0 mm 0.00 in0.0 mm 0.00 in0.0 mm
05:13 AM 51.2°F10.7°C 42.8°F6.0°C 73% 22.0 mph NW35.4 kmh NW 24.0 mph38.6 kmh 30.01 in1016.3 mb 0.00 in0.0 mm 0.00 in0.0 mm 0.00 in0.0 mm
05:14 AM 51.2°F10.7°C 42.8°F6.0°C 73% 21.8 mph NW35.1 kmh NW 27.0 mph43.5 kmh 30.01 in1016.3 mb 0.00 in0.0 mm 0.00 in0.0 mm 0.00 in0.0 mm
05:15 AM 51.2°F10.7°C 42.5°F5.8°C 72% 25.1 mph NW40.4 kmh NW 30.0 mph48.3 kmh 30.01 in1016.3 mb 0.00 in0.0 mm 0.00 in0.0 mm 0.00 in0.0 mm
05:16 AM 51.2°F10.7°C 42.5°F5.8°C 72% 22.5 mph NW36.2 kmh NW 30.0 mph48.3 kmh 30.01 in1016.3 mb 0.00 in0.0 mm 0.00 in0.0 mm 0.00 in0.0 mm
05:17 AM 51.2°F10.7°C 42.1°F5.6°C 71% 22.2 mph NW35.7 kmh NW 26.0 mph41.8 kmh 30.01 in1016.3 mb 0.00 in0.0 mm 0.00 in0.0 mm 0.00 in0.0 mm
05:18 AM 51.1°F10.6°C 42.4°F5.8°C 72% 23.2 mph NW37.3 kmh NW 26.0 mph41.8 kmh 30.01 in1016.3 mb 0.00 in0.0 mm 0.00 in0.0 mm 0.00 in0.0 mm
05:19 AM 51.1°F10.6°C 41.7°F5.4°C 70% 21.9 mph NW35.2 kmh NW 27.0 mph43.5 kmh 30.01 in1016.3 mb 0.00 in0.0 mm 0.00 in0.0 mm 0.00 in0.0 mm
05:20 AM 51.1°F10.6°C 42.0°F5.6°C 71% 24.1 mph NW38.8 kmh NW 27.0 mph43.5 kmh 30.01 in1016.3 mb 0.00 in0.0 mm 0.00 in0.0 mm 0.00 in0.0 mm
05:21 AM 51.1°F10.6°C 41.7°F5.4°C 70% 24.8 mph NW39.9 kmh NW 28.0 mph45.1 kmh 30.01 in1016.3 mb 0.00 in0.0 mm 0.00 in0.0 mm 0.00 in0.0 mm
05:22 AM 51.0°F10.6°C 41.9°F5.5°C 71% 24.5 mph NW39.4 kmh NW 28.0 mph45.1 kmh 30.01 in1016.3 mb 0.00 in0.0 mm 0.00 in0.0 mm 0.00 in0.0 mm
05:23 AM 51.1°F10.6°C 42.4°F5.8°C 72% 21.8 mph NW35.1 kmh NW 28.0 mph45.1 kmh 30.01 in1016.3 mb 0.00 in0.0 mm 0.00 in0.0 mm 0.00 in0.0 mm
05:24 AM 51.0°F10.6°C 42.7°F5.9°C 73% 24.9 mph NW40.1 kmh NW 28.0 mph45.1 kmh 30.01 in1016.3 mb 0.00 in0.0 mm 0.00 in0.0 mm 0.00 in0.0 mm
05:25 AM 51.0°F10.6°C 41.6°F5.3°C 70% 25.2 mph NW40.6 kmh NW 28.0 mph45.1 kmh 30.02 in1016.6 mb 0.00 in0.0 mm 0.00 in0.0 mm 0.00 in0.0 mm
05:26 AM 51.0°F10.6°C 42.3°F5.7°C 72% 23.9 mph NW38.5 kmh NW 27.0 mph43.5 kmh 30.02 in1016.6 mb 0.00 in0.0 mm 0.00 in0.0 mm 0.00 in0.0 mm
05:27 AM 51.2°F10.7°C 42.5°F5.8°C 72% 26.6 mph NW42.8 kmh NW 31.0 mph49.9 kmh 30.02 in1016.6 mb 0.00 in0.0 mm 0.00 in0.0 mm 0.00 in0.0 mm
05:28 AM 51.1°F10.6°C 41.3°F5.2°C 69% 26.7 mph NW43.0 kmh NW 32.0 mph51.5 kmh 30.02 in1016.6 mb 0.00 in0.0 mm 0.00 in0.0 mm 0.00 in0.0 mm
05:29 AM 51.2°F10.7°C 42.1°F5.6°C 71% 23.0 mph NW37.0 kmh NW 32.0 mph51.5 kmh 30.02 in1016.6 mb 0.00 in0.0 mm 0.00 in0.0 mm 0.00 in0.0 mm
05:30 AM 51.2°F10.7°C 42.5°F5.8°C 72% 25.0 mph NW40.2 kmh NW 28.0 mph45.1 kmh 30.02 in1016.6 mb 0.00 in0.0 mm 0.00 in0.0 mm 0.00 in0.0 mm
05:31 AM 51.1°F10.6°C 42.4°F5.8°C 72% 23.6 mph NW38.0 kmh NW 28.0 mph45.1 kmh 30.02 in1016.6 mb 0.00 in0.0 mm 0.00 in0.0 mm 0.00 in0.0 mm
05:32 AM 51.2°F10.7°C 42.5°F5.8°C 72% 22.9 mph NW36.9 kmh NW 27.0 mph43.5 kmh 30.02 in1016.6 mb 0.00 in0.0 mm 0.00 in0.0 mm 0.00 in0.0 mm
05:33 AM 51.1°F10.6°C 42.4°F5.8°C 72% 21.2 mph NW34.1 kmh NW 25.0 mph40.2 kmh 30.02 in1016.6 mb 0.00 in0.0 mm 0.00 in0.0 mm 0.00 in0.0 mm
05:34 AM 51.1°F10.6°C 42.0°F5.6°C 71% 23.6 mph NW38.0 kmh NW 27.0 mph43.5 kmh 30.02 in1016.6 mb 0.00 in0.0 mm 0.00 in0.0 mm 0.00 in0.0 mm
05:35 AM 51.1°F10.6°C 42.0°F5.6°C 71% 23.2 mph NW37.3 kmh NW 27.0 mph43.5 kmh 30.02 in1016.6 mb 0.00 in0.0 mm 0.00 in0.0 mm 0.00 in0.0 mm
05:36 AM 51.1°F10.6°C 42.8°F6.0°C 73% 25.2 mph NW40.6 kmh NW 28.0 mph45.1 kmh 30.02 in1016.6 mb 0.00 in0.0 mm 0.00 in0.0 mm 0.00 in0.0 mm
05:37 AM 51.1°F10.6°C 42.4°F5.8°C 72% 23.3 mph NW37.5 kmh NW 28.0 mph45.1 kmh 30.02 in1016.6 mb 0.00 in0.0 mm 0.00 in0.0 mm 0.00 in0.0 mm
05:38 AM 51.1°F10.6°C 42.4°F5.8°C 72% 23.0 mph NW37.0 kmh NW 26.0 mph41.8 kmh 30.02 in1016.6 mb 0.00 in0.0 mm 0.00 in0.0 mm 0.00 in0.0 mm
05:39 AM 51.1°F10.6°C 42.8°F6.0°C 73% 21.9 mph NW35.2 kmh NW 26.0 mph41.8 kmh 30.02 in1016.6 mb 0.00 in0.0 mm 0.00 in0.0 mm 0.00 in0.0 mm
05:40 AM 51.1°F10.6°C 42.8°F6.0°C 73% 22.6 mph NW36.4 kmh NW 26.0 mph41.8 kmh 30.02 in1016.6 mb 0.00 in0.0 mm 0.00 in0.0 mm 0.00 in0.0 mm
05:41 AM 51.1°F10.6°C 43.1°F6.2°C 74% 20.7 mph NW33.3 kmh NW 26.0 mph41.8 kmh 30.02 in1016.6 mb 0.00 in0.0 mm 0.00 in0.0 mm 0.00 in0.0 mm
05:42 AM 51.1°F10.6°C 42.8°F6.0°C 73% 23.8 mph NW38.3 kmh NW 26.0 mph41.8 kmh 30.02 in1016.6 mb 0.00 in0.0 mm 0.00 in0.0 mm 0.00 in0.0 mm
05:43 AM 51.0°F10.6°C 42.7°F5.9°C 73% 22.5 mph NW36.2 kmh NW 26.0 mph41.8 kmh 30.02 in1016.6 mb 0.00 in0.0 mm 0.00 in0.0 mm 0.00 in0.0 mm
05:44 AM 51.1°F10.6°C 42.8°F6.0°C 73% 25.2 mph NW40.6 kmh NW 28.0 mph45.1 kmh 30.02 in1016.6 mb 0.00 in0.0 mm 0.00 in0.0 mm 0.00 in0.0 mm
05:45 AM 51.0°F10.6°C 42.3°F5.7°C 72% 25.8 mph NW41.5 kmh NW 28.0 mph45.1 kmh 30.02 in1016.6 mb 0.00 in0.0 mm 0.00 in0.0 mm 0.00 in0.0 mm
05:46 AM 51.0°F10.6°C 42.7°F5.9°C 73% 23.8 mph NW38.3 kmh NW 27.0 mph43.5 kmh 30.03 in1016.9 mb 0.00 in0.0 mm 0.00 in0.0 mm 0.00 in0.0 mm
05:47 AM 50.9°F10.5°C 41.8°F5.4°C 71% 24.3 mph NW39.1 kmh NW 27.0 mph43.5 kmh 30.02 in1016.6 mb 0.00 in0.0 mm 0.00 in0.0 mm 0.00 in0.0 mm
05:48 AM 51.0°F10.6°C 42.7°F5.9°C 73% 22.9 mph NW36.9 kmh NW 27.0 mph43.5 kmh 30.02 in1016.6 mb 0.00 in0.0 mm 0.00 in0.0 mm 0.00 in0.0 mm
05:49 AM 51.0°F10.6°C 43.0°F6.1°C 74% 22.5 mph NW36.2 kmh NW 25.0 mph40.2 kmh 30.03 in1016.9 mb 0.00 in0.0 mm 0.00 in0.0 mm 0.00 in0.0 mm
05:50 AM 51.2°F10.7°C 43.2°F6.2°C 74% 24.1 mph NW38.8 kmh NW 29.0 mph46.7 kmh 30.03 in1016.9 mb 0.00 in0.0 mm 0.00 in0.0 mm 0.00 in0.0 mm
05:51 AM 51.2°F10.7°C 42.5°F5.8°C 72% 24.8 mph NW39.9 kmh NW 29.0 mph46.7 kmh 30.03 in1016.9 mb 0.00 in0.0 mm 0.00 in0.0 mm 0.00 in0.0 mm
05:52 AM 51.2°F10.7°C 42.8°F6.0°C 73% 25.6 mph NW41.2 kmh NW 28.0 mph45.1 kmh 30.03 in1016.9 mb 0.00 in0.0 mm 0.00 in0.0 mm 0.00 in0.0 mm
05:53 AM 51.2°F10.7°C 42.5°F5.8°C 72% 25.1 mph NW40.4 kmh NW 29.0 mph46.7 kmh 30.03 in1016.9 mb 0.00 in0.0 mm 0.00 in0.0 mm 0.00 in0.0 mm
05:54 AM 51.2°F10.7°C 42.5°F5.8°C 72% 23.9 mph NW38.5 kmh NW 29.0 mph46.7 kmh 30.03 in1016.9 mb 0.00 in0.0 mm 0.00 in0.0 mm 0.00 in0.0 mm
05:55 AM 51.3°F10.7°C 43.6°F6.4°C 75% 22.1 mph NW35.6 kmh NW 26.0 mph41.8 kmh 30.03 in1016.9 mb 0.00 in0.0 mm 0.00 in0.0 mm 0.00 in0.0 mm
05:56 AM 51.2°F10.7°C 42.1°F5.6°C 71% 26.6 mph NW42.8 kmh NW 29.0 mph46.7 kmh 30.03 in1016.9 mb 0.00 in0.0 mm 0.00 in0.0 mm 0.00 in0.0 mm
05:57 AM 51.2°F10.7°C 42.8°F6.0°C 73% 23.0 mph NW37.0 kmh NW 29.0 mph46.7 kmh 30.03 in1016.9 mb 0.00 in0.0 mm 0.00 in0.0 mm 0.00 in0.0 mm
05:58 AM 51.3°F10.7°C 42.6°F5.9°C 72% 23.6 mph NW38.0 kmh NW 26.0 mph41.8 kmh 30.03 in1016.9 mb 0.00 in0.0 mm 0.00 in0.0 mm 0.00 in0.0 mm
05:59 AM 51.2°F10.7°C 42.5°F5.8°C 72% 24.6 mph NW39.6 kmh NW 27.0 mph43.5 kmh 30.03 in1016.9 mb 0.00 in0.0 mm 0.00 in0.0 mm 0.00 in0.0 mm
06:00 AM 51.3°F10.7°C 42.6°F5.9°C 72% 25.1 mph NW40.4 kmh NW 31.0 mph49.9 kmh 30.03 in1016.9 mb 0.00 in0.0 mm 0.00 in0.0 mm 0.00 in0.0 mm
06:01 AM 51.3°F10.7°C 42.2°F5.7°C 71% 26.3 mph NW42.3 kmh NW 32.0 mph51.5 kmh 30.03 in1016.9 mb 0.00 in0.0 mm 0.00 in0.0 mm 0.00 in0.0 mm
06:02 AM 51.4°F10.8°C 43.0°F6.1°C 73% 23.6 mph NW38.0 kmh NW 32.0 mph51.5 kmh 30.03 in1016.9 mb 0.00 in0.0 mm 0.00 in0.0 mm 0.00 in0.0 mm
06:03 AM 51.4°F10.8°C 43.0°F6.1°C 73% 25.3 mph NW40.7 kmh NW 30.0 mph48.3 kmh 30.03 in1016.9 mb 0.00 in0.0 mm 0.00 in0.0 mm 0.00 in0.0 mm
06:04 AM 51.4°F10.8°C 41.9°F5.5°C 70% 26.2 mph NW42.2 kmh NW 31.0 mph49.9 kmh 30.03 in1016.9 mb 0.00 in0.0 mm 0.00 in0.0 mm 0.00 in0.0 mm
06:05 AM 51.4°F10.8°C 41.9°F5.5°C 70% 26.4 mph NW42.5 kmh NW 30.0 mph48.3 kmh 30.03 in1016.9 mb 0.00 in0.0 mm 0.00 in0.0 mm 0.00 in0.0 mm
06:06 AM 51.3°F10.7°C 42.2°F5.7°C 71% 22.8 mph NW36.7 kmh NW 29.0 mph46.7 kmh 30.03 in1016.9 mb 0.00 in0.0 mm 0.00 in0.0 mm 0.00 in0.0 mm
06:07 AM 51.3°F10.7°C 41.5°F5.3°C 69% 24.9 mph NW40.1 kmh NW 28.0 mph45.1 kmh 30.03 in1016.9 mb 0.00 in0.0 mm 0.00 in0.0 mm 0.00 in0.0 mm
06:08 AM 51.4°F10.8°C 42.3°F5.7°C 71% 23.6 mph NW38.0 kmh NW 28.0 mph45.1 kmh 30.03 in1016.9 mb 0.00 in0.0 mm 0.00 in0.0 mm 0.00 in0.0 mm
06:09 AM 51.4°F10.8°C 42.3°F5.7°C 71% 24.1 mph NW38.8 kmh NW 26.0 mph41.8 kmh 30.03 in1016.9 mb 0.00 in0.0 mm 0.00 in0.0 mm 0.00 in0.0 mm
06:10 AM 51.4°F10.8°C 42.3°F5.7°C 71% 23.9 mph NW38.5 kmh NW 29.0 mph46.7 kmh 30.03 in1016.9 mb 0.00 in0.0 mm 0.00 in0.0 mm 0.00 in0.0 mm
06:11 AM 51.4°F10.8°C 41.9°F5.5°C 70% 23.1 mph NW37.2 kmh NW 29.0 mph46.7 kmh 30.03 in1016.9 mb 0.00 in0.0 mm 0.00 in0.0 mm 0.00 in0.0 mm
06:12 AM 51.4°F10.8°C 41.9°F5.5°C 70% 23.9 mph NW38.5 kmh NW 26.0 mph41.8 kmh 30.03 in1016.9 mb 0.00 in0.0 mm 0.00 in0.0 mm 0.00 in0.0 mm
06:13 AM 51.4°F10.8°C 42.3°F5.7°C 71% 22.4 mph NW36.0 kmh NW 26.0 mph41.8 kmh 30.03 in1016.9 mb 0.00 in0.0 mm 0.00 in0.0 mm 0.00 in0.0 mm
06:14 AM 51.5°F10.8°C 42.8°F6.0°C 72% 24.5 mph NW39.4 kmh NW 27.0 mph43.5 kmh 30.04 in1017.3 mb 0.00 in0.0 mm 0.00 in0.0 mm 0.00 in0.0 mm
06:15 AM 51.4°F10.8°C 41.6°F5.3°C 69% 25.3 mph NW40.7 kmh NW 28.0 mph45.1 kmh 30.03 in1016.9 mb 0.00 in0.0 mm 0.00 in0.0 mm 0.00 in0.0 mm
06:16 AM 51.5°F10.8°C 42.0°F5.6°C 70% 22.7 mph NW36.5 kmh NW 28.0 mph45.1 kmh 30.03 in1016.9 mb 0.00 in0.0 mm 0.00 in0.0 mm 0.00 in0.0 mm
06:17 AM 51.5°F10.8°C 42.8°F6.0°C 72% 25.2 mph NW40.6 kmh NW 29.0 mph46.7 kmh 30.04 in1017.3 mb 0.00 in0.0 mm 0.00 in0.0 mm 0.00 in0.0 mm
06:18 AM 51.5°F10.8°C 42.8°F6.0°C 72% 22.2 mph NW35.7 kmh NW 29.0 mph46.7 kmh 30.04 in1017.3 mb 0.00 in0.0 mm 0.00 in0.0 mm 0.00 in0.0 mm
06:19 AM 51.5°F10.8°C 42.4°F5.8°C 71% 24.0 mph NW38.6 kmh NW 26.0 mph41.8 kmh 30.04 in1017.3 mb 0.00 in0.0 mm 0.00 in0.0 mm 0.00 in0.0 mm
06:20 AM 51.5°F10.8°C 43.1°F6.2°C 73% 23.0 mph NW37.0 kmh NW 26.0 mph41.8 kmh 30.04 in1017.3 mb 0.00 in0.0 mm 0.00 in0.0 mm 0.00 in0.0 mm
06:21 AM 51.5°F10.8°C 42.4°F5.8°C 71% 23.1 mph NW37.2 kmh NW 25.0 mph40.2 kmh 30.04 in1017.3 mb 0.00 in0.0 mm 0.00 in0.0 mm 0.00 in0.0 mm
06:22 AM 51.4°F10.8°C 42.7°F5.9°C 72% 22.3 mph NW35.9 kmh NW 26.0 mph41.8 kmh 30.04 in1017.3 mb 0.00 in0.0 mm 0.00 in0.0 mm 0.00 in0.0 mm
06:23 AM 51.4°F10.8°C 42.3°F5.7°C 71% 24.9 mph NW40.1 kmh NW 28.0 mph45.1 kmh 30.04 in1017.3 mb 0.00 in0.0 mm 0.00 in0.0 mm 0.00 in0.0 mm
06:24 AM 51.4°F10.8°C 42.7°F5.9°C 72% 23.7 mph NW38.1 kmh NW 28.0 mph45.1 kmh 30.04 in1017.3 mb 0.00 in0.0 mm 0.00 in0.0 mm 0.00 in0.0 mm
06:25 AM 51.5°F10.8°C 42.8°F6.0°C 72% 22.3 mph NW35.9 kmh NW 28.0 mph45.1 kmh 30.04 in1017.3 mb 0.00 in0.0 mm 0.00 in0.0 mm 0.00 in0.0 mm
06:26 AM 51.4°F10.8°C 42.7°F5.9°C 72% 23.1 mph NW37.2 kmh NW 26.0 mph41.8 kmh 30.04 in1017.3 mb 0.00 in0.0 mm 0.00 in0.0 mm 0.00 in0.0 mm
06:27 AM 51.5°F10.8°C 43.1°F6.2°C 73% 20.2 mph NW32.5 kmh NW 26.0 mph41.8 kmh 30.04 in1017.3 mb 0.00 in0.0 mm 0.00 in0.0 mm 0.00 in0.0 mm
06:28 AM 51.4°F10.8°C 42.7°F5.9°C 72% 22.8 mph NW36.7 kmh NW 25.0 mph40.2 kmh 30.04 in1017.3 mb 0.00 in0.0 mm 0.00 in0.0 mm 0.00 in0.0 mm
06:29 AM 51.4°F10.8°C 42.7°F5.9°C 72% 23.0 mph NW37.0 kmh NW 26.0 mph41.8 kmh 30.04 in1017.3 mb 0.00 in0.0 mm 0.00 in0.0 mm 0.00 in0.0 mm
06:30 AM 51.4°F10.8°C 43.0°F6.1°C 73% 21.5 mph NW34.6 kmh NW 26.0 mph41.8 kmh 30.04 in1017.3 mb 0.00 in0.0 mm 0.00 in0.0 mm 0.00 in0.0 mm
06:31 AM 51.5°F10.8°C 42.8°F6.0°C 72% 23.8 mph NW38.3 kmh NW 27.0 mph43.5 kmh 30.04 in1017.3 mb 0.00 in0.0 mm 0.00 in0.0 mm 0.00 in0.0 mm
06:32 AM 51.4°F10.8°C 42.7°F5.9°C 72% 26.7 mph NW43.0 kmh NW 29.0 mph46.7 kmh 30.04 in1017.3 mb 0.00 in0.0 mm 0.00 in0.0 mm 0.00 in0.0 mm
06:33 AM 51.4°F10.8°C 42.7°F5.9°C 72% 25.4 mph NW40.9 kmh NW 29.0 mph46.7 kmh 30.04 in1017.3 mb 0.00 in0.0 mm 0.00 in0.0 mm 0.00 in0.0 mm
06:34 AM 51.5°F10.8°C 42.8°F6.0°C 72% 25.6 mph NW41.2 kmh NW 29.0 mph46.7 kmh 30.04 in1017.3 mb 0.00 in0.0 mm 0.00 in0.0 mm 0.00 in0.0 mm
06:35 AM 51.5°F10.8°C 43.1°F6.2°C 73% 25.0 mph NW40.2 kmh NW 30.0 mph48.3 kmh 30.05 in1017.6 mb 0.00 in0.0 mm 0.00 in0.0 mm 0.00 in0.0 mm
06:36 AM 51.5°F10.8°C 43.5°F6.4°C 74% 22.7 mph NW36.5 kmh NW 30.0 mph48.3 kmh 30.04 in1017.3 mb 0.00 in0.0 mm 0.00 in0.0 mm 0.00 in0.0 mm
06:37 AM 51.5°F10.8°C 42.8°F6.0°C 72% 25.8 mph NW41.5 kmh NW 29.0 mph46.7 kmh 30.05 in1017.6 mb 0.00 in0.0 mm 0.00 in0.0 mm 0.00 in0.0 mm
06:38 AM 51.5°F10.8°C 42.4°F5.8°C 71% 27.4 mph NW44.1 kmh NW 31.0 mph49.9 kmh 30.05 in1017.6 mb 0.00 in0.0 mm 0.00 in0.0 mm 0.00 in0.0 mm
06:39 AM 51.5°F10.8°C 42.8°F6.0°C 72% 25.2 mph NW40.6 kmh NW 31.0 mph49.9 kmh 30.05 in1017.6 mb 0.00 in0.0 mm 0.00 in0.0 mm 0.00 in0.0 mm
06:40 AM 51.5°F10.8°C 43.1°F6.2°C 73% 24.7 mph NW39.8 kmh NW 28.0 mph45.1 kmh 30.05 in1017.6 mb 0.00 in0.0 mm 0.00 in0.0 mm 0.00 in0.0 mm
06:41 AM 51.5°F10.8°C 42.8°F6.0°C 72% 24.5 mph NW39.4 kmh NW 28.0 mph45.1 kmh 30.05 in1017.6 mb 0.00 in0.0 mm 0.00 in0.0 mm 0.00 in0.0 mm
06:42 AM 51.5°F10.8°C 42.8°F6.0°C 72% 26.1 mph NW42.0 kmh NW 30.0 mph48.3 kmh 30.05 in1017.6 mb 0.00 in0.0 mm 0.00 in0.0 mm 0.00 in0.0 mm
06:43 AM 51.5°F10.8°C 42.8°F6.0°C 72% 27.4 mph NW44.1 kmh NW 31.0 mph49.9 kmh 30.05 in1017.6 mb 0.00 in0.0 mm 0.00 in0.0 mm 0.00 in0.0 mm
06:44 AM 51.5°F10.8°C 42.8°F6.0°C 72% 27.7 mph NW44.6 kmh NW 33.0 mph53.1 kmh 30.05 in1017.6 mb 0.00 in0.0 mm 0.00 in0.0 mm 0.00 in0.0 mm
06:45 AM 51.4°F10.8°C 41.9°F5.5°C 70% 26.1 mph NW42.0 kmh NW 33.0 mph53.1 kmh 30.05 in1017.6 mb 0.00 in0.0 mm 0.00 in0.0 mm 0.00 in0.0 mm
06:46 AM 51.4°F10.8°C 43.0°F6.1°C 73% 28.6 mph NW46.0 kmh NW 31.0 mph49.9 kmh 30.05 in1017.6 mb 0.00 in0.0 mm 0.00 in0.0 mm 0.00 in0.0 mm
06:47 AM 51.5°F10.8°C 42.8°F6.0°C 72% 26.2 mph NW42.2 kmh NW 32.0 mph51.5 kmh 30.05 in1017.6 mb 0.00 in0.0 mm 0.00 in0.0 mm 0.00 in0.0 mm
06:48 AM 51.5°F10.8°C 42.8°F6.0°C 72% 24.6 mph NW39.6 kmh NW 32.0 mph51.5 kmh 30.05 in1017.6 mb 0.00 in0.0 mm 0.00 in0.0 mm 0.00 in0.0 mm
06:49 AM 51.6°F10.9°C 43.2°F6.2°C 73% 27.8 mph NW44.7 kmh NW 32.0 mph51.5 kmh 30.05 in1017.6 mb 0.00 in0.0 mm 0.00 in0.0 mm 0.00 in0.0 mm
06:50 AM 51.4°F10.8°C 41.9°F5.5°C 70% 27.4 mph NW44.1 kmh NW 32.0 mph51.5 kmh 30.05 in1017.6 mb 0.00 in0.0 mm 0.00 in0.0 mm 0.00 in0.0 mm
06:51 AM 51.5°F10.8°C 43.1°F6.2°C 73% 27.2 mph NW43.8 kmh NW 32.0 mph51.5 kmh 30.05 in1017.6 mb 0.00 in0.0 mm 0.00 in0.0 mm 0.00 in0.0 mm
06:52 AM 51.5°F10.8°C 43.1°F6.2°C 73% 25.2 mph NW40.6 kmh NW 32.0 mph51.5 kmh 30.05 in1017.6 mb 0.00 in0.0 mm 0.00 in0.0 mm 0.00 in0.0 mm
06:53 AM 51.4°F10.8°C 41.9°F5.5°C 70% 23.5 mph NW37.8 kmh NW 29.0 mph46.7 kmh 30.05 in1017.6 mb 0.00 in0.0 mm 0.00 in0.0 mm 0.00 in0.0 mm
06:54 AM 51.5°F10.8°C 43.5°F6.4°C 74% 23.1 mph NW37.2 kmh NW 26.0 mph41.8 kmh 30.05 in1017.6 mb 0.00 in0.0 mm 0.00 in0.0 mm 0.00 in0.0 mm
06:55 AM 51.4°F10.8°C 42.7°F5.9°C 72% 23.5 mph NW37.8 kmh NW 27.0 mph43.5 kmh 30.05 in1017.6 mb 0.00 in0.0 mm 0.00 in0.0 mm 0.00 in0.0 mm
06:56 AM 51.3°F10.7°C 42.6°F5.9°C 72% 23.8 mph NW38.3 kmh NW 27.0 mph43.5 kmh 30.05 in1017.6 mb 0.00 in0.0 mm 0.00 in0.0 mm 0.00 in0.0 mm
06:57 AM 51.2°F10.7°C 42.8°F6.0°C 73% 22.9 mph NW36.9 kmh NW 26.0 mph41.8 kmh 30.05 in1017.6 mb 0.00 in0.0 mm 0.00 in0.0 mm 0.00 in0.0 mm
06:58 AM 51.2°F10.7°C 42.8°F6.0°C 73% 26.2 mph NW42.2 kmh NW 31.0 mph49.9 kmh 30.05 in1017.6 mb 0.00 in0.0 mm 0.00 in0.0 mm 0.00 in0.0 mm
06:59 AM 51.2°F10.7°C 42.8°F6.0°C 73% 25.6 mph NW41.2 kmh NW 31.0 mph49.9 kmh 30.05 in1017.6 mb 0.00 in0.0 mm 0.00 in0.0 mm 0.00 in0.0 mm
07:00 AM 51.2°F10.7°C 42.1°F5.6°C 71% 25.8 mph NW41.5 kmh NW 31.0 mph49.9 kmh 30.05 in1017.6 mb 0.00 in0.0 mm 0.00 in0.0 mm 0.00 in0.0 mm
07:01 AM 51.2°F10.7°C 43.2°F6.2°C 74% 23.6 mph NW38.0 kmh NW 29.0 mph46.7 kmh 30.06 in1017.9 mb 0.00 in0.0 mm 0.00 in0.0 mm 0.00 in0.0 mm
07:02 AM 51.2°F10.7°C 42.1°F5.6°C 71% 26.7 mph NW43.0 kmh NW 30.0 mph48.3 kmh 30.06 in1017.9 mb 0.00 in0.0 mm 0.00 in0.0 mm 0.00 in0.0 mm
07:03 AM 51.2°F10.7°C 42.8°F6.0°C 73% 25.9 mph NW41.7 kmh NW 30.0 mph48.3 kmh 30.05 in1017.6 mb 0.00 in0.0 mm 0.00 in0.0 mm 0.00 in0.0 mm
07:04 AM 51.3°F10.7°C 42.9°F6.1°C 73% 24.4 mph NW39.3 kmh NW 28.0 mph45.1 kmh 30.06 in1017.9 mb 0.00 in0.0 mm 0.00 in0.0 mm 0.00 in0.0 mm
07:05 AM 51.2°F10.7°C 42.1°F5.6°C 71% 24.4 mph NW39.3 kmh NW 27.0 mph43.5 kmh 30.06 in1017.9 mb 0.00 in0.0 mm 0.00 in0.0 mm 0.00 in0.0 mm
07:06 AM 51.2°F10.7°C 42.5°F5.8°C 72% 26.0 mph NW41.8 kmh NW 31.0 mph49.9 kmh 30.06 in1017.9 mb 0.00 in0.0 mm 0.00 in0.0 mm 0.00 in0.0 mm
07:07 AM 51.2°F10.7°C 42.5°F5.8°C 72% 29.2 mph NW47.0 kmh NW 34.0 mph54.7 kmh 30.06 in1017.9 mb 0.00 in0.0 mm 0.00 in0.0 mm 0.00 in0.0 mm
07:08 AM 51.2°F10.7°C 41.8°F5.4°C 70% 28.2 mph NW45.4 kmh NW 34.0 mph54.7 kmh 30.06 in1017.9 mb 0.00 in0.0 mm 0.00 in0.0 mm 0.00 in0.0 mm
07:09 AM 51.3°F10.7°C 42.2°F5.7°C 71% 27.5 mph NW44.3 kmh NW 30.0 mph48.3 kmh 30.06 in1017.9 mb 0.00 in0.0 mm 0.00 in0.0 mm 0.00 in0.0 mm
07:10 AM 51.4°F10.8°C 43.0°F6.1°C 73% 26.3 mph NW42.3 kmh NW 31.0 mph49.9 kmh 30.06 in1017.9 mb 0.00 in0.0 mm 0.00 in0.0 mm 0.00 in0.0 mm
07:11 AM 51.3°F10.7°C 42.6°F5.9°C 72% 24.6 mph NW39.6 kmh NW 31.0 mph49.9 kmh 30.06 in1017.9 mb 0.00 in0.0 mm 0.00 in0.0 mm 0.00 in0.0 mm
07:12 AM 51.3°F10.7°C 42.2°F5.7°C 71% 27.8 mph NW44.7 kmh NW 31.0 mph49.9 kmh 30.06 in1017.9 mb 0.00 in0.0 mm 0.00 in0.0 mm 0.00 in0.0 mm
07:13 AM 51.3°F10.7°C 41.9°F5.5°C 70% 25.6 mph NW41.2 kmh NW 31.0 mph49.9 kmh 30.06 in1017.9 mb 0.00 in0.0 mm 0.00 in0.0 mm 0.00 in0.0 mm
07:14 AM 51.3°F10.7°C 42.9°F6.1°C 73% 25.7 mph NW41.4 kmh NW 31.0 mph49.9 kmh 30.06 in1017.9 mb 0.00 in0.0 mm 0.00 in0.0 mm 0.00 in0.0 mm
07:15 AM 51.4°F10.8°C 43.0°F6.1°C 73% 26.5 mph NW42.6 kmh NW 32.0 mph51.5 kmh 30.06 in1017.9 mb 0.00 in0.0 mm 0.00 in0.0 mm 0.00 in0.0 mm
07:16 AM 51.4°F10.8°C 41.9°F5.5°C 70% 25.3 mph NW40.7 kmh NW 32.0 mph51.5 kmh 30.06 in1017.9 mb 0.00 in0.0 mm 0.00 in0.0 mm 0.00 in0.0 mm
07:17 AM 51.5°F10.8°C 42.8°F6.0°C 72% 23.3 mph NW37.5 kmh NW 31.0 mph49.9 kmh 30.06 in1017.9 mb 0.00 in0.0 mm 0.00 in0.0 mm 0.00 in0.0 mm
07:18 AM 51.4°F10.8°C 41.9°F5.5°C 70% 29.2 mph NW47.0 kmh NW 33.0 mph53.1 kmh 30.06 in1017.9 mb 0.00 in0.0 mm 0.00 in0.0 mm 0.00 in0.0 mm
07:19 AM 51.4°F10.8°C 42.3°F5.7°C 71% 25.6 mph NW41.2 kmh NW 33.0 mph53.1 kmh 30.06 in1017.9 mb 0.00 in0.0 mm 0.00 in0.0 mm 0.00 in0.0 mm
07:20 AM 51.4°F10.8°C 42.7°F5.9°C 72% 23.5 mph NW37.8 kmh NW 28.0 mph45.1 kmh 30.06 in1017.9 mb 0.00 in0.0 mm 0.00 in0.0 mm 0.00 in0.0 mm
07:21 AM 51.4°F10.8°C 42.7°F5.9°C 72% 25.5 mph NW41.0 kmh NW 31.0 mph49.9 kmh 30.06 in1017.9 mb 0.00 in0.0 mm 0.00 in0.0 mm 0.00 in0.0 mm
07:22 AM 51.3°F10.7°C 42.2°F5.7°C 71% 27.3 mph NW43.9 kmh NW 33.0 mph53.1 kmh 30.06 in1017.9 mb 0.00 in0.0 mm 0.00 in0.0 mm 0.00 in0.0 mm
07:23 AM 51.4°F10.8°C 43.0°F6.1°C 73% 25.8 mph NW41.5 kmh NW 33.0 mph53.1 kmh 30.06 in1017.9 mb 0.00 in0.0 mm 0.00 in0.0 mm 0.00 in0.0 mm
07:24 AM 51.4°F10.8°C 42.7°F5.9°C 72% 27.8 mph NW44.7 kmh NW 33.0 mph53.1 kmh 30.06 in1017.9 mb 0.00 in0.0 mm 0.00 in0.0 mm 0.00 in0.0 mm
07:25 AM 51.4°F10.8°C 42.3°F5.7°C 71% 27.6 mph NW44.4 kmh NW 33.0 mph53.1 kmh 30.06 in1017.9 mb 0.00 in0.0 mm 0.00 in0.0 mm 0.00 in0.0 mm
07:26 AM 51.4°F10.8°C 42.3°F5.7°C 71% 25.9 mph NW41.7 kmh NW 33.0 mph53.1 kmh 30.06 in1017.9 mb 0.00 in0.0 mm 0.00 in0.0 mm 0.00 in0.0 mm
07:27 AM 51.4°F10.8°C 41.9°F5.5°C 70% 27.9 mph NW44.9 kmh NW 32.0 mph51.5 kmh 30.06 in1017.9 mb 0.00 in0.0 mm 0.00 in0.0 mm 0.00 in0.0 mm
07:28 AM 51.4°F10.8°C 42.3°F5.7°C 71% 27.7 mph NW44.6 kmh NW 32.0 mph51.5 kmh 30.06 in1017.9 mb 0.00 in0.0 mm 0.00 in0.0 mm 0.00 in0.0 mm
07:29 AM 51.2°F10.7°C 41.4°F5.2°C 69% 29.4 mph NW47.3 kmh NW 32.0 mph51.5 kmh 30.06 in1017.9 mb 0.00 in0.0 mm 0.00 in0.0 mm 0.00 in0.0 mm
07:30 AM 51.2°F10.7°C 41.8°F5.4°C 70% 25.6 mph NW41.2 kmh NW 32.0 mph51.5 kmh 30.07 in1018.3 mb 0.00 in0.0 mm 0.00 in0.0 mm 0.00 in0.0 mm
07:31 AM 51.3°F10.7°C 42.2°F5.7°C 71% 24.9 mph NW40.1 kmh NW 30.0 mph48.3 kmh 30.06 in1017.9 mb 0.00 in0.0 mm 0.00 in0.0 mm 0.00 in0.0 mm
07:32 AM 51.4°F10.8°C 42.3°F5.7°C 71% 25.4 mph NW40.9 kmh NW 31.0 mph49.9 kmh 30.07 in1018.3 mb 0.00 in0.0 mm 0.00 in0.0 mm 0.00 in0.0 mm
07:33 AM 51.4°F10.8°C 42.7°F5.9°C 72% 24.1 mph NW38.8 kmh NW 31.0 mph49.9 kmh 30.07 in1018.3 mb 0.00 in0.0 mm 0.00 in0.0 mm 0.00 in0.0 mm
07:34 AM 51.5°F10.8°C 43.1°F6.2°C 73% 24.4 mph NW39.3 kmh NW 28.0 mph45.1 kmh 30.07 in1018.3 mb 0.00 in0.0 mm 0.00 in0.0 mm 0.00 in0.0 mm
07:35 AM 51.5°F10.8°C 42.8°F6.0°C 72% 23.9 mph NW38.5 kmh NW 28.0 mph45.1 kmh 30.07 in1018.3 mb 0.00 in0.0 mm 0.00 in0.0 mm 0.00 in0.0 mm
07:36 AM 51.4°F10.8°C 41.9°F5.5°C 70% 24.8 mph NW39.9 kmh NW 29.0 mph46.7 kmh 30.07 in1018.3 mb 0.00 in0.0 mm 0.00 in0.0 mm 0.00 in0.0 mm
07:37 AM 51.4°F10.8°C 42.7°F5.9°C 72% 24.9 mph NW40.1 kmh NW 29.0 mph46.7 kmh 30.07 in1018.3 mb 0.00 in0.0 mm 0.00 in0.0 mm 0.00 in0.0 mm
07:38 AM 51.4°F10.8°C 42.7°F5.9°C 72% 27.3 mph NW43.9 kmh NW 31.0 mph49.9 kmh 30.07 in1018.3 mb 0.00 in0.0 mm 0.00 in0.0 mm 0.00 in0.0 mm
07:39 AM 51.4°F10.8°C 41.9°F5.5°C 70% 27.3 mph NW43.9 kmh NW 31.0 mph49.9 kmh 30.07 in1018.3 mb 0.00 in0.0 mm 0.00 in0.0 mm 0.00 in0.0 mm
07:40 AM 51.4°F10.8°C 41.9°F5.5°C 70% 29.9 mph NW48.1 kmh NW 35.0 mph56.3 kmh 30.07 in1018.3 mb 0.00 in0.0 mm 0.00 in0.0 mm 0.00 in0.0 mm
07:41 AM 51.4°F10.8°C 41.9°F5.5°C 70% 29.8 mph NW48.0 kmh NW 35.0 mph56.3 kmh 30.07 in1018.3 mb 0.00 in0.0 mm 0.00 in0.0 mm 0.00 in0.0 mm
07:42 AM 51.4°F10.8°C 41.9°F5.5°C 70% 28.8 mph NW46.3 kmh NW 32.0 mph51.5 kmh 30.07 in1018.3 mb 0.00 in0.0 mm 0.00 in0.0 mm 0.00 in0.0 mm
07:43 AM 51.4°F10.8°C 42.7°F5.9°C 72% 28.8 mph NW46.3 kmh NW 36.0 mph57.9 kmh 30.07 in1018.3 mb 0.00 in0.0 mm 0.00 in0.0 mm 0.00 in0.0 mm
07:44 AM 51.5°F10.8°C 42.0°F5.6°C 70% 31.7 mph NW51.0 kmh NW 36.0 mph57.9 kmh 30.07 in1018.3 mb 0.00 in0.0 mm 0.00 in0.0 mm 0.00 in0.0 mm
07:45 AM 51.5°F10.8°C 42.0°F5.6°C 70% 30.0 mph NW48.3 kmh NW 34.0 mph54.7 kmh 30.08 in1018.6 mb 0.00 in0.0 mm 0.00 in0.0 mm 0.00 in0.0 mm
07:46 AM 51.5°F10.8°C 42.8°F6.0°C 72% 27.3 mph NW43.9 kmh NW 32.0 mph51.5 kmh 30.07 in1018.3 mb 0.00 in0.0 mm 0.00 in0.0 mm 0.00 in0.0 mm
07:47 AM 51.7°F10.9°C 43.0°F6.1°C 72% 26.8 mph NW43.1 kmh NW 32.0 mph51.5 kmh 30.08 in1018.6 mb 0.00 in0.0 mm 0.00 in0.0 mm 0.00 in0.0 mm
07:48 AM 51.7°F10.9°C 43.0°F6.1°C 72% 27.6 mph NW44.4 kmh NW 33.0 mph53.1 kmh 30.08 in1018.6 mb 0.00 in0.0 mm 0.00 in0.0 mm 0.00 in0.0 mm
07:49 AM 51.6°F10.9°C 41.8°F5.4°C 69% 33.0 mph NW53.1 kmh NW 38.0 mph61.2 kmh 30.08 in1018.6 mb 0.00 in0.0 mm 0.00 in0.0 mm 0.00 in0.0 mm
07:50 AM 51.7°F10.9°C 41.5°F5.3°C 68% 29.5 mph NW47.5 kmh NW 38.0 mph61.2 kmh 30.08 in1018.6 mb 0.00 in0.0 mm 0.00 in0.0 mm 0.00 in0.0 mm
07:51 AM 51.7°F10.9°C 42.2°F5.7°C 70% 30.6 mph NW49.2 kmh NW 36.0 mph57.9 kmh 30.08 in1018.6 mb 0.00 in0.0 mm 0.00 in0.0 mm 0.00 in0.0 mm
07:52 AM 51.7°F10.9°C 41.9°F5.5°C 69% 29.5 mph NW47.5 kmh NW 36.0 mph57.9 kmh 30.08 in1018.6 mb 0.00 in0.0 mm 0.00 in0.0 mm 0.00 in0.0 mm
07:53 AM 51.7°F10.9°C 41.5°F5.3°C 68% 29.0 mph NW46.7 kmh NW 32.0 mph51.5 kmh 30.08 in1018.6 mb 0.00 in0.0 mm 0.00 in0.0 mm 0.00 in0.0 mm
07:54 AM 51.8°F11.0°C 42.3°F5.7°C 70% 30.1 mph NW48.4 kmh NW 36.0 mph57.9 kmh 30.08 in1018.6 mb 0.00 in0.0 mm 0.00 in0.0 mm 0.00 in0.0 mm
07:55 AM 51.7°F10.9°C 41.9°F5.5°C 69% 31.2 mph NW50.2 kmh NW 36.0 mph57.9 kmh 30.08 in1018.6 mb 0.00 in0.0 mm 0.00 in0.0 mm 0.00 in0.0 mm
07:56 AM 51.7°F10.9°C 42.2°F5.7°C 70% 31.5 mph NW50.7 kmh NW 34.0 mph54.7 kmh 30.08 in1018.6 mb 0.00 in0.0 mm 0.00 in0.0 mm 0.00 in0.0 mm
07:57 AM 51.8°F11.0°C 43.1°F6.2°C 72% 27.5 mph NW44.3 kmh NW 34.0 mph54.7 kmh 30.08 in1018.6 mb 0.00 in0.0 mm 0.00 in0.0 mm 0.00 in0.0 mm
07:58 AM 51.8°F11.0°C 42.0°F5.6°C 69% 28.7 mph NW46.2 kmh NW 34.0 mph54.7 kmh 30.09 in1019.0 mb 0.00 in0.0 mm 0.00 in0.0 mm 0.00 in0.0 mm
07:59 AM 51.8°F11.0°C 42.0°F5.6°C 69% 29.7 mph NW47.8 kmh NW 33.0 mph53.1 kmh 30.09 in1019.0 mb 0.00 in0.0 mm 0.00 in0.0 mm 0.00 in0.0 mm
08:00 AM 51.8°F11.0°C 42.7°F5.9°C 71% 26.8 mph NW43.1 kmh NW 33.0 mph53.1 kmh 30.09 in1019.0 mb 0.00 in0.0 mm 0.00 in0.0 mm 0.00 in0.0 mm
08:01 AM 51.7°F10.9°C 42.2°F5.7°C 70% 32.3 mph NW52.0 kmh NW 36.0 mph57.9 kmh 30.09 in1019.0 mb 0.00 in0.0 mm 0.00 in0.0 mm 0.00 in0.0 mm
08:02 AM 51.7°F10.9°C 41.9°F5.5°C 69% 29.2 mph NW47.0 kmh NW 36.0 mph57.9 kmh 30.09 in1019.0 mb 0.00 in0.0 mm 0.00 in0.0 mm 0.00 in0.0 mm
08:03 AM 51.8°F11.0°C 43.1°F6.2°C 72% 26.3 mph NW42.3 kmh NW 34.0 mph54.7 kmh 30.09 in1019.0 mb 0.00 in0.0 mm 0.00 in0.0 mm 0.00 in0.0 mm
08:04 AM 51.8°F11.0°C 42.3°F5.7°C 70% 29.6 mph NW47.6 kmh NW 33.0 mph53.1 kmh 30.09 in1019.0 mb 0.00 in0.0 mm 0.00 in0.0 mm 0.00 in0.0 mm
08:05 AM 51.7°F10.9°C 42.6°F5.9°C 71% 28.6 mph NW46.0 kmh NW 33.0 mph53.1 kmh 30.09 in1019.0 mb 0.00 in0.0 mm 0.00 in0.0 mm 0.00 in0.0 mm
08:06 AM 51.7°F10.9°C 41.9°F5.5°C 69% 25.9 mph NW41.7 kmh NW 32.0 mph51.5 kmh 30.09 in1019.0 mb 0.00 in0.0 mm 0.00 in0.0 mm 0.00 in0.0 mm
08:07 AM 51.8°F11.0°C 42.7°F5.9°C 71% 24.6 mph NW39.6 kmh NW 30.0 mph48.3 kmh 30.09 in1019.0 mb 0.00 in0.0 mm 0.00 in0.0 mm 0.00 in0.0 mm
08:08 AM 51.7°F10.9°C 43.0°F6.1°C 72% 24.8 mph NW39.9 kmh NW 28.0 mph45.1 kmh 30.09 in1019.0 mb 0.00 in0.0 mm 0.00 in0.0 mm 0.00 in0.0 mm
08:09 AM 51.6°F10.9°C 42.1°F5.6°C 70% 27.5 mph NW44.3 kmh NW 32.0 mph51.5 kmh 30.09 in1019.0 mb 0.00 in0.0 mm 0.00 in0.0 mm 0.00 in0.0 mm
08:10 AM 51.6°F10.9°C 42.5°F5.8°C 71% 28.2 mph NW45.4 kmh NW 34.0 mph54.7 kmh 30.09 in1019.0 mb 0.00 in0.0 mm 0.00 in0.0 mm 0.00 in0.0 mm
08:11 AM 51.6°F10.9°C 41.8°F5.4°C 69% 27.2 mph NW43.8 kmh NW 34.0 mph54.7 kmh 30.09 in1019.0 mb 0.00 in0.0 mm 0.00 in0.0 mm 0.00 in0.0 mm
08:12 AM 51.6°F10.9°C 41.8°F5.4°C 69% 26.6 mph NW42.8 kmh NW 31.0 mph49.9 kmh 30.09 in1019.0 mb 0.00 in0.0 mm 0.00 in0.0 mm 0.00 in0.0 mm
08:13 AM 51.6°F10.9°C 42.1°F5.6°C 70% 25.8 mph NW41.5 kmh NW 30.0 mph48.3 kmh 30.09 in1019.0 mb 0.00 in0.0 mm 0.00 in0.0 mm 0.00 in0.0 mm
08:14 AM 51.7°F10.9°C 43.0°F6.1°C 72% 24.6 mph NW39.6 kmh NW 30.0 mph48.3 kmh 30.09 in1019.0 mb 0.00 in0.0 mm 0.00 in0.0 mm 0.00 in0.0 mm
08:15 AM 51.9°F11.1°C 43.5°F6.4°C 73% 24.1 mph NW38.8 kmh NW 29.0 mph46.7 kmh 30.09 in1019.0 mb 0.00 in0.0 mm 0.00 in0.0 mm 0.00 in0.0 mm
08:16 AM 51.9°F11.1°C 43.2°F6.2°C 72% 25.6 mph NW41.2 kmh NW 29.0 mph46.7 kmh 30.09 in1019.0 mb 0.00 in0.0 mm 0.00 in0.0 mm 0.00 in0.0 mm
08:17 AM 51.9°F11.1°C 42.8°F6.0°C 71% 28.2 mph NW45.4 kmh NW 34.0 mph54.7 kmh 30.09 in1019.0 mb 0.00 in0.0 mm 0.00 in0.0 mm 0.00 in0.0 mm
08:18 AM 51.8°F11.0°C 42.0°F5.6°C 69% 29.9 mph NW48.1 kmh NW 35.0 mph56.3 kmh 30.09 in1019.0 mb 0.00 in0.0 mm 0.00 in0.0 mm 0.00 in0.0 mm
08:19 AM 51.9°F11.1°C 42.8°F6.0°C 71% 29.0 mph NW46.7 kmh NW 35.0 mph56.3 kmh 30.10 in1019.3 mb 0.00 in0.0 mm 0.00 in0.0 mm 0.00 in0.0 mm
08:20 AM 51.8°F11.0°C 42.0°F5.6°C 69% 28.7 mph NW46.2 kmh NW 33.0 mph53.1 kmh 30.10 in1019.3 mb 0.00 in0.0 mm 0.00 in0.0 mm 0.00 in0.0 mm
08:21 AM 51.8°F11.0°C 42.3°F5.7°C 70% 31.3 mph NW50.4 kmh NW 34.0 mph54.7 kmh 30.10 in1019.3 mb 0.00 in0.0 mm 0.00 in0.0 mm 0.00 in0.0 mm
08:22 AM 51.7°F10.9°C 41.9°F5.5°C 69% 33.2 mph NW53.4 kmh NW 37.0 mph59.5 kmh 30.10 in1019.3 mb 0.00 in0.0 mm 0.00 in0.0 mm 0.00 in0.0 mm
08:23 AM 51.6°F10.9°C 42.5°F5.8°C 71% 32.2 mph NW51.8 kmh NW 37.0 mph59.5 kmh 30.10 in1019.3 mb 0.00 in0.0 mm 0.00 in0.0 mm 0.00 in0.0 mm
08:24 AM 51.7°F10.9°C 41.9°F5.5°C 69% 32.8 mph NW52.8 kmh NW 37.0 mph59.5 kmh 30.10 in1019.3 mb 0.00 in0.0 mm 0.00 in0.0 mm 0.00 in0.0 mm
08:25 AM 51.8°F11.0°C 42.7°F5.9°C 71% 31.8 mph NW51.2 kmh NW 37.0 mph59.5 kmh 30.10 in1019.3 mb 0.00 in0.0 mm 0.00 in0.0 mm 0.00 in0.0 mm
08:26 AM 51.7°F10.9°C 41.5°F5.3°C 68% 30.8 mph NW49.6 kmh NW 37.0 mph59.5 kmh 30.10 in1019.3 mb 0.00 in0.0 mm 0.00 in0.0 mm 0.00 in0.0 mm
08:27 AM 51.7°F10.9°C 42.2°F5.7°C 70% 29.9 mph NW48.1 kmh NW 35.0 mph56.3 kmh 30.10 in1019.3 mb 0.00 in0.0 mm 0.00 in0.0 mm 0.00 in0.0 mm
08:28 AM 51.7°F10.9°C 42.6°F5.9°C 71% 30.0 mph NW48.3 kmh NW 35.0 mph56.3 kmh 30.10 in1019.3 mb 0.00 in0.0 mm 0.00 in0.0 mm 0.00 in0.0 mm
08:29 AM 51.7°F10.9°C 43.0°F6.1°C 72% 30.5 mph NW49.1 kmh NW 35.0 mph56.3 kmh 30.10 in1019.3 mb 0.00 in0.0 mm 0.00 in0.0 mm 0.00 in0.0 mm
08:30 AM 51.7°F10.9°C 41.9°F5.5°C 69% 32.8 mph NW52.8 kmh NW 38.0 mph61.2 kmh 30.10 in1019.3 mb 0.00 in0.0 mm 0.00 in0.0 mm 0.00 in0.0 mm
08:31 AM 51.8°F11.0°C 43.1°F6.2°C 72% 29.8 mph NW48.0 kmh NW 38.0 mph61.2 kmh 30.10 in1019.3 mb 0.00 in0.0 mm 0.00 in0.0 mm 0.00 in0.0 mm
08:32 AM 51.7°F10.9°C 42.6°F5.9°C 71% 31.7 mph NW51.0 kmh NW 35.0 mph56.3 kmh 30.10 in1019.3 mb 0.00 in0.0 mm 0.00 in0.0 mm 0.00 in0.0 mm
08:33 AM 51.7°F10.9°C 42.6°F5.9°C 71% 28.5 mph NW45.9 kmh NW 35.0 mph56.3 kmh 30.10 in1019.3 mb 0.00 in0.0 mm 0.00 in0.0 mm 0.00 in0.0 mm
08:34 AM 51.7°F10.9°C 42.6°F5.9°C 71% 31.5 mph NW50.7 kmh NW 34.0 mph54.7 kmh 30.10 in1019.3 mb 0.00 in0.0 mm 0.00 in0.0 mm 0.00 in0.0 mm
08:35 AM 51.7°F10.9°C 43.0°F6.1°C 72% 28.1 mph NW45.2 kmh NW 34.0 mph54.7 kmh 30.10 in1019.3 mb 0.00 in0.0 mm 0.00 in0.0 mm 0.00 in0.0 mm
08:36 AM 51.8°F11.0°C 43.1°F6.2°C 72% 28.8 mph NW46.3 kmh NW 34.0 mph54.7 kmh 30.11 in1019.6 mb 0.00 in0.0 mm 0.00 in0.0 mm 0.00 in0.0 mm
08:37 AM 51.9°F11.1°C 43.9°F6.6°C 74% 26.5 mph NW42.6 kmh NW 34.0 mph54.7 kmh 30.11 in1019.6 mb 0.00 in0.0 mm 0.00 in0.0 mm 0.00 in0.0 mm
08:38 AM 51.7°F10.9°C 42.6°F5.9°C 71% 27.3 mph NW43.9 kmh NW 31.0 mph49.9 kmh 30.11 in1019.6 mb 0.00 in0.0 mm 0.00 in0.0 mm 0.00 in0.0 mm
08:39 AM 51.6°F10.9°C 41.8°F5.4°C 69% 31.5 mph NW50.7 kmh NW 36.0 mph57.9 kmh 30.11 in1019.6 mb 0.00 in0.0 mm 0.00 in0.0 mm 0.00 in0.0 mm
08:40 AM 51.8°F11.0°C 43.4°F6.3°C 73% 27.9 mph NW44.9 kmh NW 36.0 mph57.9 kmh 30.11 in1019.6 mb 0.00 in0.0 mm 0.00 in0.0 mm 0.00 in0.0 mm
08:41 AM 51.8°F11.0°C 42.7°F5.9°C 71% 27.0 mph NW43.5 kmh NW 33.0 mph53.1 kmh 30.11 in1019.6 mb 0.00 in0.0 mm 0.00 in0.0 mm 0.00 in0.0 mm
08:42 AM 51.8°F11.0°C 43.1°F6.2°C 72% 28.2 mph NW45.4 kmh NW 31.0 mph49.9 kmh 30.11 in1019.6 mb 0.00 in0.0 mm 0.00 in0.0 mm 0.00 in0.0 mm
08:43 AM 51.8°F11.0°C 43.1°F6.2°C 72% 28.7 mph NW46.2 kmh NW 31.0 mph49.9 kmh 30.11 in1019.6 mb 0.00 in0.0 mm 0.00 in0.0 mm 0.00 in0.0 mm
08:44 AM 51.7°F10.9°C 43.0°F6.1°C 72% 27.2 mph NW43.8 kmh NW 31.0 mph49.9 kmh 30.11 in1019.6 mb 0.00 in0.0 mm 0.00 in0.0 mm 0.00 in0.0 mm
08:45 AM 51.8°F11.0°C 42.7°F5.9°C 71% 27.6 mph NW44.4 kmh NW 31.0 mph49.9 kmh 30.11 in1019.6 mb 0.00 in0.0 mm 0.00 in0.0 mm 0.00 in0.0 mm
08:46 AM 51.7°F10.9°C 42.6°F5.9°C 71% 30.1 mph NW48.4 kmh NW 34.0 mph54.7 kmh 30.11 in1019.6 mb 0.00 in0.0 mm 0.00 in0.0 mm 0.00 in0.0 mm
08:47 AM 51.6°F10.9°C 42.5°F5.8°C 71% 28.6 mph NW46.0 kmh NW 34.0 mph54.7 kmh 30.11 in1019.6 mb 0.00 in0.0 mm 0.00 in0.0 mm 0.00 in0.0 mm
08:48 AM 51.6°F10.9°C 42.1°F5.6°C 70% 27.5 mph NW44.3 kmh NW 32.0 mph51.5 kmh 30.11 in1019.6 mb 0.00 in0.0 mm 0.00 in0.0 mm 0.00 in0.0 mm
08:49 AM 51.6°F10.9°C 43.2°F6.2°C 73% 29.9 mph NW48.1 kmh NW 34.0 mph54.7 kmh 30.11 in1019.6 mb 0.00 in0.0 mm 0.00 in0.0 mm 0.00 in0.0 mm
08:50 AM 51.6°F10.9°C 42.9°F6.1°C 72% 28.0 mph NW45.1 kmh NW 34.0 mph54.7 kmh 30.11 in1019.6 mb 0.00 in0.0 mm 0.00 in0.0 mm 0.00 in0.0 mm
08:51 AM 51.7°F10.9°C 42.6°F5.9°C 71% 29.0 mph NW46.7 kmh NW 35.0 mph56.3 kmh 30.11 in1019.6 mb 0.00 in0.0 mm 0.00 in0.0 mm 0.00 in0.0 mm
08:52 AM 51.6°F10.9°C 41.8°F5.4°C 69% 32.4 mph NW52.1 kmh NW 36.0 mph57.9 kmh 30.11 in1019.6 mb 0.00 in0.0 mm 0.00 in0.0 mm 0.00 in0.0 mm
08:53 AM 51.6°F10.9°C 42.5°F5.8°C 71% 32.4 mph NW52.1 kmh NW 36.0 mph57.9 kmh 30.11 in1019.6 mb 0.00 in0.0 mm 0.00 in0.0 mm 0.00 in0.0 mm
08:54 AM 51.6°F10.9°C 42.9°F6.1°C 72% 28.0 mph NW45.1 kmh NW 36.0 mph57.9 kmh 30.11 in1019.6 mb 0.00 in0.0 mm 0.00 in0.0 mm 0.00 in0.0 mm
08:55 AM 51.8°F11.0°C 43.4°F6.3°C 73% 27.5 mph NW44.3 kmh NW 31.0 mph49.9 kmh 30.11 in1019.6 mb 0.00 in0.0 mm 0.00 in0.0 mm 0.00 in0.0 mm
08:56 AM 51.7°F10.9°C 43.0°F6.1°C 72% 29.8 mph NW48.0 kmh NW 34.0 mph54.7 kmh 30.11 in1019.6 mb 0.00 in0.0 mm 0.00 in0.0 mm 0.00 in0.0 mm
08:57 AM 51.7°F10.9°C 42.2°F5.7°C 70% 30.1 mph NW48.4 kmh NW 34.0 mph54.7 kmh 30.11 in1019.6 mb 0.00 in0.0 mm 0.00 in0.0 mm 0.00 in0.0 mm
08:58 AM 51.7°F10.9°C 41.5°F5.3°C 68% 28.8 mph NW46.3 kmh NW 33.0 mph53.1 kmh 30.11 in1019.6 mb 0.00 in0.0 mm 0.00 in0.0 mm 0.00 in0.0 mm
08:59 AM 51.8°F11.0°C 43.4°F6.3°C 73% 27.9 mph NW44.9 kmh NW 33.0 mph53.1 kmh 30.11 in1019.6 mb 0.00 in0.0 mm 0.00 in0.0 mm 0.00 in0.0 mm
09:00 AM 51.8°F11.0°C 42.7°F5.9°C 71% 31.3 mph NW50.4 kmh NW 34.0 mph54.7 kmh 30.11 in1019.6 mb 0.00 in0.0 mm 0.00 in0.0 mm 0.00 in0.0 mm
09:01 AM 51.8°F11.0°C 42.3°F5.7°C 70% 29.0 mph NW46.7 kmh NW 34.0 mph54.7 kmh 30.11 in1019.6 mb 0.00 in0.0 mm 0.00 in0.0 mm 0.00 in0.0 mm
09:02 AM 51.8°F11.0°C 42.7°F5.9°C 71% 28.5 mph NW45.9 kmh NW 35.0 mph56.3 kmh 30.11 in1019.6 mb 0.00 in0.0 mm 0.00 in0.0 mm 0.00 in0.0 mm
09:03 AM 51.7°F10.9°C 41.5°F5.3°C 68% 32.0 mph NW51.5 kmh NW 37.0 mph59.5 kmh 30.12 in1020.0 mb 0.00 in0.0 mm 0.00 in0.0 mm 0.00 in0.0 mm
09:04 AM 51.8°F11.0°C 42.3°F5.7°C 70% 28.3 mph NW45.5 kmh NW 37.0 mph59.5 kmh 30.12 in1020.0 mb 0.00 in0.0 mm 0.00 in0.0 mm 0.00 in0.0 mm
09:05 AM 51.7°F10.9°C 41.9°F5.5°C 69% 31.9 mph NW51.3 kmh NW 36.0 mph57.9 kmh 30.12 in1020.0 mb 0.00 in0.0 mm 0.00 in0.0 mm 0.00 in0.0 mm
09:06 AM 51.7°F10.9°C 42.2°F5.7°C 70% 30.9 mph NW49.7 kmh NW 37.0 mph59.5 kmh 30.12 in1020.0 mb 0.00 in0.0 mm 0.00 in0.0 mm 0.00 in0.0 mm
09:07 AM 51.8°F11.0°C 42.3°F5.7°C 70% 28.9 mph NW46.5 kmh NW 37.0 mph59.5 kmh 30.12 in1020.0 mb 0.00 in0.0 mm 0.00 in0.0 mm 0.00 in0.0 mm
09:08 AM 51.9°F11.1°C 42.8°F6.0°C 71% 29.4 mph NW47.3 kmh NW 34.0 mph54.7 kmh 30.12 in1020.0 mb 0.00 in0.0 mm 0.00 in0.0 mm 0.00 in0.0 mm
09:09 AM 51.9°F11.1°C 42.1°F5.6°C 69% 30.0 mph NW48.3 kmh NW 34.0 mph54.7 kmh 30.12 in1020.0 mb 0.00 in0.0 mm 0.00 in0.0 mm 0.00 in0.0 mm
09:10 AM 51.9°F11.1°C 42.4°F5.8°C 70% 28.1 mph NW45.2 kmh NW 34.0 mph54.7 kmh 30.12 in1020.0 mb 0.00 in0.0 mm 0.00 in0.0 mm 0.00 in0.0 mm
09:11 AM 51.9°F11.1°C 42.8°F6.0°C 71% 30.1 mph NW48.4 kmh NW 34.0 mph54.7 kmh 30.12 in1020.0 mb 0.00 in0.0 mm 0.00 in0.0 mm 0.00 in0.0 mm
09:12 AM 51.9°F11.1°C 42.1°F5.6°C 69% 28.8 mph NW46.3 kmh NW 35.0 mph56.3 kmh 30.12 in1020.0 mb 0.00 in0.0 mm 0.00 in0.0 mm 0.00 in0.0 mm
09:13 AM 52.0°F11.1°C 41.8°F5.4°C 68% 30.7 mph NW49.4 kmh NW 35.0 mph56.3 kmh 30.12 in1020.0 mb 0.00 in0.0 mm 0.00 in0.0 mm 0.00 in0.0 mm
09:14 AM 51.9°F11.1°C 42.1°F5.6°C 69% 30.9 mph NW49.7 kmh NW 35.0 mph56.3 kmh 30.12 in1020.0 mb 0.00 in0.0 mm 0.00 in0.0 mm 0.00 in0.0 mm
09:15 AM 52.0°F11.1°C 42.9°F6.1°C 71% 27.5 mph NW44.3 kmh NW 33.0 mph53.1 kmh 30.12 in1020.0 mb 0.00 in0.0 mm 0.00 in0.0 mm 0.00 in0.0 mm
09:16 AM 51.9°F11.1°C 42.1°F5.6°C 69% 31.4 mph NW50.5 kmh NW 34.0 mph54.7 kmh 30.12 in1020.0 mb 0.00 in0.0 mm 0.00 in0.0 mm 0.00 in0.0 mm
09:17 AM 52.0°F11.1°C 42.9°F6.1°C 71% 29.5 mph NW47.5 kmh NW 34.0 mph54.7 kmh 30.12 in1020.0 mb 0.00 in0.0 mm 0.00 in0.0 mm 0.00 in0.0 mm
09:18 AM 52.0°F11.1°C 42.5°F5.8°C 70% 32.2 mph NW51.8 kmh NW 36.0 mph57.9 kmh 30.12 in1020.0 mb 0.00 in0.0 mm 0.00 in0.0 mm 0.00 in0.0 mm
09:19 AM 52.1°F11.2°C 43.7°F6.5°C 73% 25.5 mph NW41.0 kmh NW 36.0 mph57.9 kmh 30.12 in1020.0 mb 0.00 in0.0 mm 0.00 in0.0 mm 0.00 in0.0 mm
09:20 AM 52.1°F11.2°C 42.6°F5.9°C 70% 28.3 mph NW45.5 kmh NW 34.0 mph54.7 kmh 30.12 in1020.0 mb 0.00 in0.0 mm 0.00 in0.0 mm 0.00 in0.0 mm
09:21 AM 52.0°F11.1°C 42.1°F5.6°C 69% 29.9 mph NW48.1 kmh NW 36.0 mph57.9 kmh 30.12 in1020.0 mb 0.00 in0.0 mm 0.00 in0.0 mm 0.00 in0.0 mm
09:22 AM 52.0°F11.1°C 41.8°F5.4°C 68% 32.5 mph NW52.3 kmh NW 37.0 mph59.5 kmh 30.12 in1020.0 mb 0.00 in0.0 mm 0.00 in0.0 mm 0.00 in0.0 mm
09:23 AM 51.9°F11.1°C 41.3°F5.2°C 67% 29.8 mph NW48.0 kmh NW 37.0 mph59.5 kmh 30.12 in1020.0 mb 0.00 in0.0 mm 0.00 in0.0 mm 0.00 in0.0 mm
09:24 AM 51.9°F11.1°C 42.1°F5.6°C 69% 29.8 mph NW48.0 kmh NW 34.0 mph54.7 kmh 30.12 in1020.0 mb 0.00 in0.0 mm 0.00 in0.0 mm 0.00 in0.0 mm
09:25 AM 51.9°F11.1°C 42.1°F5.6°C 69% 29.5 mph NW47.5 kmh NW 35.0 mph56.3 kmh 30.12 in1020.0 mb 0.00 in0.0 mm 0.00 in0.0 mm 0.00 in0.0 mm
09:26 AM 51.9°F11.1°C 42.4°F5.8°C 70% 25.7 mph NW41.4 kmh NW 35.0 mph56.3 kmh 30.12 in1020.0 mb 0.00 in0.0 mm 0.00 in0.0 mm 0.00 in0.0 mm
09:27 AM 51.8°F11.0°C 42.3°F5.7°C 70% 25.5 mph NW41.0 kmh NW 29.0 mph46.7 kmh 30.13 in1020.3 mb 0.00 in0.0 mm 0.00 in0.0 mm 0.00 in0.0 mm
09:28 AM 51.8°F11.0°C 42.7°F5.9°C 71% 26.7 mph NW43.0 kmh NW 33.0 mph53.1 kmh 30.12 in1020.0 mb 0.00 in0.0 mm 0.00 in0.0 mm 0.00 in0.0 mm
09:29 AM 51.7°F10.9°C 42.2°F5.7°C 70% 28.0 mph NW45.1 kmh NW 33.0 mph53.1 kmh 30.13 in1020.3 mb 0.00 in0.0 mm 0.00 in0.0 mm 0.00 in0.0 mm
09:30 AM 51.7°F10.9°C 42.2°F5.7°C 70% 26.0 mph NW41.8 kmh NW 31.0 mph49.9 kmh 30.13 in1020.3 mb 0.00 in0.0 mm 0.00 in0.0 mm 0.00 in0.0 mm
09:31 AM 51.6°F10.9°C 43.2°F6.2°C 73% 25.0 mph NW40.2 kmh NW 30.0 mph48.3 kmh 30.13 in1020.3 mb 0.00 in0.0 mm 0.00 in0.0 mm 0.00 in0.0 mm
09:32 AM 51.5°F10.8°C 42.0°F5.6°C 70% 25.6 mph NW41.2 kmh NW 30.0 mph48.3 kmh 30.13 in1020.3 mb 0.00 in0.0 mm 0.00 in0.0 mm 0.00 in0.0 mm
09:33 AM 51.4°F10.8°C 41.6°F5.3°C 69% 27.2 mph NW43.8 kmh NW 30.0 mph48.3 kmh 30.13 in1020.3 mb 0.00 in0.0 mm 0.00 in0.0 mm 0.00 in0.0 mm
09:34 AM 51.4°F10.8°C 42.3°F5.7°C 71% 21.9 mph NW35.2 kmh NW 30.0 mph48.3 kmh 30.13 in1020.3 mb 0.00 in0.0 mm 0.00 in0.0 mm 0.00 in0.0 mm
09:35 AM 51.4°F10.8°C 43.0°F6.1°C 73% 25.4 mph NW40.9 kmh NW 32.0 mph51.5 kmh 30.13 in1020.3 mb 0.00 in0.0 mm 0.00 in0.0 mm 0.00 in0.0 mm
09:36 AM 51.5°F10.8°C 42.4°F5.8°C 71% 25.5 mph NW41.0 kmh NW 33.0 mph53.1 kmh 30.13 in1020.3 mb 0.00 in0.0 mm 0.00 in0.0 mm 0.00 in0.0 mm
09:37 AM 51.6°F10.9°C 43.2°F6.2°C 73% 27.0 mph NW43.5 kmh NW 33.0 mph53.1 kmh 30.13 in1020.3 mb 0.00 in0.0 mm 0.00 in0.0 mm 0.00 in0.0 mm
09:38 AM 51.5°F10.8°C 42.8°F6.0°C 72% 24.4 mph NW39.3 kmh NW 30.0 mph48.3 kmh 30.13 in1020.3 mb 0.00 in0.0 mm 0.00 in0.0 mm 0.00 in0.0 mm
09:39 AM 51.6°F10.9°C 43.2°F6.2°C 73% 22.9 mph NW36.9 kmh NW 28.0 mph45.1 kmh 30.13 in1020.3 mb 0.00 in0.0 mm 0.00 in0.0 mm 0.00 in0.0 mm
09:40 AM 51.5°F10.8°C 41.7°F5.4°C 69% 24.7 mph NW39.8 kmh NW 28.0 mph45.1 kmh 30.13 in1020.3 mb 0.00 in0.0 mm 0.00 in0.0 mm 0.00 in0.0 mm
09:41 AM 51.5°F10.8°C 42.0°F5.6°C 70% 22.1 mph NW35.6 kmh NW 28.0 mph45.1 kmh 30.13 in1020.3 mb 0.00 in0.0 mm 0.00 in0.0 mm 0.00 in0.0 mm
09:42 AM 51.5°F10.8°C 42.4°F5.8°C 71% 23.8 mph NW38.3 kmh NW 26.0 mph41.8 kmh 30.13 in1020.3 mb 0.00 in0.0 mm 0.00 in0.0 mm 0.00 in0.0 mm
09:43 AM 51.6°F10.9°C 42.5°F5.8°C 71% 23.2 mph NW37.3 kmh NW 29.0 mph46.7 kmh 30.13 in1020.3 mb 0.00 in0.0 mm 0.00 in0.0 mm 0.00 in0.0 mm
09:44 AM 51.5°F10.8°C 41.7°F5.4°C 69% 28.4 mph NW45.7 kmh NW 31.0 mph49.9 kmh 30.13 in1020.3 mb 0.00 in0.0 mm 0.00 in0.0 mm 0.00 in0.0 mm
09:45 AM 51.5°F10.8°C 41.3°F5.2°C 68% 29.2 mph NW47.0 kmh NW 33.0 mph53.1 kmh 30.13 in1020.3 mb 0.00 in0.0 mm 0.00 in0.0 mm 0.00 in0.0 mm
09:46 AM 51.6°F10.9°C 42.5°F5.8°C 71% 26.2 mph NW42.2 kmh NW 33.0 mph53.1 kmh 30.13 in1020.3 mb 0.00 in0.0 mm 0.00 in0.0 mm 0.00 in0.0 mm
09:47 AM 51.7°F10.9°C 41.5°F5.3°C 68% 26.9 mph NW43.3 kmh NW 32.0 mph51.5 kmh 30.13 in1020.3 mb 0.00 in0.0 mm 0.00 in0.0 mm 0.00 in0.0 mm
09:48 AM 51.7°F10.9°C 42.2°F5.7°C 70% 29.8 mph NW48.0 kmh NW 34.0 mph54.7 kmh 30.13 in1020.3 mb 0.00 in0.0 mm 0.00 in0.0 mm 0.00 in0.0 mm
09:49 AM 51.7°F10.9°C 42.2°F5.7°C 70% 27.5 mph NW44.3 kmh NW 34.0 mph54.7 kmh 30.13 in1020.3 mb 0.00 in0.0 mm 0.00 in0.0 mm 0.00 in0.0 mm
09:50 AM 51.8°F11.0°C 42.3°F5.7°C 70% 27.1 mph NW43.6 kmh NW 30.0 mph48.3 kmh 30.13 in1020.3 mb 0.00 in0.0 mm 0.00 in0.0 mm 0.00 in0.0 mm
09:51 AM 51.9°F11.1°C 42.8°F6.0°C 71% 28.0 mph NW45.1 kmh NW 38.0 mph61.2 kmh 30.13 in1020.3 mb 0.00 in0.0 mm 0.00 in0.0 mm 0.00 in0.0 mm
09:52 AM 51.8°F11.0°C 42.0°F5.6°C 69% 29.5 mph NW47.5 kmh NW 38.0 mph61.2 kmh 30.13 in1020.3 mb 0.00 in0.0 mm 0.00 in0.0 mm 0.00 in0.0 mm
09:53 AM 51.8°F11.0°C 41.6°F5.3°C 68% 28.4 mph NW45.7 kmh NW 33.0 mph53.1 kmh 30.13 in1020.3 mb 0.00 in0.0 mm 0.00 in0.0 mm 0.00 in0.0 mm
09:54 AM 51.7°F10.9°C 41.5°F5.3°C 68% 32.2 mph NW51.8 kmh NW 36.0 mph57.9 kmh 30.13 in1020.3 mb 0.00 in0.0 mm 0.00 in0.0 mm 0.00 in0.0 mm
09:55 AM 51.6°F10.9°C 41.4°F5.2°C 68% 31.7 mph NW51.0 kmh NW 37.0 mph59.5 kmh 30.14 in1020.7 mb 0.00 in0.0 mm 0.00 in0.0 mm 0.00 in0.0 mm
09:56 AM 51.6°F10.9°C 41.0°F5.0°C 67% 31.1 mph NW50.1 kmh NW 37.0 mph59.5 kmh 30.13 in1020.3 mb 0.00 in0.0 mm 0.00 in0.0 mm 0.00 in0.0 mm
09:57 AM 51.6°F10.9°C 41.8°F5.4°C 69% 30.3 mph NW48.8 kmh NW 36.0 mph57.9 kmh 30.14 in1020.7 mb 0.00 in0.0 mm 0.00 in0.0 mm 0.00 in0.0 mm
09:58 AM 51.7°F10.9°C 41.5°F5.3°C 68% 31.0 mph NW49.9 kmh NW 36.0 mph57.9 kmh 30.14 in1020.7 mb 0.00 in0.0 mm 0.00 in0.0 mm 0.00 in0.0 mm
09:59 AM 51.6°F10.9°C 41.8°F5.4°C 69% 28.4 mph NW45.7 kmh NW 36.0 mph57.9 kmh 30.14 in1020.7 mb 0.00 in0.0 mm 0.00 in0.0 mm 0.00 in0.0 mm
10:00 AM 51.7°F10.9°C 41.9°F5.5°C 69% 26.3 mph NW42.3 kmh NW 33.0 mph53.1 kmh 30.14 in1020.7 mb 0.00 in0.0 mm 0.00 in0.0 mm 0.00 in0.0 mm
10:01 AM 51.7°F10.9°C 41.9°F5.5°C 69% 27.5 mph NW44.3 kmh NW 30.0 mph48.3 kmh 30.14 in1020.7 mb 0.00 in0.0 mm 0.00 in0.0 mm 0.00 in0.0 mm
10:02 AM 51.7°F10.9°C 41.9°F5.5°C 69% 28.8 mph NW46.3 kmh NW 31.0 mph49.9 kmh 30.13 in1020.3 mb 0.00 in0.0 mm 0.00 in0.0 mm 0.00 in0.0 mm
10:03 AM 51.7°F10.9°C 41.1°F5.1°C 67% 27.5 mph NW44.3 kmh NW 31.0 mph49.9 kmh 30.14 in1020.7 mb 0.00 in0.0 mm 0.00 in0.0 mm 0.00 in0.0 mm
10:04 AM 51.7°F10.9°C 41.1°F5.1°C 67% 29.3 mph NW47.2 kmh NW 33.0 mph53.1 kmh 30.14 in1020.7 mb 0.00 in0.0 mm 0.00 in0.0 mm 0.00 in0.0 mm
10:05 AM 51.8°F11.0°C 42.0°F5.6°C 69% 27.0 mph NW43.5 kmh NW 33.0 mph53.1 kmh 30.14 in1020.7 mb 0.00 in0.0 mm 0.00 in0.0 mm 0.00 in0.0 mm
10:06 AM 51.8°F11.0°C 41.6°F5.3°C 68% 28.7 mph NW46.2 kmh NW 32.0 mph51.5 kmh 30.14 in1020.7 mb 0.00 in0.0 mm 0.00 in0.0 mm 0.00 in0.0 mm
10:07 AM 51.7°F10.9°C 41.1°F5.1°C 67% 27.9 mph NW44.9 kmh NW 31.0 mph49.9 kmh 30.14 in1020.7 mb 0.00 in0.0 mm 0.00 in0.0 mm 0.00 in0.0 mm
10:08 AM 51.8°F11.0°C 42.0°F5.6°C 69% 26.5 mph NW42.6 kmh NW 30.0 mph48.3 kmh 30.14 in1020.7 mb 0.00 in0.0 mm 0.00 in0.0 mm 0.00 in0.0 mm
10:09 AM 51.8°F11.0°C 42.0°F5.6°C 69% 29.3 mph NW47.2 kmh NW 33.0 mph53.1 kmh 30.14 in1020.7 mb 0.00 in0.0 mm 0.00 in0.0 mm 0.00 in0.0 mm
10:10 AM 51.7°F10.9°C 41.5°F5.3°C 68% 29.8 mph NW48.0 kmh NW 33.0 mph53.1 kmh 30.14 in1020.7 mb 0.00 in0.0 mm 0.00 in0.0 mm 0.00 in0.0 mm
10:11 AM 51.7°F10.9°C 42.6°F5.9°C 71% 30.7 mph NW49.4 kmh NW 34.0 mph54.7 kmh 30.14 in1020.7 mb 0.00 in0.0 mm 0.00 in0.0 mm 0.00 in0.0 mm
10:12 AM 51.6°F10.9°C 41.4°F5.2°C 68% 29.4 mph NW47.3 kmh NW 34.0 mph54.7 kmh 30.14 in1020.7 mb 0.00 in0.0 mm 0.00 in0.0 mm 0.00 in0.0 mm
10:13 AM 51.5°F10.8°C 41.3°F5.2°C 68% 32.4 mph NW52.1 kmh NW 35.0 mph56.3 kmh 30.14 in1020.7 mb 0.00 in0.0 mm 0.00 in0.0 mm 0.00 in0.0 mm
10:14 AM 51.6°F10.9°C 41.0°F5.0°C 67% 30.3 mph NW48.8 kmh NW 35.0 mph56.3 kmh 30.14 in1020.7 mb 0.00 in0.0 mm 0.00 in0.0 mm 0.00 in0.0 mm
10:15 AM 51.7°F10.9°C 41.5°F5.3°C 68% 31.0 mph NW49.9 kmh NW 37.0 mph59.5 kmh 30.14 in1020.7 mb 0.00 in0.0 mm 0.00 in0.0 mm 0.00 in0.0 mm
10:16 AM 51.8°F11.0°C 42.3°F5.7°C 70% 28.8 mph NW46.3 kmh NW 37.0 mph59.5 kmh 30.14 in1020.7 mb 0.00 in0.0 mm 0.00 in0.0 mm 0.00 in0.0 mm
10:17 AM 51.7°F10.9°C 42.2°F5.7°C 70% 27.6 mph NW44.4 kmh NW 33.0 mph53.1 kmh 30.14 in1020.7 mb 0.00 in0.0 mm 0.00 in0.0 mm 0.00 in0.0 mm
10:18 AM 51.8°F11.0°C 41.2°F5.1°C 67% 30.8 mph NW49.6 kmh NW 38.0 mph61.2 kmh 30.14 in1020.7 mb 0.00 in0.0 mm 0.00 in0.0 mm 0.00 in0.0 mm
10:19 AM 51.8°F11.0°C 41.2°F5.1°C 67% 32.2 mph NW51.8 kmh NW 38.0 mph61.2 kmh 30.14 in1020.7 mb 0.00 in0.0 mm 0.00 in0.0 mm 0.00 in0.0 mm
10:20 AM 51.8°F11.0°C 41.2°F5.1°C 67% 31.2 mph NW50.2 kmh NW 37.0 mph59.5 kmh 30.14 in1020.7 mb 0.00 in0.0 mm 0.00 in0.0 mm 0.00 in0.0 mm
10:21 AM 51.8°F11.0°C 41.2°F5.1°C 67% 31.7 mph NW51.0 kmh NW 37.0 mph59.5 kmh 30.14 in1020.7 mb 0.00 in0.0 mm 0.00 in0.0 mm 0.00 in0.0 mm
10:22 AM 51.8°F11.0°C 40.8°F4.9°C 66% 31.8 mph NW51.2 kmh NW 36.0 mph57.9 kmh 30.14 in1020.7 mb 0.00 in0.0 mm 0.00 in0.0 mm 0.00 in0.0 mm
10:23 AM 51.9°F11.1°C 41.7°F5.4°C 68% 31.4 mph NW50.5 kmh NW 36.0 mph57.9 kmh 30.14 in1020.7 mb 0.00 in0.0 mm 0.00 in0.0 mm 0.00 in0.0 mm
10:24 AM 51.9°F11.1°C 41.3°F5.2°C 67% 31.9 mph NW51.3 kmh NW 37.0 mph59.5 kmh 30.14 in1020.7 mb 0.00 in0.0 mm 0.00 in0.0 mm 0.00 in0.0 mm
10:25 AM 51.9°F11.1°C 41.3°F5.2°C 67% 29.2 mph NW47.0 kmh NW 37.0 mph59.5 kmh 30.14 in1020.7 mb 0.00 in0.0 mm 0.00 in0.0 mm 0.00 in0.0 mm
10:26 AM 52.0°F11.1°C 42.1°F5.6°C 69% 27.4 mph NW44.1 kmh NW 33.0 mph53.1 kmh 30.14 in1020.7 mb 0.00 in0.0 mm 0.00 in0.0 mm 0.00 in0.0 mm
10:27 AM 52.0°F11.1°C 41.8°F5.4°C 68% 31.0 mph NW49.9 kmh NW 34.0 mph54.7 kmh 30.14 in1020.7 mb 0.00 in0.0 mm 0.00 in0.0 mm 0.00 in0.0 mm
10:28 AM 52.0°F11.1°C 41.0°F5.0°C 66% 30.7 mph NW49.4 kmh NW 35.0 mph56.3 kmh 30.14 in1020.7 mb 0.00 in0.0 mm 0.00 in0.0 mm 0.00 in0.0 mm
10:29 AM 52.0°F11.1°C 41.8°F5.4°C 68% 30.8 mph NW49.6 kmh NW 35.0 mph56.3 kmh 30.14 in1020.7 mb 0.00 in0.0 mm 0.00 in0.0 mm 0.00 in0.0 mm
10:30 AM 52.0°F11.1°C 42.1°F5.6°C 69% 27.6 mph NW44.4 kmh NW 35.0 mph56.3 kmh 30.14 in1020.7 mb 0.00 in0.0 mm 0.00 in0.0 mm 0.00 in0.0 mm
10:31 AM 52.0°F11.1°C 42.9°F6.1°C 71% 27.3 mph NW43.9 kmh NW 31.0 mph49.9 kmh 30.14 in1020.7 mb 0.00 in0.0 mm 0.00 in0.0 mm 0.00 in0.0 mm
10:32 AM 52.0°F11.1°C 42.9°F6.1°C 71% 29.7 mph NW47.8 kmh NW 35.0 mph56.3 kmh 30.14 in1020.7 mb 0.00 in0.0 mm 0.00 in0.0 mm 0.00 in0.0 mm
10:33 AM 52.0°F11.1°C 42.1°F5.6°C 69% 31.3 mph NW50.4 kmh NW 36.0 mph57.9 kmh 30.14 in1020.7 mb 0.00 in0.0 mm 0.00 in0.0 mm 0.00 in0.0 mm
10:34 AM 51.9°F11.1°C 42.1°F5.6°C 69% 28.5 mph NW45.9 kmh NW 36.0 mph57.9 kmh 30.14 in1020.7 mb 0.00 in0.0 mm 0.00 in0.0 mm 0.00 in0.0 mm
10:35 AM 51.9°F11.1°C 42.1°F5.6°C 69% 28.9 mph NW46.5 kmh NW 33.0 mph53.1 kmh 30.14 in1020.7 mb 0.00 in0.0 mm 0.00 in0.0 mm 0.00 in0.0 mm
10:36 AM 51.9°F11.1°C 41.3°F5.2°C 67% 33.1 mph NW53.3 kmh NW 37.0 mph59.5 kmh 30.15 in1021.0 mb 0.00 in0.0 mm 0.00 in0.0 mm 0.00 in0.0 mm
10:37 AM 51.8°F11.0°C 42.0°F5.6°C 69% 31.2 mph NW50.2 kmh NW 37.0 mph59.5 kmh 30.14 in1020.7 mb 0.00 in0.0 mm 0.00 in0.0 mm 0.00 in0.0 mm
10:38 AM 51.7°F10.9°C 41.5°F5.3°C 68% 30.0 mph NW48.3 kmh NW 35.0 mph56.3 kmh 30.15 in1021.0 mb 0.00 in0.0 mm 0.00 in0.0 mm 0.00 in0.0 mm
10:39 AM 51.8°F11.0°C 42.0°F5.6°C 69% 28.2 mph NW45.4 kmh NW 33.0 mph53.1 kmh 30.15 in1021.0 mb 0.00 in0.0 mm 0.00 in0.0 mm 0.00 in0.0 mm
10:40 AM 51.8°F11.0°C 42.0°F5.6°C 69% 29.0 mph NW46.7 kmh NW 32.0 mph51.5 kmh 30.15 in1021.0 mb 0.00 in0.0 mm 0.00 in0.0 mm 0.00 in0.0 mm
10:41 AM 51.8°F11.0°C 43.1°F6.2°C 72% 26.2 mph NW42.2 kmh NW 31.0 mph49.9 kmh 30.15 in1021.0 mb 0.00 in0.0 mm 0.00 in0.0 mm 0.00 in0.0 mm
10:42 AM 51.9°F11.1°C 42.8°F6.0°C 71% 26.1 mph NW42.0 kmh NW 31.0 mph49.9 kmh 30.15 in1021.0 mb 0.00 in0.0 mm 0.00 in0.0 mm 0.00 in0.0 mm
10:43 AM 51.8°F11.0°C 41.2°F5.1°C 67% 29.5 mph NW47.5 kmh NW 32.0 mph51.5 kmh 30.15 in1021.0 mb 0.00 in0.0 mm 0.00 in0.0 mm 0.00 in0.0 mm
10:44 AM 51.7°F10.9°C 41.1°F5.1°C 67% 31.6 mph NW50.9 kmh NW 36.0 mph57.9 kmh 30.15 in1021.0 mb 0.00 in0.0 mm 0.00 in0.0 mm 0.00 in0.0 mm
10:45 AM 51.8°F11.0°C 42.3°F5.7°C 70% 27.7 mph NW44.6 kmh NW 36.0 mph57.9 kmh 30.15 in1021.0 mb 0.00 in0.0 mm 0.00 in0.0 mm 0.00 in0.0 mm
10:46 AM 51.8°F11.0°C 42.0°F5.6°C 69% 28.0 mph NW45.1 kmh NW 35.0 mph56.3 kmh 30.15 in1021.0 mb 0.00 in0.0 mm 0.00 in0.0 mm 0.00 in0.0 mm
10:47 AM 51.9°F11.1°C 43.2°F6.2°C 72% 25.5 mph NW41.0 kmh NW 35.0 mph56.3 kmh 30.15 in1021.0 mb 0.00 in0.0 mm 0.00 in0.0 mm 0.00 in0.0 mm
10:48 AM 51.9°F11.1°C 41.7°F5.4°C 68% 27.8 mph NW44.7 kmh NW 30.0 mph48.3 kmh 30.15 in1021.0 mb 0.00 in0.0 mm 0.00 in0.0 mm 0.00 in0.0 mm
10:49 AM 51.7°F10.9°C 40.7°F4.8°C 66% 30.0 mph NW48.3 kmh NW 34.0 mph54.7 kmh 30.16 in1021.3 mb 0.00 in0.0 mm 0.00 in0.0 mm 0.00 in0.0 mm
10:50 AM 51.5°F10.8°C 40.9°F4.9°C 67% 27.6 mph NW44.4 kmh NW 34.0 mph54.7 kmh 30.15 in1021.0 mb 0.00 in0.0 mm 0.00 in0.0 mm 0.00 in0.0 mm
10:51 AM 51.5°F10.8°C 39.7°F4.3°C 64% 28.4 mph NW45.7 kmh NW 32.0 mph51.5 kmh 30.16 in1021.3 mb 0.00 in0.0 mm 0.00 in0.0 mm 0.00 in0.0 mm
10:52 AM 51.6°F10.9°C 41.0°F5.0°C 67% 28.1 mph NW45.2 kmh NW 31.0 mph49.9 kmh 30.16 in1021.3 mb 0.00 in0.0 mm 0.00 in0.0 mm 0.00 in0.0 mm
10:53 AM 51.5°F10.8°C 39.3°F4.1°C 63% 28.0 mph NW45.1 kmh NW 31.0 mph49.9 kmh 30.16 in1021.3 mb 0.00 in0.0 mm 0.00 in0.0 mm 0.00 in0.0 mm
10:54 AM 51.5°F10.8°C 39.7°F4.3°C 64% 28.7 mph NW46.2 kmh NW 33.0 mph53.1 kmh 30.16 in1021.3 mb 0.00 in0.0 mm 0.00 in0.0 mm 0.00 in0.0 mm
10:55 AM 51.5°F10.8°C 41.3°F5.2°C 68% 25.8 mph NW41.5 kmh NW 33.0 mph53.1 kmh 30.16 in1021.3 mb 0.00 in0.0 mm 0.00 in0.0 mm 0.00 in0.0 mm
10:56 AM 51.6°F10.9°C 41.0°F5.0°C 67% 29.5 mph NW47.5 kmh NW 33.0 mph53.1 kmh 30.16 in1021.3 mb 0.00 in0.0 mm 0.00 in0.0 mm 0.00 in0.0 mm
10:57 AM 51.6°F10.9°C 41.8°F5.4°C 69% 28.2 mph NW45.4 kmh NW 33.0 mph53.1 kmh 30.16 in1021.3 mb 0.00 in0.0 mm 0.00 in0.0 mm 0.00 in0.0 mm
10:58 AM 51.6°F10.9°C 40.6°F4.8°C 66% 23.0 mph NW37.0 kmh NW 30.0 mph48.3 kmh 30.16 in1021.3 mb 0.00 in0.0 mm 0.00 in0.0 mm 0.00 in0.0 mm
10:59 AM 51.7°F10.9°C 41.5°F5.3°C 68% 24.3 mph NW39.1 kmh NW 29.0 mph46.7 kmh 30.16 in1021.3 mb 0.00 in0.0 mm 0.00 in0.0 mm 0.00 in0.0 mm
11:00 AM 51.6°F10.9°C 41.8°F5.4°C 69% 26.2 mph NW42.2 kmh NW 30.0 mph48.3 kmh 30.16 in1021.3 mb 0.00 in0.0 mm 0.00 in0.0 mm 0.00 in0.0 mm
11:01 AM 51.7°F10.9°C 42.2°F5.7°C 70% 25.6 mph NW41.2 kmh NW 30.0 mph48.3 kmh 30.16 in1021.3 mb 0.00 in0.0 mm 0.00 in0.0 mm 0.00 in0.0 mm
11:02 AM 51.7°F10.9°C 41.5°F5.3°C 68% 26.1 mph NW42.0 kmh NW 29.0 mph46.7 kmh 30.16 in1021.3 mb 0.00 in0.0 mm 0.00 in0.0 mm 0.00 in0.0 mm
11:03 AM 51.6°F10.9°C 42.1°F5.6°C 70% 26.4 mph NW42.5 kmh NW 29.0 mph46.7 kmh 30.16 in1021.3 mb 0.00 in0.0 mm 0.00 in0.0 mm 0.00 in0.0 mm
11:04 AM 51.5°F10.8°C 40.9°F4.9°C 67% 27.5 mph NW44.3 kmh NW 32.0 mph51.5 kmh 30.16 in1021.3 mb 0.00 in0.0 mm 0.00 in0.0 mm 0.00 in0.0 mm
11:05 AM 51.5°F10.8°C 40.5°F4.7°C 66% 28.6 mph NW46.0 kmh NW 35.0 mph56.3 kmh 30.16 in1021.3 mb 0.00 in0.0 mm 0.00 in0.0 mm 0.00 in0.0 mm
11:06 AM 51.5°F10.8°C 40.9°F4.9°C 67% 30.3 mph NW48.8 kmh NW 35.0 mph56.3 kmh 30.16 in1021.3 mb 0.00 in0.0 mm 0.00 in0.0 mm 0.00 in0.0 mm
11:07 AM 51.6°F10.9°C 41.0°F5.0°C 67% 28.8 mph NW46.3 kmh NW 33.0 mph53.1 kmh 30.16 in1021.3 mb 0.00 in0.0 mm 0.00 in0.0 mm 0.00 in0.0 mm
11:08 AM 51.5°F10.8°C 40.5°F4.7°C 66% 28.9 mph NW46.5 kmh NW 32.0 mph51.5 kmh 30.16 in1021.3 mb 0.00 in0.0 mm 0.00 in0.0 mm 0.00 in0.0 mm
11:09 AM 51.5°F10.8°C 41.3°F5.2°C 68% 31.5 mph NW50.7 kmh NW 36.0 mph57.9 kmh 30.16 in1021.3 mb 0.00 in0.0 mm 0.00 in0.0 mm 0.00 in0.0 mm
11:10 AM 51.7°F10.9°C 41.1°F5.1°C 67% 24.8 mph NW39.9 kmh NW 36.0 mph57.9 kmh 30.16 in1021.3 mb 0.00 in0.0 mm 0.00 in0.0 mm 0.00 in0.0 mm
11:11 AM 51.8°F11.0°C 42.7°F5.9°C 71% 24.7 mph NW39.8 kmh NW 29.0 mph46.7 kmh 30.16 in1021.3 mb 0.00 in0.0 mm 0.00 in0.0 mm 0.00 in0.0 mm
11:12 AM 51.7°F10.9°C 40.7°F4.8°C 66% 27.9 mph NW44.9 kmh NW 31.0 mph49.9 kmh 30.16 in1021.3 mb 0.00 in0.0 mm 0.00 in0.0 mm 0.00 in0.0 mm
11:13 AM 51.7°F10.9°C 41.1°F5.1°C 67% 29.2 mph NW47.0 kmh NW 33.0 mph53.1 kmh 30.16 in1021.3 mb 0.00 in0.0 mm 0.00 in0.0 mm 0.00 in0.0 mm
11:14 AM 51.7°F10.9°C 40.7°F4.8°C 66% 26.8 mph NW43.1 kmh NW 33.0 mph53.1 kmh 30.16 in1021.3 mb 0.00 in0.0 mm 0.00 in0.0 mm 0.00 in0.0 mm
11:15 AM 51.7°F10.9°C 40.7°F4.8°C 66% 25.5 mph NW41.0 kmh NW 31.0 mph49.9 kmh 30.16 in1021.3 mb 0.00 in0.0 mm 0.00 in0.0 mm 0.00 in0.0 mm
11:16 AM 51.9°F11.1°C 42.1°F5.6°C 69% 22.6 mph NW36.4 kmh NW 29.0 mph46.7 kmh 30.16 in1021.3 mb 0.00 in0.0 mm 0.00 in0.0 mm 0.00 in0.0 mm
11:17 AM 51.9°F11.1°C 41.3°F5.2°C 67% 25.9 mph NW41.7 kmh NW 31.0 mph49.9 kmh 30.16 in1021.3 mb 0.00 in0.0 mm 0.00 in0.0 mm 0.00 in0.0 mm
11:18 AM 52.0°F11.1°C 40.6°F4.8°C 65% 27.5 mph NW44.3 kmh NW 31.0 mph49.9 kmh 30.16 in1021.3 mb 0.00 in0.0 mm 0.00 in0.0 mm 0.00 in0.0 mm
11:19 AM 52.0°F11.1°C 40.6°F4.8°C 65% 26.2 mph NW42.2 kmh NW 31.0 mph49.9 kmh 30.16 in1021.3 mb 0.00 in0.0 mm 0.00 in0.0 mm 0.00 in0.0 mm
11:20 AM 52.0°F11.1°C 40.2°F4.6°C 64% 29.0 mph NW46.7 kmh NW 35.0 mph56.3 kmh 30.16 in1021.3 mb 0.00 in0.0 mm 0.00 in0.0 mm 0.00 in0.0 mm
11:21 AM 51.9°F11.1°C 39.3°F4.1°C 62% 32.6 mph NW52.5 kmh NW 36.0 mph57.9 kmh 30.16 in1021.3 mb 0.00 in0.0 mm 0.00 in0.0 mm 0.00 in0.0 mm
11:22 AM 51.9°F11.1°C 39.3°F4.1°C 62% 31.5 mph NW50.7 kmh NW 36.0 mph57.9 kmh 30.16 in1021.3 mb 0.00 in0.0 mm 0.00 in0.0 mm 0.00 in0.0 mm
11:23 AM 51.9°F11.1°C 40.1°F4.5°C 64% 28.8 mph NW46.3 kmh NW 34.0 mph54.7 kmh 30.16 in1021.3 mb 0.00 in0.0 mm 0.00 in0.0 mm 0.00 in0.0 mm
11:24 AM 52.0°F11.1°C 39.0°F3.9°C 61% 29.8 mph NW48.0 kmh NW 35.0 mph56.3 kmh 30.16 in1021.3 mb 0.00 in0.0 mm 0.00 in0.0 mm 0.00 in0.0 mm
11:25 AM 52.0°F11.1°C 39.8°F4.3°C 63% 28.6 mph NW46.0 kmh NW 35.0 mph56.3 kmh 30.16 in1021.3 mb 0.00 in0.0 mm 0.00 in0.0 mm 0.00 in0.0 mm
11:26 AM 52.1°F11.2°C 40.3°F4.6°C 64% 30.1 mph NW48.4 kmh NW 35.0 mph56.3 kmh 30.16 in1021.3 mb 0.00 in0.0 mm 0.00 in0.0 mm 0.00 in0.0 mm
11:27 AM 52.0°F11.1°C 39.8°F4.3°C 63% 32.3 mph NW52.0 kmh NW 38.0 mph61.2 kmh 30.16 in1021.3 mb 0.00 in0.0 mm 0.00 in0.0 mm 0.00 in0.0 mm
11:28 AM 52.0°F11.1°C 41.0°F5.0°C 66% 29.1 mph NW46.8 kmh NW 38.0 mph61.2 kmh 30.16 in1021.3 mb 0.00 in0.0 mm 0.00 in0.0 mm 0.00 in0.0 mm
11:29 AM 52.0°F11.1°C 41.0°F5.0°C 66% 28.2 mph NW45.4 kmh NW 31.0 mph49.9 kmh 30.16 in1021.3 mb 0.00 in0.0 mm 0.00 in0.0 mm 0.00 in0.0 mm
11:30 AM 52.1°F11.2°C 41.5°F5.3°C 67% 27.9 mph NW44.9 kmh NW 32.0 mph51.5 kmh 30.16 in1021.3 mb 0.00 in0.0 mm 0.00 in0.0 mm 0.00 in0.0 mm
11:31 AM 52.2°F11.2°C 41.2°F5.1°C 66% 28.5 mph NW45.9 kmh NW 32.0 mph51.5 kmh 30.16 in1021.3 mb 0.00 in0.0 mm 0.00 in0.0 mm 0.00 in0.0 mm
11:32 AM 52.1°F11.2°C 40.3°F4.6°C 64% 31.5 mph NW50.7 kmh NW 34.0 mph54.7 kmh 30.16 in1021.3 mb 0.00 in0.0 mm 0.00 in0.0 mm 0.00 in0.0 mm
11:33 AM 52.0°F11.1°C 40.2°F4.6°C 64% 30.8 mph NW49.6 kmh NW 34.0 mph54.7 kmh 30.16 in1021.3 mb 0.00 in0.0 mm 0.00 in0.0 mm 0.00 in0.0 mm
11:34 AM 51.8°F11.0°C 40.0°F4.4°C 64% 28.3 mph NW45.5 kmh NW 34.0 mph54.7 kmh 30.16 in1021.3 mb 0.00 in0.0 mm 0.00 in0.0 mm 0.00 in0.0 mm
11:35 AM 51.9°F11.1°C 40.9°F4.9°C 66% 26.7 mph NW43.0 kmh NW 33.0 mph53.1 kmh 30.16 in1021.3 mb 0.00 in0.0 mm 0.00 in0.0 mm 0.00 in0.0 mm
11:36 AM 51.9°F11.1°C 40.9°F4.9°C 66% 25.9 mph NW41.7 kmh NW 30.0 mph48.3 kmh 30.16 in1021.3 mb 0.00 in0.0 mm 0.00 in0.0 mm 0.00 in0.0 mm
11:37 AM 52.0°F11.1°C 41.8°F5.4°C 68% 24.2 mph NW38.9 kmh NW 28.0 mph45.1 kmh 30.16 in1021.3 mb 0.00 in0.0 mm 0.00 in0.0 mm 0.00 in0.0 mm
11:38 AM 51.9°F11.1°C 40.9°F4.9°C 66% 25.7 mph NW41.4 kmh NW 33.0 mph53.1 kmh 30.17 in1021.7 mb 0.00 in0.0 mm 0.00 in0.0 mm 0.00 in0.0 mm
11:39 AM 51.8°F11.0°C 40.0°F4.4°C 64% 28.4 mph NW45.7 kmh NW 35.0 mph56.3 kmh 30.16 in1021.3 mb 0.00 in0.0 mm 0.00 in0.0 mm 0.00 in0.0 mm
11:40 AM 51.8°F11.0°C 40.4°F4.7°C 65% 29.5 mph NW47.5 kmh NW 35.0 mph56.3 kmh 30.16 in1021.3 mb 0.00 in0.0 mm 0.00 in0.0 mm 0.00 in0.0 mm
11:41 AM 51.8°F11.0°C 41.6°F5.3°C 68% 27.7 mph NW44.6 kmh NW 33.0 mph53.1 kmh 30.16 in1021.3 mb 0.00 in0.0 mm 0.00 in0.0 mm 0.00 in0.0 mm
11:42 AM 51.8°F11.0°C 40.4°F4.7°C 65% 29.4 mph NW47.3 kmh NW 31.0 mph49.9 kmh 30.16 in1021.3 mb 0.00 in0.0 mm 0.00 in0.0 mm 0.00 in0.0 mm
11:43 AM 51.8°F11.0°C 40.4°F4.7°C 65% 29.1 mph NW46.8 kmh NW 34.0 mph54.7 kmh 30.16 in1021.3 mb 0.00 in0.0 mm 0.00 in0.0 mm 0.00 in0.0 mm
11:44 AM 51.8°F11.0°C 40.8°F4.9°C 66% 31.0 mph NW49.9 kmh NW 35.0 mph56.3 kmh 30.16 in1021.3 mb 0.00 in0.0 mm 0.00 in0.0 mm 0.00 in0.0 mm
11:45 AM 51.8°F11.0°C 41.2°F5.1°C 67% 26.9 mph NW43.3 kmh NW 35.0 mph56.3 kmh 30.17 in1021.7 mb 0.00 in0.0 mm 0.00 in0.0 mm 0.00 in0.0 mm
11:46 AM 51.9°F11.1°C 42.1°F5.6°C 69% 26.0 mph NW41.8 kmh NW 30.0 mph48.3 kmh 30.17 in1021.7 mb 0.00 in0.0 mm 0.00 in0.0 mm 0.00 in0.0 mm
11:47 AM 51.7°F10.9°C 40.7°F4.8°C 66% 28.2 mph NW45.4 kmh NW 31.0 mph49.9 kmh 30.17 in1021.7 mb 0.00 in0.0 mm 0.00 in0.0 mm 0.00 in0.0 mm
11:48 AM 51.8°F11.0°C 41.6°F5.3°C 68% 29.2 mph NW47.0 kmh NW 34.0 mph54.7 kmh 30.17 in1021.7 mb 0.00 in0.0 mm 0.00 in0.0 mm 0.00 in0.0 mm
11:49 AM 51.7°F10.9°C 40.3°F4.6°C 65% 30.8 mph NW49.6 kmh NW 35.0 mph56.3 kmh 30.17 in1021.7 mb 0.00 in0.0 mm 0.00 in0.0 mm 0.00 in0.0 mm
11:50 AM 51.6°F10.9°C 40.6°F4.8°C 66% 29.6 mph NW47.6 kmh NW 35.0 mph56.3 kmh 30.17 in1021.7 mb 0.00 in0.0 mm 0.00 in0.0 mm 0.00 in0.0 mm
11:51 AM 51.7°F10.9°C 40.7°F4.8°C 66% 30.1 mph NW48.4 kmh NW 35.0 mph56.3 kmh 30.17 in1021.7 mb 0.00 in0.0 mm 0.00 in0.0 mm 0.00 in0.0 mm
11:52 AM 51.6°F10.9°C 39.8°F4.3°C 64% 31.4 mph NW50.5 kmh NW 35.0 mph56.3 kmh 30.16 in1021.3 mb 0.00 in0.0 mm 0.00 in0.0 mm 0.00 in0.0 mm
11:53 AM 51.5°F10.8°C 39.7°F4.3°C 64% 28.4 mph NW45.7 kmh NW 34.0 mph54.7 kmh 30.16 in1021.3 mb 0.00 in0.0 mm 0.00 in0.0 mm 0.00 in0.0 mm
11:54 AM 51.6°F10.9°C 40.2°F4.6°C 65% 28.1 mph NW45.2 kmh NW 32.0 mph51.5 kmh 30.17 in1021.7 mb 0.00 in0.0 mm 0.00 in0.0 mm 0.00 in0.0 mm
11:55 AM 51.7°F10.9°C 40.3°F4.6°C 65% 26.3 mph NW42.3 kmh NW 32.0 mph51.5 kmh 30.17 in1021.7 mb 0.00 in0.0 mm 0.00 in0.0 mm 0.00 in0.0 mm
11:56 AM 51.7°F10.9°C 40.7°F4.8°C 66% 27.1 mph NW43.6 kmh NW 32.0 mph51.5 kmh 30.17 in1021.7 mb 0.00 in0.0 mm 0.00 in0.0 mm 0.00 in0.0 mm
11:57 AM 51.6°F10.9°C 40.6°F4.8°C 66% 27.9 mph NW44.9 kmh NW 31.0 mph49.9 kmh 30.17 in1021.7 mb 0.00 in0.0 mm 0.00 in0.0 mm 0.00 in0.0 mm
11:58 AM 51.5°F10.8°C 40.1°F4.5°C 65% 25.9 mph NW41.7 kmh NW 31.0 mph49.9 kmh 30.17 in1021.7 mb 0.00 in0.0 mm 0.00 in0.0 mm 0.00 in0.0 mm
11:59 AM 51.5°F10.8°C 39.7°F4.3°C 64% 26.0 mph NW41.8 kmh NW 30.0 mph48.3 kmh 30.17 in1021.7 mb 0.00 in0.0 mm 0.00 in0.0 mm 0.00 in0.0 mm
12:00 PM 51.7°F10.9°C 40.3°F4.6°C 65% 24.7 mph NW39.8 kmh NW 29.0 mph46.7 kmh 30.17 in1021.7 mb 0.00 in0.0 mm 0.00 in0.0 mm 0.00 in0.0 mm
12:01 PM 51.7°F10.9°C 40.3°F4.6°C 65% 27.6 mph NW44.4 kmh NW 32.0 mph51.5 kmh 30.17 in1021.7 mb 0.00 in0.0 mm 0.00 in0.0 mm 0.00 in0.0 mm
12:02 PM 51.7°F10.9°C 39.5°F4.2°C 63% 32.0 mph NW51.5 kmh NW 38.0 mph61.2 kmh 30.17 in1021.7 mb 0.00 in0.0 mm 0.00 in0.0 mm 0.00 in0.0 mm
12:03 PM 51.7°F10.9°C 39.5°F4.2°C 63% 30.2 mph NW48.6 kmh NW 38.0 mph61.2 kmh 30.17 in1021.7 mb 0.00 in0.0 mm 0.00 in0.0 mm 0.00 in0.0 mm
12:04 PM 51.7°F10.9°C 40.7°F4.8°C 66% 26.5 mph NW42.6 kmh NW 34.0 mph54.7 kmh 30.17 in1021.7 mb 0.00 in0.0 mm 0.00 in0.0 mm 0.00 in0.0 mm
12:05 PM 51.6°F10.9°C 40.2°F4.6°C 65% 29.2 mph NW47.0 kmh NW 35.0 mph56.3 kmh 30.17 in1021.7 mb 0.00 in0.0 mm 0.00 in0.0 mm 0.00 in0.0 mm
12:06 PM 51.7°F10.9°C 41.1°F5.1°C 67% 28.9 mph NW46.5 kmh NW 35.0 mph56.3 kmh 30.17 in1021.7 mb 0.00 in0.0 mm 0.00 in0.0 mm 0.00 in0.0 mm
12:07 PM 51.5°F10.8°C 38.9°F3.8°C 62% 28.8 mph NW46.3 kmh NW 34.0 mph54.7 kmh 30.17 in1021.7 mb 0.00 in0.0 mm 0.00 in0.0 mm 0.00 in0.0 mm
12:08 PM 51.6°F10.9°C 39.4°F4.1°C 63% 26.8 mph NW43.1 kmh NW 33.0 mph53.1 kmh 30.17 in1021.7 mb 0.00 in0.0 mm 0.00 in0.0 mm 0.00 in0.0 mm
12:09 PM 51.8°F11.0°C 40.4°F4.7°C 65% 27.7 mph NW44.6 kmh NW 35.0 mph56.3 kmh 30.17 in1021.7 mb 0.00 in0.0 mm 0.00 in0.0 mm 0.00 in0.0 mm
12:10 PM 51.8°F11.0°C 40.0°F4.4°C 64% 28.2 mph NW45.4 kmh NW 35.0 mph56.3 kmh 30.17 in1021.7 mb 0.00 in0.0 mm 0.00 in0.0 mm 0.00 in0.0 mm
12:11 PM 51.7°F10.9°C 40.3°F4.6°C 65% 29.2 mph NW47.0 kmh NW 34.0 mph54.7 kmh 30.17 in1021.7 mb 0.00 in0.0 mm 0.00 in0.0 mm 0.00 in0.0 mm
12:12 PM 51.7°F10.9°C 39.5°F4.2°C 63% 24.9 mph NW40.1 kmh NW 34.0 mph54.7 kmh 30.17 in1021.7 mb 0.00 in0.0 mm 0.00 in0.0 mm 0.00 in0.0 mm
12:13 PM 51.8°F11.0°C 41.6°F5.3°C 68% 24.3 mph NW39.1 kmh NW 28.0 mph45.1 kmh 30.17 in1021.7 mb 0.00 in0.0 mm 0.00 in0.0 mm 0.00 in0.0 mm
12:14 PM 51.8°F11.0°C 40.4°F4.7°C 65% 26.0 mph NW41.8 kmh NW 29.0 mph46.7 kmh 30.18 in1022.0 mb 0.00 in0.0 mm 0.00 in0.0 mm 0.00 in0.0 mm
12:15 PM 51.8°F11.0°C 41.6°F5.3°C 68% 23.8 mph NW38.3 kmh NW 29.0 mph46.7 kmh 30.18 in1022.0 mb 0.00 in0.0 mm 0.00 in0.0 mm 0.00 in0.0 mm
12:16 PM 51.7°F10.9°C 39.9°F4.4°C 64% 20.8 mph WNW33.5 kmh WNW 28.0 mph45.1 kmh 30.18 in1022.0 mb 0.00 in0.0 mm 0.00 in0.0 mm 0.00 in0.0 mm
12:17 PM 51.6°F10.9°C 40.2°F4.6°C 65% 24.3 mph WNW39.1 kmh WNW 28.0 mph45.1 kmh 30.18 in1022.0 mb 0.00 in0.0 mm 0.00 in0.0 mm 0.00 in0.0 mm
12:18 PM 51.6°F10.9°C 40.2°F4.6°C 65% 26.9 mph WNW43.3 kmh WNW 31.0 mph49.9 kmh 30.18 in1022.0 mb 0.00 in0.0 mm 0.00 in0.0 mm 0.00 in0.0 mm
12:19 PM 51.6°F10.9°C 40.6°F4.8°C 66% 26.4 mph NW42.5 kmh NW 31.0 mph49.9 kmh 30.18 in1022.0 mb 0.00 in0.0 mm 0.00 in0.0 mm 0.00 in0.0 mm
12:20 PM 51.7°F10.9°C 41.1°F5.1°C 67% 25.7 mph NW41.4 kmh NW 30.0 mph48.3 kmh 30.18 in1022.0 mb 0.00 in0.0 mm 0.00 in0.0 mm 0.00 in0.0 mm
12:21 PM 51.7°F10.9°C 41.1°F5.1°C 67% 26.2 mph NW42.2 kmh NW 31.0 mph49.9 kmh 30.18 in1022.0 mb 0.00 in0.0 mm 0.00 in0.0 mm 0.00 in0.0 mm
12:22 PM 51.8°F11.0°C 41.6°F5.3°C 68% 24.9 mph NW40.1 kmh NW 31.0 mph49.9 kmh 30.18 in1022.0 mb 0.00 in0.0 mm 0.00 in0.0 mm 0.00 in0.0 mm
12:23 PM 51.9°F11.1°C 41.3°F5.2°C 67% 23.6 mph NW38.0 kmh NW 28.0 mph45.1 kmh 30.18 in1022.0 mb 0.00 in0.0 mm 0.00 in0.0 mm 0.00 in0.0 mm
12:24 PM 52.0°F11.1°C 41.8°F5.4°C 68% 23.5 mph WNW37.8 kmh WNW 30.0 mph48.3 kmh 30.18 in1022.0 mb 0.00 in0.0 mm 0.00 in0.0 mm 0.00 in0.0 mm
12:25 PM 52.0°F11.1°C 40.6°F4.8°C 65% 26.0 mph WNW41.8 kmh WNW 31.0 mph49.9 kmh 30.18 in1022.0 mb 0.00 in0.0 mm 0.00 in0.0 mm 0.00 in0.0 mm
12:26 PM 52.1°F11.2°C 41.1°F5.1°C 66% 25.3 mph WNW40.7 kmh WNW 31.0 mph49.9 kmh 30.17 in1021.7 mb 0.00 in0.0 mm 0.00 in0.0 mm 0.00 in0.0 mm
12:27 PM 52.1°F11.2°C 40.7°F4.8°C 65% 24.7 mph NW39.8 kmh NW 31.0 mph49.9 kmh 30.17 in1021.7 mb 0.00 in0.0 mm 0.00 in0.0 mm 0.00 in0.0 mm
12:28 PM 52.1°F11.2°C 41.9°F5.5°C 68% 23.5 mph NW37.8 kmh NW 29.0 mph46.7 kmh 30.18 in1022.0 mb 0.00 in0.0 mm 0.00 in0.0 mm 0.00 in0.0 mm
12:29 PM 52.1°F11.2°C 41.9°F5.5°C 68% 25.5 mph NW41.0 kmh NW 28.0 mph45.1 kmh 30.17 in1021.7 mb 0.00 in0.0 mm 0.00 in0.0 mm 0.00 in0.0 mm
12:30 PM 52.0°F11.1°C 40.2°F4.6°C 64% 25.3 mph NW40.7 kmh NW 31.0 mph49.9 kmh 30.18 in1022.0 mb 0.00 in0.0 mm 0.00 in0.0 mm 0.00 in0.0 mm
12:31 PM 52.0°F11.1°C 41.4°F5.2°C 67% 26.1 mph NW42.0 kmh NW 32.0 mph51.5 kmh 30.18 in1022.0 mb 0.00 in0.0 mm 0.00 in0.0 mm 0.00 in0.0 mm
12:32 PM 51.9°F11.1°C 40.5°F4.7°C 65% 27.5 mph NW44.3 kmh NW 32.0 mph51.5 kmh 30.18 in1022.0 mb 0.00 in0.0 mm 0.00 in0.0 mm 0.00 in0.0 mm
12:33 PM 51.8°F11.0°C 40.0°F4.4°C 64% 25.3 mph NW40.7 kmh NW 31.0 mph49.9 kmh 30.18 in1022.0 mb 0.00 in0.0 mm 0.00 in0.0 mm 0.00 in0.0 mm
12:34 PM 52.0°F11.1°C 41.4°F5.2°C 67% 25.0 mph WNW40.2 kmh WNW 29.0 mph46.7 kmh 30.18 in1022.0 mb 0.00 in0.0 mm 0.00 in0.0 mm 0.00 in0.0 mm
12:35 PM 51.9°F11.1°C 40.5°F4.7°C 65% 27.8 mph WNW44.7 kmh WNW 34.0 mph54.7 kmh 30.18 in1022.0 mb 0.00 in0.0 mm 0.00 in0.0 mm 0.00 in0.0 mm
12:36 PM 52.0°F11.1°C 41.8°F5.4°C 68% 24.8 mph WNW39.9 kmh WNW 34.0 mph54.7 kmh 30.18 in1022.0 mb 0.00 in0.0 mm 0.00 in0.0 mm 0.00 in0.0 mm
12:37 PM 52.0°F11.1°C 41.4°F5.2°C 67% 30.1 mph WNW48.4 kmh WNW 33.0 mph53.1 kmh 30.18 in1022.0 mb 0.00 in0.0 mm 0.00 in0.0 mm 0.00 in0.0 mm
12:38 PM 52.0°F11.1°C 41.8°F5.4°C 68% 26.9 mph WNW43.3 kmh WNW 33.0 mph53.1 kmh 30.18 in1022.0 mb 0.00 in0.0 mm 0.00 in0.0 mm 0.00 in0.0 mm
12:39 PM 51.8°F11.0°C 40.4°F4.7°C 65% 26.2 mph WNW42.2 kmh WNW 32.0 mph51.5 kmh 30.18 in1022.0 mb 0.00 in0.0 mm 0.00 in0.0 mm 0.00 in0.0 mm
12:40 PM 51.8°F11.0°C 41.2°F5.1°C 67% 24.7 mph NW39.8 kmh NW 31.0 mph49.9 kmh 30.18 in1022.0 mb 0.00 in0.0 mm 0.00 in0.0 mm 0.00 in0.0 mm
12:41 PM 51.9°F11.1°C 41.7°F5.4°C 68% 24.1 mph WNW38.8 kmh WNW 30.0 mph48.3 kmh 30.18 in1022.0 mb 0.00 in0.0 mm 0.00 in0.0 mm 0.00 in0.0 mm
12:42 PM 52.0°F11.1°C 41.8°F5.4°C 68% 25.8 mph NW41.5 kmh NW 30.0 mph48.3 kmh 30.18 in1022.0 mb 0.00 in0.0 mm 0.00 in0.0 mm 0.00 in0.0 mm
12:43 PM 52.0°F11.1°C 42.1°F5.6°C 69% 29.9 mph NW48.1 kmh NW 34.0 mph54.7 kmh 30.18 in1022.0 mb 0.00 in0.0 mm 0.00 in0.0 mm 0.00 in0.0 mm
12:44 PM 51.9°F11.1°C 40.9°F4.9°C 66% 28.9 mph NW46.5 kmh NW 34.0 mph54.7 kmh 30.18 in1022.0 mb 0.00 in0.0 mm 0.00 in0.0 mm 0.00 in0.0 mm
12:45 PM 51.6°F10.9°C 40.6°F4.8°C 66% 29.3 mph NW47.2 kmh NW 33.0 mph53.1 kmh 30.18 in1022.0 mb 0.00 in0.0 mm 0.00 in0.0 mm 0.00 in0.0 mm
12:46 PM 51.6°F10.9°C 41.0°F5.0°C 67% 26.4 mph NW42.5 kmh NW 32.0 mph51.5 kmh 30.18 in1022.0 mb 0.00 in0.0 mm 0.00 in0.0 mm 0.00 in0.0 mm
12:47 PM 51.6°F10.9°C 41.4°F5.2°C 68% 27.1 mph NW43.6 kmh NW 36.0 mph57.9 kmh 30.18 in1022.0 mb 0.00 in0.0 mm 0.00 in0.0 mm 0.00 in0.0 mm
12:48 PM 51.6°F10.9°C 40.2°F4.6°C 65% 27.9 mph NW44.9 kmh NW 36.0 mph57.9 kmh 30.18 in1022.0 mb 0.00 in0.0 mm 0.00 in0.0 mm 0.00 in0.0 mm
12:49 PM 51.6°F10.9°C 40.6°F4.8°C 66% 30.5 mph NW49.1 kmh NW 35.0 mph56.3 kmh 30.18 in1022.0 mb 0.00 in0.0 mm 0.00 in0.0 mm 0.00 in0.0 mm
12:50 PM 51.5°F10.8°C 40.5°F4.7°C 66% 28.3 mph NW45.5 kmh NW 35.0 mph56.3 kmh 30.18 in1022.0 mb 0.00 in0.0 mm 0.00 in0.0 mm 0.00 in0.0 mm
12:51 PM 51.5°F10.8°C 41.3°F5.2°C 68% 25.7 mph NW41.4 kmh NW 31.0 mph49.9 kmh 30.18 in1022.0 mb 0.00 in0.0 mm 0.00 in0.0 mm 0.00 in0.0 mm
12:52 PM 51.5°F10.8°C 42.0°F5.6°C 70% 24.5 mph NW39.4 kmh NW 30.0 mph48.3 kmh 30.18 in1022.0 mb 0.00 in0.0 mm 0.00 in0.0 mm 0.00 in0.0 mm
12:53 PM 51.5°F10.8°C 41.3°F5.2°C 68% 24.3 mph NW39.1 kmh NW 27.0 mph43.5 kmh 30.18 in1022.0 mb 0.00 in0.0 mm 0.00 in0.0 mm 0.00 in0.0 mm
12:54 PM 51.6°F10.9°C 41.4°F5.2°C 68% 25.9 mph NW41.7 kmh NW 32.0 mph51.5 kmh 30.18 in1022.0 mb 0.00 in0.0 mm 0.00 in0.0 mm 0.00 in0.0 mm
12:55 PM 51.6°F10.9°C 40.6°F4.8°C 66% 26.5 mph NW42.6 kmh NW 32.0 mph51.5 kmh 30.18 in1022.0 mb 0.00 in0.0 mm 0.00 in0.0 mm 0.00 in0.0 mm
12:56 PM 51.6°F10.9°C 40.6°F4.8°C 66% 24.8 mph NW39.9 kmh NW 32.0 mph51.5 kmh 30.18 in1022.0 mb 0.00 in0.0 mm 0.00 in0.0 mm 0.00 in0.0 mm
12:57 PM 51.7°F10.9°C 41.1°F5.1°C 67% 24.5 mph WNW39.4 kmh WNW 31.0 mph49.9 kmh 30.18 in1022.0 mb 0.00 in0.0 mm 0.00 in0.0 mm 0.00 in0.0 mm
12:58 PM 51.7°F10.9°C 40.7°F4.8°C 66% 27.6 mph WNW44.4 kmh WNW 31.0 mph49.9 kmh 30.18 in1022.0 mb 0.00 in0.0 mm 0.00 in0.0 mm 0.00 in0.0 mm
12:59 PM 51.7°F10.9°C 41.1°F5.1°C 67% 27.2 mph WNW43.8 kmh WNW 30.0 mph48.3 kmh 30.18 in1022.0 mb 0.00 in0.0 mm 0.00 in0.0 mm 0.00 in0.0 mm
01:00 PM 51.7°F10.9°C 41.1°F5.1°C 67% 26.0 mph WNW41.8 kmh WNW 30.0 mph48.3 kmh 30.18 in1022.0 mb 0.00 in0.0 mm 0.00 in0.0 mm 0.00 in0.0 mm
01:01 PM 51.9°F11.1°C 41.3°F5.2°C 67% 25.4 mph NW40.9 kmh NW 30.0 mph48.3 kmh 30.18 in1022.0 mb 0.00 in0.0 mm 0.00 in0.0 mm 0.00 in0.0 mm
01:02 PM 52.0°F11.1°C 41.4°F5.2°C 67% 25.9 mph NW41.7 kmh NW 31.0 mph49.9 kmh 30.18 in1022.0 mb 0.00 in0.0 mm 0.00 in0.0 mm 0.00 in0.0 mm
01:03 PM 52.0°F11.1°C 41.0°F5.0°C 66% 30.0 mph NW48.3 kmh NW 33.0 mph53.1 kmh 30.18 in1022.0 mb 0.00 in0.0 mm 0.00 in0.0 mm 0.00 in0.0 mm
01:04 PM 51.9°F11.1°C 41.3°F5.2°C 67% 28.6 mph NW46.0 kmh NW 33.0 mph53.1 kmh 30.18 in1022.0 mb 0.00 in0.0 mm 0.00 in0.0 mm 0.00 in0.0 mm
01:05 PM 51.9°F11.1°C 41.3°F5.2°C 67% 29.1 mph NW46.8 kmh NW 35.0 mph56.3 kmh 30.18 in1022.0 mb 0.00 in0.0 mm 0.00 in0.0 mm 0.00 in0.0 mm
01:06 PM 52.0°F11.1°C 41.4°F5.2°C 67% 24.9 mph NW40.1 kmh NW 35.0 mph56.3 kmh 30.18 in1022.0 mb 0.00 in0.0 mm 0.00 in0.0 mm 0.00 in0.0 mm
01:07 PM 51.9°F11.1°C 41.7°F5.4°C 68% 28.7 mph NW46.2 kmh NW 32.0 mph51.5 kmh 30.18 in1022.0 mb 0.00 in0.0 mm 0.00 in0.0 mm 0.00 in0.0 mm
01:08 PM 51.8°F11.0°C 41.2°F5.1°C 67% 27.7 mph NW44.6 kmh NW 32.0 mph51.5 kmh 30.18 in1022.0 mb 0.00 in0.0 mm 0.00 in0.0 mm 0.00 in0.0 mm
01:09 PM 51.7°F10.9°C 40.7°F4.8°C 66% 29.2 mph NW47.0 kmh NW 33.0 mph53.1 kmh 30.19 in1022.4 mb 0.00 in0.0 mm 0.00 in0.0 mm 0.00 in0.0 mm
01:10 PM 51.8°F11.0°C 42.3°F5.7°C 70% 25.1 mph NW40.4 kmh NW 33.0 mph53.1 kmh 30.19 in1022.4 mb 0.00 in0.0 mm 0.00 in0.0 mm 0.00 in0.0 mm
01:11 PM 51.9°F11.1°C 42.1°F5.6°C 69% 25.3 mph NW40.7 kmh NW 30.0 mph48.3 kmh 30.18 in1022.0 mb 0.00 in0.0 mm 0.00 in0.0 mm 0.00 in0.0 mm
01:12 PM 51.7°F10.9°C 40.7°F4.8°C 66% 26.9 mph NW43.3 kmh NW 32.0 mph51.5 kmh 30.19 in1022.4 mb 0.00 in0.0 mm 0.00 in0.0 mm 0.00 in0.0 mm
01:13 PM 51.8°F11.0°C 42.3°F5.7°C 70% 24.3 mph NW39.1 kmh NW 31.0 mph49.9 kmh 30.19 in1022.4 mb 0.00 in0.0 mm 0.00 in0.0 mm 0.00 in0.0 mm
01:14 PM 51.7°F10.9°C 41.5°F5.3°C 68% 24.7 mph NW39.8 kmh NW 29.0 mph46.7 kmh 30.19 in1022.4 mb 0.00 in0.0 mm 0.00 in0.0 mm 0.00 in0.0 mm
01:15 PM 51.9°F11.1°C 42.1°F5.6°C 69% 26.1 mph NW42.0 kmh NW 28.0 mph45.1 kmh 30.19 in1022.4 mb 0.00 in0.0 mm 0.00 in0.0 mm 0.00 in0.0 mm
01:16 PM 51.9°F11.1°C 42.1°F5.6°C 69% 25.0 mph NW40.2 kmh NW 28.0 mph45.1 kmh 30.19 in1022.4 mb 0.00 in0.0 mm 0.00 in0.0 mm 0.00 in0.0 mm
01:17 PM 51.9°F11.1°C 41.3°F5.2°C 67% 26.4 mph NW42.5 kmh NW 29.0 mph46.7 kmh 30.19 in1022.4 mb 0.00 in0.0 mm 0.00 in0.0 mm 0.00 in0.0 mm
01:18 PM 51.8°F11.0°C 41.2°F5.1°C 67% 29.3 mph NW47.2 kmh NW 32.0 mph51.5 kmh 30.19 in1022.4 mb 0.00 in0.0 mm 0.00 in0.0 mm 0.00 in0.0 mm
01:19 PM 51.9°F11.1°C 41.3°F5.2°C 67% 26.2 mph NW42.2 kmh NW 32.0 mph51.5 kmh 30.19 in1022.4 mb 0.00 in0.0 mm 0.00 in0.0 mm 0.00 in0.0 mm
01:20 PM 51.9°F11.1°C 41.3°F5.2°C 67% 28.4 mph NW45.7 kmh NW 31.0 mph49.9 kmh 30.19 in1022.4 mb 0.00 in0.0 mm 0.00 in0.0 mm 0.00 in0.0 mm
01:21 PM 51.9°F11.1°C 40.9°F4.9°C 66% 27.6 mph NW44.4 kmh NW 31.0 mph49.9 kmh 30.19 in1022.4 mb 0.00 in0.0 mm 0.00 in0.0 mm 0.00 in0.0 mm
01:22 PM 52.0°F11.1°C 42.5°F5.8°C 70% 25.0 mph NW40.2 kmh NW 31.0 mph49.9 kmh 30.19 in1022.4 mb 0.00 in0.0 mm 0.00 in0.0 mm 0.00 in0.0 mm
01:23 PM 52.0°F11.1°C 41.4°F5.2°C 67% 27.4 mph NW44.1 kmh NW 30.0 mph48.3 kmh 30.19 in1022.4 mb 0.00 in0.0 mm 0.00 in0.0 mm 0.00 in0.0 mm
01:24 PM 52.1°F11.2°C 42.2°F5.7°C 69% 26.3 mph NW42.3 kmh NW 30.0 mph48.3 kmh 30.19 in1022.4 mb 0.00 in0.0 mm 0.00 in0.0 mm 0.00 in0.0 mm
01:25 PM 52.1°F11.2°C 40.7°F4.8°C 65% 24.6 mph NW39.6 kmh NW 31.0 mph49.9 kmh 30.19 in1022.4 mb 0.00 in0.0 mm 0.00 in0.0 mm 0.00 in0.0 mm
01:26 PM 52.2°F11.2°C 42.0°F5.6°C 68% 28.2 mph NW45.4 kmh NW 32.0 mph51.5 kmh 30.19 in1022.4 mb 0.00 in0.0 mm 0.00 in0.0 mm 0.00 in0.0 mm
01:27 PM 52.1°F11.2°C 42.2°F5.7°C 69% 25.8 mph NW41.5 kmh NW 32.0 mph51.5 kmh 30.19 in1022.4 mb 0.00 in0.0 mm 0.00 in0.0 mm 0.00 in0.0 mm
01:28 PM 52.0°F11.1°C 42.1°F5.6°C 69% 27.0 mph NW43.5 kmh NW 30.0 mph48.3 kmh 30.19 in1022.4 mb 0.00 in0.0 mm 0.00 in0.0 mm 0.00 in0.0 mm
01:29 PM 52.0°F11.1°C 41.0°F5.0°C 66% 25.0 mph NW40.2 kmh NW 31.0 mph49.9 kmh 30.19 in1022.4 mb 0.00 in0.0 mm 0.00 in0.0 mm 0.00 in0.0 mm
01:30 PM 52.0°F11.1°C 41.8°F5.4°C 68% 27.0 mph NW43.5 kmh NW 31.0 mph49.9 kmh 30.19 in1022.4 mb 0.00 in0.0 mm 0.00 in0.0 mm 0.00 in0.0 mm
01:31 PM 52.0°F11.1°C 41.8°F5.4°C 68% 28.0 mph NW45.1 kmh NW 32.0 mph51.5 kmh 30.19 in1022.4 mb 0.00 in0.0 mm 0.00 in0.0 mm 0.00 in0.0 mm
01:32 PM 52.0°F11.1°C 41.4°F5.2°C 67% 25.5 mph NW41.0 kmh NW 31.0 mph49.9 kmh 30.19 in1022.4 mb 0.00 in0.0 mm 0.00 in0.0 mm 0.00 in0.0 mm
01:33 PM 52.1°F11.2°C 41.1°F5.1°C 66% 25.3 mph NW40.7 kmh NW 30.0 mph48.3 kmh 30.19 in1022.4 mb 0.00 in0.0 mm 0.00 in0.0 mm 0.00 in0.0 mm
01:34 PM 52.1°F11.2°C 41.9°F5.5°C 68% 27.9 mph NW44.9 kmh NW 32.0 mph51.5 kmh 30.19 in1022.4 mb 0.00 in0.0 mm 0.00 in0.0 mm 0.00 in0.0 mm
01:35 PM 52.0°F11.1°C 41.0°F5.0°C 66% 28.0 mph NW45.1 kmh NW 32.0 mph51.5 kmh 30.19 in1022.4 mb 0.00 in0.0 mm 0.00 in0.0 mm 0.00 in0.0 mm
01:36 PM 52.1°F11.2°C 41.5°F5.3°C 67% 25.6 mph NW41.2 kmh NW 32.0 mph51.5 kmh 30.19 in1022.4 mb 0.00 in0.0 mm 0.00 in0.0 mm 0.00 in0.0 mm
01:37 PM 52.1°F11.2°C 41.5°F5.3°C 67% 28.2 mph NW45.4 kmh NW 32.0 mph51.5 kmh 30.19 in1022.4 mb 0.00 in0.0 mm 0.00 in0.0 mm 0.00 in0.0 mm
01:38 PM 52.1°F11.2°C 41.5°F5.3°C 67% 28.7 mph NW46.2 kmh NW 32.0 mph51.5 kmh 30.19 in1022.4 mb 0.00 in0.0 mm 0.00 in0.0 mm 0.00 in0.0 mm
01:39 PM 52.1°F11.2°C 41.5°F5.3°C 67% 28.9 mph NW46.5 kmh NW 32.0 mph51.5 kmh 30.19 in1022.4 mb 0.00 in0.0 mm 0.00 in0.0 mm 0.00 in0.0 mm
01:40 PM 52.1°F11.2°C 41.9°F5.5°C 68% 28.1 mph NW45.2 kmh NW 32.0 mph51.5 kmh 30.19 in1022.4 mb 0.00 in0.0 mm 0.00 in0.0 mm 0.00 in0.0 mm
01:41 PM 52.1°F11.2°C 41.9°F5.5°C 68% 26.6 mph NW42.8 kmh NW 31.0 mph49.9 kmh 30.19 in1022.4 mb 0.00 in0.0 mm 0.00 in0.0 mm 0.00 in0.0 mm
01:42 PM 52.1°F11.2°C 41.5°F5.3°C 67% 28.8 mph NW46.3 kmh NW 32.0 mph51.5 kmh 30.19 in1022.4 mb 0.00 in0.0 mm 0.00 in0.0 mm 0.00 in0.0 mm
01:43 PM 52.1°F11.2°C 41.9°F5.5°C 68% 27.2 mph NW43.8 kmh NW 32.0 mph51.5 kmh 30.19 in1022.4 mb 0.00 in0.0 mm 0.00 in0.0 mm 0.00 in0.0 mm
01:44 PM 52.1°F11.2°C 41.9°F5.5°C 68% 25.6 mph NW41.2 kmh NW 30.0 mph48.3 kmh 30.19 in1022.4 mb 0.00 in0.0 mm 0.00 in0.0 mm 0.00 in0.0 mm
01:45 PM 52.2°F11.2°C 42.3°F5.7°C 69% 24.7 mph NW39.8 kmh NW 29.0 mph46.7 kmh 30.19 in1022.4 mb 0.00 in0.0 mm 0.00 in0.0 mm 0.00 in0.0 mm
01:46 PM 52.2°F11.2°C 41.6°F5.3°C 67% 23.8 mph NW38.3 kmh NW 29.0 mph46.7 kmh 30.20 in1022.7 mb 0.00 in0.0 mm 0.00 in0.0 mm 0.00 in0.0 mm
01:47 PM 52.2°F11.2°C 41.6°F5.3°C 67% 25.8 mph NW41.5 kmh NW 29.0 mph46.7 kmh 30.20 in1022.7 mb 0.00 in0.0 mm 0.00 in0.0 mm 0.00 in0.0 mm
01:48 PM 52.2°F11.2°C 41.6°F5.3°C 67% 24.4 mph NW39.3 kmh NW 30.0 mph48.3 kmh 30.20 in1022.7 mb 0.00 in0.0 mm 0.00 in0.0 mm 0.00 in0.0 mm
01:49 PM 52.3°F11.3°C 42.1°F5.6°C 68% 24.9 mph NW40.1 kmh NW 30.0 mph48.3 kmh 30.20 in1022.7 mb 0.00 in0.0 mm 0.00 in0.0 mm 0.00 in0.0 mm
01:50 PM 52.3°F11.3°C 42.4°F5.8°C 69% 25.0 mph NW40.2 kmh NW 30.0 mph48.3 kmh 30.20 in1022.7 mb 0.00 in0.0 mm 0.00 in0.0 mm 0.00 in0.0 mm
01:51 PM 52.4°F11.3°C 42.2°F5.7°C 68% 24.5 mph NW39.4 kmh NW 28.0 mph45.1 kmh 30.20 in1022.7 mb 0.00 in0.0 mm 0.00 in0.0 mm 0.00 in0.0 mm
01:52 PM 52.3°F11.3°C 42.8°F6.0°C 70% 26.3 mph NW42.3 kmh NW 31.0 mph49.9 kmh 30.20 in1022.7 mb 0.00 in0.0 mm 0.00 in0.0 mm 0.00 in0.0 mm
01:53 PM 52.2°F11.2°C 42.0°F5.6°C 68% 27.3 mph NW43.9 kmh NW 31.0 mph49.9 kmh 30.20 in1022.7 mb 0.00 in0.0 mm 0.00 in0.0 mm 0.00 in0.0 mm
01:54 PM 52.2°F11.2°C 41.6°F5.3°C 67% 25.5 mph NW41.0 kmh NW 31.0 mph49.9 kmh 30.20 in1022.7 mb 0.00 in0.0 mm 0.00 in0.0 mm 0.00 in0.0 mm
01:55 PM 52.3°F11.3°C 42.4°F5.8°C 69% 26.4 mph NW42.5 kmh NW 30.0 mph48.3 kmh 30.20 in1022.7 mb 0.00 in0.0 mm 0.00 in0.0 mm 0.00 in0.0 mm
01:56 PM 52.3°F11.3°C 41.3°F5.2°C 66% 24.8 mph NW39.9 kmh NW 30.0 mph48.3 kmh 30.20 in1022.7 mb 0.00 in0.0 mm 0.00 in0.0 mm 0.00 in0.0 mm
01:57 PM 52.3°F11.3°C 42.1°F5.6°C 68% 23.6 mph NW38.0 kmh NW 27.0 mph43.5 kmh 30.20 in1022.7 mb 0.00 in0.0 mm 0.00 in0.0 mm 0.00 in0.0 mm
01:58 PM 52.4°F11.3°C 42.9°F6.1°C 70% 24.6 mph NW39.6 kmh NW 30.0 mph48.3 kmh 30.20 in1022.7 mb 0.00 in0.0 mm 0.00 in0.0 mm 0.00 in0.0 mm
01:59 PM 52.3°F11.3°C 42.8°F6.0°C 70% 27.6 mph NW44.4 kmh NW 32.0 mph51.5 kmh 30.20 in1022.7 mb 0.00 in0.0 mm 0.00 in0.0 mm 0.00 in0.0 mm
02:00 PM 52.2°F11.2°C 41.6°F5.3°C 67% 28.0 mph NW45.1 kmh NW 32.0 mph51.5 kmh 30.20 in1022.7 mb 0.00 in0.0 mm 0.00 in0.0 mm 0.00 in0.0 mm
02:01 PM 52.2°F11.2°C 42.0°F5.6°C 68% 27.1 mph NW43.6 kmh NW 32.0 mph51.5 kmh 30.20 in1022.7 mb 0.00 in0.0 mm 0.00 in0.0 mm 0.00 in0.0 mm
02:02 PM 52.1°F11.2°C 41.1°F5.1°C 66% 27.7 mph NW44.6 kmh NW 32.0 mph51.5 kmh 30.20 in1022.7 mb 0.00 in0.0 mm 0.00 in0.0 mm 0.00 in0.0 mm
02:03 PM 52.1°F11.2°C 41.5°F5.3°C 67% 27.1 mph NW43.6 kmh NW 31.0 mph49.9 kmh 30.20 in1022.7 mb 0.00 in0.0 mm 0.00 in0.0 mm 0.00 in0.0 mm
02:04 PM 52.1°F11.2°C 41.1°F5.1°C 66% 25.9 mph NW41.7 kmh NW 30.0 mph48.3 kmh 30.20 in1022.7 mb 0.00 in0.0 mm 0.00 in0.0 mm 0.00 in0.0 mm
02:05 PM 52.1°F11.2°C 41.9°F5.5°C 68% 23.9 mph NW38.5 kmh NW 29.0 mph46.7 kmh 30.20 in1022.7 mb 0.00 in0.0 mm 0.00 in0.0 mm 0.00 in0.0 mm
02:06 PM 52.1°F11.2°C 41.1°F5.1°C 66% 27.1 mph NW43.6 kmh NW 30.0 mph48.3 kmh 30.20 in1022.7 mb 0.00 in0.0 mm 0.00 in0.0 mm 0.00 in0.0 mm
02:07 PM 52.1°F11.2°C 41.1°F5.1°C 66% 29.2 mph NW47.0 kmh NW 31.0 mph49.9 kmh 30.20 in1022.7 mb 0.00 in0.0 mm 0.00 in0.0 mm 0.00 in0.0 mm
02:08 PM 52.0°F11.1°C 41.0°F5.0°C 66% 27.4 mph NW44.1 kmh NW 31.0 mph49.9 kmh 30.20 in1022.7 mb 0.00 in0.0 mm 0.00 in0.0 mm 0.00 in0.0 mm
02:09 PM 52.0°F11.1°C 41.4°F5.2°C 67% 25.0 mph NW40.2 kmh NW 30.0 mph48.3 kmh 30.20 in1022.7 mb 0.00 in0.0 mm 0.00 in0.0 mm 0.00 in0.0 mm
02:10 PM 52.0°F11.1°C 41.4°F5.2°C 67% 26.0 mph NW41.8 kmh NW 29.0 mph46.7 kmh 30.20 in1022.7 mb 0.00 in0.0 mm 0.00 in0.0 mm 0.00 in0.0 mm
02:11 PM 52.0°F11.1°C 42.1°F5.6°C 69% 25.2 mph NW40.6 kmh NW 30.0 mph48.3 kmh 30.20 in1022.7 mb 0.00 in0.0 mm 0.00 in0.0 mm 0.00 in0.0 mm
02:12 PM 52.0°F11.1°C 42.1°F5.6°C 69% 22.2 mph NW35.7 kmh NW 30.0 mph48.3 kmh 30.20 in1022.7 mb 0.00 in0.0 mm 0.00 in0.0 mm 0.00 in0.0 mm
02:13 PM 52.1°F11.2°C 41.1°F5.1°C 66% 23.5 mph NW37.8 kmh NW 27.0 mph43.5 kmh 30.20 in1022.7 mb 0.00 in0.0 mm 0.00 in0.0 mm 0.00 in0.0 mm
02:14 PM 52.1°F11.2°C 41.5°F5.3°C 67% 23.3 mph NW37.5 kmh NW 27.0 mph43.5 kmh 30.20 in1022.7 mb 0.00 in0.0 mm 0.00 in0.0 mm 0.00 in0.0 mm
02:15 PM 52.1°F11.2°C 41.9°F5.5°C 68% 23.3 mph NW37.5 kmh NW 26.0 mph41.8 kmh 30.20 in1022.7 mb 0.00 in0.0 mm 0.00 in0.0 mm 0.00 in0.0 mm
02:16 PM 52.1°F11.2°C 41.5°F5.3°C 67% 26.0 mph NW41.8 kmh NW 29.0 mph46.7 kmh 30.20 in1022.7 mb 0.00 in0.0 mm 0.00 in0.0 mm 0.00 in0.0 mm
02:17 PM 52.0°F11.1°C 40.6°F4.8°C 65% 24.9 mph NW40.1 kmh NW 29.0 mph46.7 kmh 30.20 in1022.7 mb 0.00 in0.0 mm 0.00 in0.0 mm 0.00 in0.0 mm
02:18 PM 52.1°F11.2°C 40.7°F4.8°C 65% 21.5 mph NW34.6 kmh NW 29.0 mph46.7 kmh 30.20 in1022.7 mb 0.00 in0.0 mm 0.00 in0.0 mm 0.00 in0.0 mm
02:19 PM 52.1°F11.2°C 40.7°F4.8°C 65% 26.8 mph NW43.1 kmh NW 30.0 mph48.3 kmh 30.20 in1022.7 mb 0.00 in0.0 mm 0.00 in0.0 mm 0.00 in0.0 mm
02:20 PM 52.1°F11.2°C 41.1°F5.1°C 66% 25.9 mph NW41.7 kmh NW 30.0 mph48.3 kmh 30.20 in1022.7 mb 0.00 in0.0 mm 0.00 in0.0 mm 0.00 in0.0 mm
02:21 PM 52.2°F11.2°C 40.8°F4.9°C 65% 27.5 mph NW44.3 kmh NW 31.0 mph49.9 kmh 30.21 in1023.0 mb 0.00 in0.0 mm 0.00 in0.0 mm 0.00 in0.0 mm
02:22 PM 52.2°F11.2°C 40.8°F4.9°C 65% 27.2 mph NW43.8 kmh NW 31.0 mph49.9 kmh 30.20 in1022.7 mb 0.00 in0.0 mm 0.00 in0.0 mm 0.00 in0.0 mm
02:23 PM 52.3°F11.3°C 40.9°F4.9°C 65% 25.8 mph NW41.5 kmh NW 30.0 mph48.3 kmh 30.20 in1022.7 mb 0.00 in0.0 mm 0.00 in0.0 mm 0.00 in0.0 mm
02:24 PM 52.4°F11.3°C 41.0°F5.0°C 65% 24.8 mph NW39.9 kmh NW 29.0 mph46.7 kmh 30.20 in1022.7 mb 0.00 in0.0 mm 0.00 in0.0 mm 0.00 in0.0 mm
02:25 PM 52.4°F11.3°C 40.2°F4.6°C 63% 29.9 mph NW48.1 kmh NW 33.0 mph53.1 kmh 30.20 in1022.7 mb 0.00 in0.0 mm 0.00 in0.0 mm 0.00 in0.0 mm
02:26 PM 52.3°F11.3°C 40.9°F4.9°C 65% 27.4 mph NW44.1 kmh NW 33.0 mph53.1 kmh 30.21 in1023.0 mb 0.00 in0.0 mm 0.00 in0.0 mm 0.00 in0.0 mm
02:27 PM 52.3°F11.3°C 41.7°F5.4°C 67% 27.9 mph NW44.9 kmh NW 33.0 mph53.1 kmh 30.21 in1023.0 mb 0.00 in0.0 mm 0.00 in0.0 mm 0.00 in0.0 mm
02:28 PM 52.3°F11.3°C 40.9°F4.9°C 65% 26.8 mph NW43.1 kmh NW 33.0 mph53.1 kmh 30.21 in1023.0 mb 0.00 in0.0 mm 0.00 in0.0 mm 0.00 in0.0 mm
02:29 PM 52.3°F11.3°C 41.3°F5.2°C 66% 28.2 mph NW45.4 kmh NW 32.0 mph51.5 kmh 30.21 in1023.0 mb 0.00 in0.0 mm 0.00 in0.0 mm 0.00 in0.0 mm
02:30 PM 52.3°F11.3°C 41.3°F5.2°C 66% 25.9 mph NW41.7 kmh NW 32.0 mph51.5 kmh 30.21 in1023.0 mb 0.00 in0.0 mm 0.00 in0.0 mm 0.00 in0.0 mm
02:31 PM 52.4°F11.3°C 41.0°F5.0°C 65% 28.4 mph NW45.7 kmh NW 31.0 mph49.9 kmh 30.21 in1023.0 mb 0.00 in0.0 mm 0.00 in0.0 mm 0.00 in0.0 mm
02:32 PM 52.2°F11.2°C 40.4°F4.7°C 64% 27.7 mph NW44.6 kmh NW 31.0 mph49.9 kmh 30.21 in1023.0 mb 0.00 in0.0 mm 0.00 in0.0 mm 0.00 in0.0 mm
02:33 PM 52.2°F11.2°C 40.8°F4.9°C 65% 25.3 mph NW40.7 kmh NW 30.0 mph48.3 kmh 30.20 in1022.7 mb 0.00 in0.0 mm 0.00 in0.0 mm 0.00 in0.0 mm
02:34 PM 52.2°F11.2°C 42.0°F5.6°C 68% 26.7 mph NW43.0 kmh NW 30.0 mph48.3 kmh 30.21 in1023.0 mb 0.00 in0.0 mm 0.00 in0.0 mm 0.00 in0.0 mm
02:35 PM 52.2°F11.2°C 42.0°F5.6°C 68% 26.0 mph NW41.8 kmh NW 30.0 mph48.3 kmh 30.21 in1023.0 mb 0.00 in0.0 mm 0.00 in0.0 mm 0.00 in0.0 mm
02:36 PM 52.3°F11.3°C 42.1°F5.6°C 68% 26.0 mph NW41.8 kmh NW 30.0 mph48.3 kmh 30.21 in1023.0 mb 0.00 in0.0 mm 0.00 in0.0 mm 0.00 in0.0 mm
02:37 PM 52.3°F11.3°C 42.1°F5.6°C 68% 25.4 mph NW40.9 kmh NW 30.0 mph48.3 kmh 30.21 in1023.0 mb 0.00 in0.0 mm 0.00 in0.0 mm 0.00 in0.0 mm
02:38 PM 52.4°F11.3°C 41.4°F5.2°C 66% 27.3 mph NW43.9 kmh NW 31.0 mph49.9 kmh 30.21 in1023.0 mb 0.00 in0.0 mm 0.00 in0.0 mm 0.00 in0.0 mm
02:39 PM 52.3°F11.3°C 41.3°F5.2°C 66% 27.3 mph NW43.9 kmh NW 31.0 mph49.9 kmh 30.21 in1023.0 mb 0.00 in0.0 mm 0.00 in0.0 mm 0.00 in0.0 mm
02:40 PM 52.3°F11.3°C 40.9°F4.9°C 65% 27.3 mph NW43.9 kmh NW 31.0 mph49.9 kmh 30.21 in1023.0 mb 0.00 in0.0 mm 0.00 in0.0 mm 0.00 in0.0 mm
02:41 PM 52.4°F11.3°C 41.4°F5.2°C 66% 28.4 mph NW45.7 kmh NW 31.0 mph49.9 kmh 30.21 in1023.0 mb 0.00 in0.0 mm 0.00 in0.0 mm 0.00 in0.0 mm
02:42 PM 52.4°F11.3°C 41.4°F5.2°C 66% 26.3 mph NW42.3 kmh NW 31.0 mph49.9 kmh 30.21 in1023.0 mb 0.00 in0.0 mm 0.00 in0.0 mm 0.00 in0.0 mm
02:43 PM 52.3°F11.3°C 40.5°F4.7°C 64% 25.5 mph NW41.0 kmh NW 30.0 mph48.3 kmh 30.21 in1023.0 mb 0.00 in0.0 mm 0.00 in0.0 mm 0.00 in0.0 mm
02:44 PM 52.4°F11.3°C 41.8°F5.4°C 67% 24.5 mph NW39.4 kmh NW 30.0 mph48.3 kmh 30.21 in1023.0 mb 0.00 in0.0 mm 0.00 in0.0 mm 0.00 in0.0 mm
02:45 PM 52.4°F11.3°C 41.8°F5.4°C 67% 26.0 mph NW41.8 kmh NW 30.0 mph48.3 kmh 30.21 in1023.0 mb 0.00 in0.0 mm 0.00 in0.0 mm 0.00 in0.0 mm
02:46 PM 52.4°F11.3°C 41.4°F5.2°C 66% 28.1 mph NW45.2 kmh NW 30.0 mph48.3 kmh 30.21 in1023.0 mb 0.00 in0.0 mm 0.00 in0.0 mm 0.00 in0.0 mm
02:47 PM 52.4°F11.3°C 41.4°F5.2°C 66% 28.1 mph NW45.2 kmh NW 31.0 mph49.9 kmh 30.21 in1023.0 mb 0.00 in0.0 mm 0.00 in0.0 mm 0.00 in0.0 mm
02:48 PM 52.3°F11.3°C 40.5°F4.7°C 64% 28.0 mph NW45.1 kmh NW 31.0 mph49.9 kmh 30.21 in1023.0 mb 0.00 in0.0 mm 0.00 in0.0 mm 0.00 in0.0 mm
02:49 PM 52.3°F11.3°C 41.7°F5.4°C 67% 26.8 mph NW43.1 kmh NW 31.0 mph49.9 kmh 30.21 in1023.0 mb 0.00 in0.0 mm 0.00 in0.0 mm 0.00 in0.0 mm
02:50 PM 52.3°F11.3°C 40.9°F4.9°C 65% 26.6 mph NW42.8 kmh NW 31.0 mph49.9 kmh 30.21 in1023.0 mb 0.00 in0.0 mm 0.00 in0.0 mm 0.00 in0.0 mm
02:51 PM 52.3°F11.3°C 40.1°F4.5°C 63% 27.2 mph NW43.8 kmh NW 31.0 mph49.9 kmh 30.21 in1023.0 mb 0.00 in0.0 mm 0.00 in0.0 mm 0.00 in0.0 mm
02:52 PM 52.3°F11.3°C 40.9°F4.9°C 65% 26.3 mph NW42.3 kmh NW 31.0 mph49.9 kmh 30.21 in1023.0 mb 0.00 in0.0 mm 0.00 in0.0 mm 0.00 in0.0 mm
02:53 PM 52.2°F11.2°C 41.2°F5.1°C 66% 24.3 mph NW39.1 kmh NW 29.0 mph46.7 kmh 30.21 in1023.0 mb 0.00 in0.0 mm 0.00 in0.0 mm 0.00 in0.0 mm
02:54 PM 52.3°F11.3°C 42.1°F5.6°C 68% 24.9 mph NW40.1 kmh NW 30.0 mph48.3 kmh 30.21 in1023.0 mb 0.00 in0.0 mm 0.00 in0.0 mm 0.00 in0.0 mm
02:55 PM 52.3°F11.3°C 41.3°F5.2°C 66% 24.2 mph NW38.9 kmh NW 30.0 mph48.3 kmh 30.21 in1023.0 mb 0.00 in0.0 mm 0.00 in0.0 mm 0.00 in0.0 mm
02:56 PM 52.3°F11.3°C 41.3°F5.2°C 66% 27.6 mph NW44.4 kmh NW 31.0 mph49.9 kmh 30.21 in1023.0 mb 0.00 in0.0 mm 0.00 in0.0 mm 0.00 in0.0 mm
02:57 PM 52.2°F11.2°C 40.4°F4.7°C 64% 26.1 mph NW42.0 kmh NW 31.0 mph49.9 kmh 30.21 in1023.0 mb 0.00 in0.0 mm 0.00 in0.0 mm 0.00 in0.0 mm
02:58 PM 52.2°F11.2°C 41.2°F5.1°C 66% 24.2 mph NW38.9 kmh NW 29.0 mph46.7 kmh 30.21 in1023.0 mb 0.00 in0.0 mm 0.00 in0.0 mm 0.00 in0.0 mm
02:59 PM 52.2°F11.2°C 40.8°F4.9°C 65% 27.3 mph NW43.9 kmh NW 30.0 mph48.3 kmh 30.21 in1023.0 mb 0.00 in0.0 mm 0.00 in0.0 mm 0.00 in0.0 mm
03:00 PM 52.2°F11.2°C 40.8°F4.9°C 65% 25.6 mph NW41.2 kmh NW 30.0 mph48.3 kmh 30.21 in1023.0 mb 0.00 in0.0 mm 0.00 in0.0 mm 0.00 in0.0 mm
03:01 PM 52.2°F11.2°C 40.8°F4.9°C 65% 25.7 mph NW41.4 kmh NW 30.0 mph48.3 kmh 30.21 in1023.0 mb 0.00 in0.0 mm 0.00 in0.0 mm 0.00 in0.0 mm
03:02 PM 52.2°F11.2°C 41.2°F5.1°C 66% 23.3 mph NW37.5 kmh NW 27.0 mph43.5 kmh 30.21 in1023.0 mb 0.00 in0.0 mm 0.00 in0.0 mm 0.00 in0.0 mm
03:03 PM 52.3°F11.3°C 42.4°F5.8°C 69% 21.8 mph NW35.1 kmh NW 26.0 mph41.8 kmh 30.21 in1023.0 mb 0.00 in0.0 mm 0.00 in0.0 mm 0.00 in0.0 mm
03:04 PM 52.4°F11.3°C 42.2°F5.7°C 68% 25.1 mph NW40.4 kmh NW 29.0 mph46.7 kmh 30.21 in1023.0 mb 0.00 in0.0 mm 0.00 in0.0 mm 0.00 in0.0 mm
03:05 PM 52.4°F11.3°C 41.4°F5.2°C 66% 29.5 mph NW47.5 kmh NW 34.0 mph54.7 kmh 30.21 in1023.0 mb 0.00 in0.0 mm 0.00 in0.0 mm 0.00 in0.0 mm
03:06 PM 52.4°F11.3°C 41.4°F5.2°C 66% 27.5 mph NW44.3 kmh NW 34.0 mph54.7 kmh 30.21 in1023.0 mb 0.00 in0.0 mm 0.00 in0.0 mm 0.00 in0.0 mm
03:07 PM 52.4°F11.3°C 41.0°F5.0°C 65% 29.2 mph NW47.0 kmh NW 33.0 mph53.1 kmh 30.21 in1023.0 mb 0.00 in0.0 mm 0.00 in0.0 mm 0.00 in0.0 mm
03:08 PM 52.4°F11.3°C 41.4°F5.2°C 66% 29.1 mph NW46.8 kmh NW 34.0 mph54.7 kmh 30.21 in1023.0 mb 0.00 in0.0 mm 0.00 in0.0 mm 0.00 in0.0 mm
03:09 PM 52.4°F11.3°C 40.6°F4.8°C 64% 29.1 mph NW46.8 kmh NW 34.0 mph54.7 kmh 30.21 in1023.0 mb 0.00 in0.0 mm 0.00 in0.0 mm 0.00 in0.0 mm
03:10 PM 52.5°F11.4°C 41.5°F5.3°C 66% 28.8 mph NW46.3 kmh NW 33.0 mph53.1 kmh 30.21 in1023.0 mb 0.00 in0.0 mm 0.00 in0.0 mm 0.00 in0.0 mm
03:11 PM 52.5°F11.4°C 41.1°F5.1°C 65% 25.0 mph NW40.2 kmh NW 32.0 mph51.5 kmh 30.21 in1023.0 mb 0.00 in0.0 mm 0.00 in0.0 mm 0.00 in0.0 mm
03:12 PM 52.4°F11.3°C 40.6°F4.8°C 64% 28.4 mph NW45.7 kmh NW 32.0 mph51.5 kmh 30.22 in1023.4 mb 0.00 in0.0 mm 0.00 in0.0 mm 0.00 in0.0 mm
03:13 PM 52.3°F11.3°C 40.5°F4.7°C 64% 26.8 mph NW43.1 kmh NW 32.0 mph51.5 kmh 30.21 in1023.0 mb 0.00 in0.0 mm 0.00 in0.0 mm 0.00 in0.0 mm
03:14 PM 52.3°F11.3°C 40.5°F4.7°C 64% 27.1 mph NW43.6 kmh NW 33.0 mph53.1 kmh 30.21 in1023.0 mb 0.00 in0.0 mm 0.00 in0.0 mm 0.00 in0.0 mm
03:15 PM 52.3°F11.3°C 40.9°F4.9°C 65% 25.3 mph NW40.7 kmh NW 33.0 mph53.1 kmh 30.21 in1023.0 mb 0.00 in0.0 mm 0.00 in0.0 mm 0.00 in0.0 mm
03:16 PM 52.3°F11.3°C 43.2°F6.2°C 71% 26.9 mph NW43.3 kmh NW 30.0 mph48.3 kmh 30.22 in1023.4 mb 0.00 in0.0 mm 0.00 in0.0 mm 0.00 in0.0 mm
03:17 PM 52.3°F11.3°C 41.3°F5.2°C 66% 26.4 mph NW42.5 kmh NW 29.0 mph46.7 kmh 30.22 in1023.4 mb 0.00 in0.0 mm 0.00 in0.0 mm 0.00 in0.0 mm
03:18 PM 52.3°F11.3°C 41.7°F5.4°C 67% 25.5 mph NW41.0 kmh NW 29.0 mph46.7 kmh 30.22 in1023.4 mb 0.00 in0.0 mm 0.00 in0.0 mm 0.00 in0.0 mm
03:19 PM 52.4°F11.3°C 41.8°F5.4°C 67% 25.2 mph NW40.6 kmh NW 29.0 mph46.7 kmh 30.22 in1023.4 mb 0.00 in0.0 mm 0.00 in0.0 mm 0.00 in0.0 mm
03:20 PM 52.5°F11.4°C 42.6°F5.9°C 69% 23.9 mph NW38.5 kmh NW 29.0 mph46.7 kmh 30.22 in1023.4 mb 0.00 in0.0 mm 0.00 in0.0 mm 0.00 in0.0 mm
03:21 PM 52.3°F11.3°C 42.1°F5.6°C 68% 25.9 mph NW41.7 kmh NW 30.0 mph48.3 kmh 30.22 in1023.4 mb 0.00 in0.0 mm 0.00 in0.0 mm 0.00 in0.0 mm
03:22 PM 52.4°F11.3°C 41.4°F5.2°C 66% 26.9 mph NW43.3 kmh NW 30.0 mph48.3 kmh 30.22 in1023.4 mb 0.00 in0.0 mm 0.00 in0.0 mm 0.00 in0.0 mm
03:23 PM 52.5°F11.4°C 42.2°F5.7°C 68% 24.6 mph NW39.6 kmh NW 30.0 mph48.3 kmh 30.22 in1023.4 mb 0.00 in0.0 mm 0.00 in0.0 mm 0.00 in0.0 mm
03:24 PM 52.4°F11.3°C 42.2°F5.7°C 68% 23.4 mph NW37.7 kmh NW 28.0 mph45.1 kmh 30.22 in1023.4 mb 0.00 in0.0 mm 0.00 in0.0 mm 0.00 in0.0 mm
03:25 PM 52.4°F11.3°C 42.2°F5.7°C 68% 22.0 mph NW35.4 kmh NW 25.0 mph40.2 kmh 30.22 in1023.4 mb 0.00 in0.0 mm 0.00 in0.0 mm 0.00 in0.0 mm
03:26 PM 52.4°F11.3°C 42.2°F5.7°C 68% 21.9 mph NW35.2 kmh NW 27.0 mph43.5 kmh 30.22 in1023.4 mb 0.00 in0.0 mm 0.00 in0.0 mm 0.00 in0.0 mm
03:27 PM 52.4°F11.3°C 41.0°F5.0°C 65% 26.0 mph NW41.8 kmh NW 29.0 mph46.7 kmh 30.22 in1023.4 mb 0.00 in0.0 mm 0.00 in0.0 mm 0.00 in0.0 mm
03:28 PM 52.4°F11.3°C 41.4°F5.2°C 66% 24.4 mph NW39.3 kmh NW 29.0 mph46.7 kmh 30.22 in1023.4 mb 0.00 in0.0 mm 0.00 in0.0 mm 0.00 in0.0 mm
03:29 PM 52.4°F11.3°C 41.8°F5.4°C 67% 22.2 mph NW35.7 kmh NW 27.0 mph43.5 kmh 30.22 in1023.4 mb 0.00 in0.0 mm 0.00 in0.0 mm 0.00 in0.0 mm
03:30 PM 52.5°F11.4°C 42.2°F5.7°C 68% 22.8 mph NW36.7 kmh NW 26.0 mph41.8 kmh 30.22 in1023.4 mb 0.00 in0.0 mm 0.00 in0.0 mm 0.00 in0.0 mm
03:31 PM 52.4°F11.3°C 42.5°F5.8°C 69% 24.5 mph NW39.4 kmh NW 29.0 mph46.7 kmh 30.22 in1023.4 mb 0.00 in0.0 mm 0.00 in0.0 mm 0.00 in0.0 mm
03:32 PM 52.5°F11.4°C 42.2°F5.7°C 68% 26.3 mph NW42.3 kmh NW 29.0 mph46.7 kmh 30.22 in1023.4 mb 0.00 in0.0 mm 0.00 in0.0 mm 0.00 in0.0 mm
03:33 PM 52.4°F11.3°C 42.5°F5.8°C 69% 26.1 mph NW42.0 kmh NW 29.0 mph46.7 kmh 30.22 in1023.4 mb 0.00 in0.0 mm 0.00 in0.0 mm 0.00 in0.0 mm
03:34 PM 52.4°F11.3°C 42.5°F5.8°C 69% 24.5 mph NW39.4 kmh NW 28.0 mph45.1 kmh 30.22 in1023.4 mb 0.00 in0.0 mm 0.00 in0.0 mm 0.00 in0.0 mm
03:35 PM 52.5°F11.4°C 43.0°F6.1°C 70% 22.8 mph NW36.7 kmh NW 28.0 mph45.1 kmh 30.22 in1023.4 mb 0.00 in0.0 mm 0.00 in0.0 mm 0.00 in0.0 mm
03:36 PM 52.6°F11.4°C 43.1°F6.2°C 70% 23.2 mph NW37.3 kmh NW 28.0 mph45.1 kmh 30.22 in1023.4 mb 0.00 in0.0 mm 0.00 in0.0 mm 0.00 in0.0 mm
03:37 PM 52.6°F11.4°C 43.1°F6.2°C 70% 26.0 mph NW41.8 kmh NW 32.0 mph51.5 kmh 30.22 in1023.4 mb 0.00 in0.0 mm 0.00 in0.0 mm 0.00 in0.0 mm
03:38 PM 52.7°F11.5°C 43.2°F6.2°C 70% 24.0 mph NW38.6 kmh NW 32.0 mph51.5 kmh 30.22 in1023.4 mb 0.00 in0.0 mm 0.00 in0.0 mm 0.00 in0.0 mm
03:39 PM 52.7°F11.5°C 43.2°F6.2°C 70% 27.9 mph NW44.9 kmh NW 31.0 mph49.9 kmh 30.23 in1023.7 mb 0.00 in0.0 mm 0.00 in0.0 mm 0.00 in0.0 mm
03:40 PM 52.7°F11.5°C 42.4°F5.8°C 68% 28.5 mph NW45.9 kmh NW 32.0 mph51.5 kmh 30.22 in1023.4 mb 0.00 in0.0 mm 0.00 in0.0 mm 0.00 in0.0 mm
03:41 PM 52.7°F11.5°C 42.1°F5.6°C 67% 27.5 mph NW44.3 kmh NW 32.0 mph51.5 kmh 30.23 in1023.7 mb 0.00 in0.0 mm 0.00 in0.0 mm 0.00 in0.0 mm
03:42 PM 52.6°F11.4°C 42.0°F5.6°C 67% 29.2 mph NW47.0 kmh NW 33.0 mph53.1 kmh 30.23 in1023.7 mb 0.00 in0.0 mm 0.00 in0.0 mm 0.00 in0.0 mm
03:43 PM 52.5°F11.4°C 41.9°F5.5°C 67% 28.5 mph NW45.9 kmh NW 33.0 mph53.1 kmh 30.23 in1023.7 mb 0.00 in0.0 mm 0.00 in0.0 mm 0.00 in0.0 mm
03:44 PM 52.5°F11.4°C 41.9°F5.5°C 67% 27.6 mph NW44.4 kmh NW 32.0 mph51.5 kmh 30.23 in1023.7 mb 0.00 in0.0 mm 0.00 in0.0 mm 0.00 in0.0 mm
03:45 PM 52.5°F11.4°C 42.2°F5.7°C 68% 27.0 mph NW43.5 kmh NW 31.0 mph49.9 kmh 30.23 in1023.7 mb 0.00 in0.0 mm 0.00 in0.0 mm 0.00 in0.0 mm
03:46 PM 52.4°F11.3°C 41.8°F5.4°C 67% 29.1 mph NW46.8 kmh NW 32.0 mph51.5 kmh 30.23 in1023.7 mb 0.00 in0.0 mm 0.00 in0.0 mm 0.00 in0.0 mm
03:47 PM 52.5°F11.4°C 42.6°F5.9°C 69% 25.4 mph NW40.9 kmh NW 32.0 mph51.5 kmh 30.23 in1023.7 mb 0.00 in0.0 mm 0.00 in0.0 mm 0.00 in0.0 mm
03:48 PM 52.5°F11.4°C 42.6°F5.9°C 69% 25.0 mph NW40.2 kmh NW 29.0 mph46.7 kmh 30.23 in1023.7 mb 0.00 in0.0 mm 0.00 in0.0 mm 0.00 in0.0 mm
03:49 PM 52.5°F11.4°C 42.6°F5.9°C 69% 27.5 mph NW44.3 kmh NW 31.0 mph49.9 kmh 30.23 in1023.7 mb 0.00 in0.0 mm 0.00 in0.0 mm 0.00 in0.0 mm
03:50 PM 52.4°F11.3°C 42.2°F5.7°C 68% 28.0 mph NW45.1 kmh NW 31.0 mph49.9 kmh 30.23 in1023.7 mb 0.00 in0.0 mm 0.00 in0.0 mm 0.00 in0.0 mm
03:51 PM 52.4°F11.3°C 42.5°F5.8°C 69% 25.2 mph NW40.6 kmh NW 31.0 mph49.9 kmh 30.23 in1023.7 mb 0.00 in0.0 mm 0.00 in0.0 mm 0.00 in0.0 mm
03:52 PM 52.5°F11.4°C 42.6°F5.9°C 69% 25.8 mph NW41.5 kmh NW 30.0 mph48.3 kmh 30.23 in1023.7 mb 0.00 in0.0 mm 0.00 in0.0 mm 0.00 in0.0 mm
03:53 PM 52.5°F11.4°C 42.2°F5.7°C 68% 27.8 mph NW44.7 kmh NW 32.0 mph51.5 kmh 30.23 in1023.7 mb 0.00 in0.0 mm 0.00 in0.0 mm 0.00 in0.0 mm
03:54 PM 52.4°F11.3°C 42.2°F5.7°C 68% 29.3 mph NW47.2 kmh NW 32.0 mph51.5 kmh 30.23 in1023.7 mb 0.00 in0.0 mm 0.00 in0.0 mm 0.00 in0.0 mm
03:55 PM 52.5°F11.4°C 42.2°F5.7°C 68% 26.2 mph NW42.2 kmh NW 32.0 mph51.5 kmh 30.23 in1023.7 mb 0.00 in0.0 mm 0.00 in0.0 mm 0.00 in0.0 mm
03:56 PM 52.6°F11.4°C 43.5°F6.4°C 71% 26.9 mph NW43.3 kmh NW 34.0 mph54.7 kmh 30.23 in1023.7 mb 0.00 in0.0 mm 0.00 in0.0 mm 0.00 in0.0 mm
03:57 PM 52.6°F11.4°C 42.0°F5.6°C 67% 27.7 mph NW44.6 kmh NW 34.0 mph54.7 kmh 30.23 in1023.7 mb 0.00 in0.0 mm 0.00 in0.0 mm 0.00 in0.0 mm
03:58 PM 52.6°F11.4°C 42.3°F5.7°C 68% 26.7 mph NW43.0 kmh NW 32.0 mph51.5 kmh 30.23 in1023.7 mb 0.00 in0.0 mm 0.00 in0.0 mm 0.00 in0.0 mm
03:59 PM 52.6°F11.4°C 42.7°F5.9°C 69% 25.5 mph NW41.0 kmh NW 30.0 mph48.3 kmh 30.23 in1023.7 mb 0.00 in0.0 mm 0.00 in0.0 mm 0.00 in0.0 mm
04:00 PM 52.7°F11.5°C 43.6°F6.4°C 71% 24.4 mph NW39.3 kmh NW 29.0 mph46.7 kmh 30.23 in1023.7 mb 0.00 in0.0 mm 0.00 in0.0 mm 0.00 in0.0 mm
04:01 PM 52.6°F11.4°C 43.1°F6.2°C 70% 25.1 mph NW40.4 kmh NW 28.0 mph45.1 kmh 30.23 in1023.7 mb 0.00 in0.0 mm 0.00 in0.0 mm 0.00 in0.0 mm
04:02 PM 52.6°F11.4°C 42.7°F5.9°C 69% 24.4 mph NW39.3 kmh NW 28.0 mph45.1 kmh 30.23 in1023.7 mb 0.00 in0.0 mm 0.00 in0.0 mm 0.00 in0.0 mm
04:03 PM 52.7°F11.5°C 42.8°F6.0°C 69% 23.3 mph NW37.5 kmh NW 26.0 mph41.8 kmh 30.23 in1023.7 mb 0.00 in0.0 mm 0.00 in0.0 mm 0.00 in0.0 mm
04:04 PM 52.8°F11.6°C 43.7°F6.5°C 71% 25.1 mph NW40.4 kmh NW 30.0 mph48.3 kmh 30.23 in1023.7 mb 0.00 in0.0 mm 0.00 in0.0 mm 0.00 in0.0 mm
04:05 PM 52.8°F11.6°C 42.1°F5.6°C 67% 29.7 mph NW47.8 kmh NW 33.0 mph53.1 kmh 30.23 in1023.7 mb 0.00 in0.0 mm 0.00 in0.0 mm 0.00 in0.0 mm
04:06 PM 52.7°F11.5°C 42.4°F5.8°C 68% 31.3 mph NW50.4 kmh NW 34.0 mph54.7 kmh 30.23 in1023.7 mb 0.00 in0.0 mm 0.00 in0.0 mm 0.00 in0.0 mm
04:07 PM 52.7°F11.5°C 42.1°F5.6°C 67% 29.5 mph NW47.5 kmh NW 34.0 mph54.7 kmh 30.23 in1023.7 mb 0.00 in0.0 mm 0.00 in0.0 mm 0.00 in0.0 mm
04:08 PM 52.8°F11.6°C 42.9°F6.1°C 69% 26.9 mph NW43.3 kmh NW 34.0 mph54.7 kmh 30.23 in1023.7 mb 0.00 in0.0 mm 0.00 in0.0 mm 0.00 in0.0 mm
04:09 PM 52.8°F11.6°C 42.1°F5.6°C 67% 27.4 mph NW44.1 kmh NW 31.0 mph49.9 kmh 30.23 in1023.7 mb 0.00 in0.0 mm 0.00 in0.0 mm 0.00 in0.0 mm
04:10 PM 52.7°F11.5°C 42.8°F6.0°C 69% 27.1 mph NW43.6 kmh NW 31.0 mph49.9 kmh 30.23 in1023.7 mb 0.00 in0.0 mm 0.00 in0.0 mm 0.00 in0.0 mm
04:11 PM 52.6°F11.4°C 42.0°F5.6°C 67% 29.2 mph NW47.0 kmh NW 32.0 mph51.5 kmh 30.23 in1023.7 mb 0.00 in0.0 mm 0.00 in0.0 mm 0.00 in0.0 mm
04:12 PM 52.7°F11.5°C 42.8°F6.0°C 69% 25.4 mph NW40.9 kmh NW 32.0 mph51.5 kmh 30.23 in1023.7 mb 0.00 in0.0 mm 0.00 in0.0 mm 0.00 in0.0 mm
04:13 PM 52.6°F11.4°C 42.3°F5.7°C 68% 28.6 mph NW46.0 kmh NW 32.0 mph51.5 kmh 30.23 in1023.7 mb 0.00 in0.0 mm 0.00 in0.0 mm 0.00 in0.0 mm
04:14 PM 52.6°F11.4°C 42.0°F5.6°C 67% 27.0 mph NW43.5 kmh NW 32.0 mph51.5 kmh 30.23 in1023.7 mb 0.00 in0.0 mm 0.00 in0.0 mm 0.00 in0.0 mm
04:15 PM 52.6°F11.4°C 42.3°F5.7°C 68% 29.3 mph NW47.2 kmh NW 33.0 mph53.1 kmh 30.23 in1023.7 mb 0.00 in0.0 mm 0.00 in0.0 mm 0.00 in0.0 mm
04:16 PM 52.6°F11.4°C 42.3°F5.7°C 68% 29.0 mph NW46.7 kmh NW 34.0 mph54.7 kmh 30.23 in1023.7 mb 0.00 in0.0 mm 0.00 in0.0 mm 0.00 in0.0 mm
04:17 PM 52.8°F11.6°C 42.9°F6.1°C 69% 26.1 mph NW42.0 kmh NW 34.0 mph54.7 kmh 30.23 in1023.7 mb 0.00 in0.0 mm 0.00 in0.0 mm 0.00 in0.0 mm
04:18 PM 52.8°F11.6°C 43.3°F6.3°C 70% 29.6 mph NW47.6 kmh NW 34.0 mph54.7 kmh 30.23 in1023.7 mb 0.00 in0.0 mm 0.00 in0.0 mm 0.00 in0.0 mm
04:19 PM 52.7°F11.5°C 41.7°F5.4°C 66% 31.0 mph NW49.9 kmh NW 36.0 mph57.9 kmh 30.23 in1023.7 mb 0.00 in0.0 mm 0.00 in0.0 mm 0.00 in0.0 mm
04:20 PM 52.8°F11.6°C 42.5°F5.8°C 68% 26.9 mph NW43.3 kmh NW 36.0 mph57.9 kmh 30.23 in1023.7 mb 0.00 in0.0 mm 0.00 in0.0 mm 0.00 in0.0 mm
04:21 PM 52.8°F11.6°C 42.5°F5.8°C 68% 28.8 mph NW46.3 kmh NW 31.0 mph49.9 kmh 30.23 in1023.7 mb 0.00 in0.0 mm 0.00 in0.0 mm 0.00 in0.0 mm
04:22 PM 52.8°F11.6°C 42.9°F6.1°C 69% 28.3 mph NW45.5 kmh NW 34.0 mph54.7 kmh 30.23 in1023.7 mb 0.00 in0.0 mm 0.00 in0.0 mm 0.00 in0.0 mm
04:23 PM 52.8°F11.6°C 42.9°F6.1°C 69% 26.5 mph NW42.6 kmh NW 34.0 mph54.7 kmh 30.23 in1023.7 mb 0.00 in0.0 mm 0.00 in0.0 mm 0.00 in0.0 mm
04:24 PM 52.8°F11.6°C 42.5°F5.8°C 68% 29.5 mph NW47.5 kmh NW 33.0 mph53.1 kmh 30.23 in1023.7 mb 0.00 in0.0 mm 0.00 in0.0 mm 0.00 in0.0 mm
04:25 PM 52.8°F11.6°C 42.9°F6.1°C 69% 28.4 mph NW45.7 kmh NW 33.0 mph53.1 kmh 30.23 in1023.7 mb 0.00 in0.0 mm 0.00 in0.0 mm 0.00 in0.0 mm
04:26 PM 52.7°F11.5°C 42.8°F6.0°C 69% 31.4 mph NW50.5 kmh NW 36.0 mph57.9 kmh 30.23 in1023.7 mb 0.00 in0.0 mm 0.00 in0.0 mm 0.00 in0.0 mm
04:27 PM 52.6°F11.4°C 41.6°F5.3°C 66% 26.0 mph NW41.8 kmh NW 36.0 mph57.9 kmh 30.23 in1023.7 mb 0.00 in0.0 mm 0.00 in0.0 mm 0.00 in0.0 mm
04:28 PM 52.7°F11.5°C 42.8°F6.0°C 69% 29.6 mph NW47.6 kmh NW 35.0 mph56.3 kmh 30.24 in1024.0 mb 0.00 in0.0 mm 0.00 in0.0 mm 0.00 in0.0 mm
04:29 PM 52.6°F11.4°C 42.3°F5.7°C 68% 29.9 mph NW48.1 kmh NW 35.0 mph56.3 kmh 30.23 in1023.7 mb 0.00 in0.0 mm 0.00 in0.0 mm 0.00 in0.0 mm
04:30 PM 52.7°F11.5°C 42.8°F6.0°C 69% 28.5 mph NW45.9 kmh NW 35.0 mph56.3 kmh 30.24 in1024.0 mb 0.00 in0.0 mm 0.00 in0.0 mm 0.00 in0.0 mm
04:31 PM 52.8°F11.6°C 43.7°F6.5°C 71% 27.3 mph NW43.9 kmh NW 32.0 mph51.5 kmh 30.23 in1023.7 mb 0.00 in0.0 mm 0.00 in0.0 mm 0.00 in0.0 mm
04:32 PM 52.8°F11.6°C 43.7°F6.5°C 71% 29.5 mph NW47.5 kmh NW 35.0 mph56.3 kmh 30.24 in1024.0 mb 0.00 in0.0 mm 0.00 in0.0 mm 0.00 in0.0 mm
04:33 PM 52.8°F11.6°C 42.9°F6.1°C 69% 29.5 mph NW47.5 kmh NW 35.0 mph56.3 kmh 30.24 in1024.0 mb 0.00 in0.0 mm 0.00 in0.0 mm 0.00 in0.0 mm
04:34 PM 52.8°F11.6°C 42.5°F5.8°C 68% 30.2 mph NW48.6 kmh NW 33.0 mph53.1 kmh 30.24 in1024.0 mb 0.00 in0.0 mm 0.00 in0.0 mm 0.00 in0.0 mm
04:35 PM 52.7°F11.5°C 41.7°F5.4°C 66% 27.7 mph NW44.6 kmh NW 33.0 mph53.1 kmh 30.24 in1024.0 mb 0.00 in0.0 mm 0.00 in0.0 mm 0.00 in0.0 mm
04:36 PM 52.7°F11.5°C 43.2°F6.2°C 70% 28.0 mph NW45.1 kmh NW 34.0 mph54.7 kmh 30.24 in1024.0 mb 0.00 in0.0 mm 0.00 in0.0 mm 0.00 in0.0 mm
04:37 PM 52.8°F11.6°C 43.3°F6.3°C 70% 25.7 mph NW41.4 kmh NW 34.0 mph54.7 kmh 30.24 in1024.0 mb 0.00 in0.0 mm 0.00 in0.0 mm 0.00 in0.0 mm
04:38 PM 52.7°F11.5°C 43.2°F6.2°C 70% 28.1 mph NW45.2 kmh NW 33.0 mph53.1 kmh 30.24 in1024.0 mb 0.00 in0.0 mm 0.00 in0.0 mm 0.00 in0.0 mm
04:39 PM 52.8°F11.6°C 43.3°F6.3°C 70% 27.1 mph NW43.6 kmh NW 33.0 mph53.1 kmh 30.24 in1024.0 mb 0.00 in0.0 mm 0.00 in0.0 mm 0.00 in0.0 mm
04:40 PM 52.8°F11.6°C 43.3°F6.3°C 70% 24.7 mph NW39.8 kmh NW 30.0 mph48.3 kmh 30.24 in1024.0 mb 0.00 in0.0 mm 0.00 in0.0 mm 0.00 in0.0 mm
04:41 PM 52.8°F11.6°C 44.0°F6.7°C 72% 24.7 mph NW39.8 kmh NW 28.0 mph45.1 kmh 30.24 in1024.0 mb 0.00 in0.0 mm 0.00 in0.0 mm 0.00 in0.0 mm
04:42 PM 52.8°F11.6°C 42.9°F6.1°C 69% 27.4 mph NW44.1 kmh NW 32.0 mph51.5 kmh 30.24 in1024.0 mb 0.00 in0.0 mm 0.00 in0.0 mm 0.00 in0.0 mm
04:43 PM 52.7°F11.5°C 42.8°F6.0°C 69% 29.6 mph NW47.6 kmh NW 33.0 mph53.1 kmh 30.24 in1024.0 mb 0.00 in0.0 mm 0.00 in0.0 mm 0.00 in0.0 mm
04:44 PM 52.7°F11.5°C 42.8°F6.0°C 69% 27.6 mph NW44.4 kmh NW 33.0 mph53.1 kmh 30.24 in1024.0 mb 0.00 in0.0 mm 0.00 in0.0 mm 0.00 in0.0 mm
04:45 PM 52.8°F11.6°C 43.7°F6.5°C 71% 26.3 mph NW42.3 kmh NW 32.0 mph51.5 kmh 30.24 in1024.0 mb 0.00 in0.0 mm 0.00 in0.0 mm 0.00 in0.0 mm
04:46 PM 52.7°F11.5°C 42.8°F6.0°C 69% 29.0 mph NW46.7 kmh NW 33.0 mph53.1 kmh 30.24 in1024.0 mb 0.00 in0.0 mm 0.00 in0.0 mm 0.00 in0.0 mm
04:47 PM 52.6°F11.4°C 42.7°F5.9°C 69% 29.6 mph NW47.6 kmh NW 33.0 mph53.1 kmh 30.24 in1024.0 mb 0.00 in0.0 mm 0.00 in0.0 mm 0.00 in0.0 mm
04:48 PM 52.6°F11.4°C 42.0°F5.6°C 67% 26.9 mph NW43.3 kmh NW 32.0 mph51.5 kmh 30.24 in1024.0 mb 0.00 in0.0 mm 0.00 in0.0 mm 0.00 in0.0 mm
04:49 PM 52.6°F11.4°C 43.1°F6.2°C 70% 29.0 mph NW46.7 kmh NW 32.0 mph51.5 kmh 30.24 in1024.0 mb 0.00 in0.0 mm 0.00 in0.0 mm 0.00 in0.0 mm
04:50 PM 52.7°F11.5°C 43.6°F6.4°C 71% 28.8 mph NW46.3 kmh NW 32.0 mph51.5 kmh 30.25 in1024.4 mb 0.00 in0.0 mm 0.00 in0.0 mm 0.00 in0.0 mm
04:51 PM 52.8°F11.6°C 44.0°F6.7°C 72% 26.0 mph NW41.8 kmh NW 31.0 mph49.9 kmh 30.24 in1024.0 mb 0.00 in0.0 mm 0.00 in0.0 mm 0.00 in0.0 mm
04:52 PM 52.8°F11.6°C 43.3°F6.3°C 70% 28.2 mph NW45.4 kmh NW 31.0 mph49.9 kmh 30.24 in1024.0 mb 0.00 in0.0 mm 0.00 in0.0 mm 0.00 in0.0 mm
04:53 PM 52.6°F11.4°C 43.1°F6.2°C 70% 27.1 mph NW43.6 kmh NW 31.0 mph49.9 kmh 30.24 in1024.0 mb 0.00 in0.0 mm 0.00 in0.0 mm 0.00 in0.0 mm
04:54 PM 52.7°F11.5°C 43.9°F6.6°C 72% 24.9 mph NW40.1 kmh NW 30.0 mph48.3 kmh 30.24 in1024.0 mb 0.00 in0.0 mm 0.00 in0.0 mm 0.00 in0.0 mm
04:55 PM 52.7°F11.5°C 43.6°F6.4°C 71% 27.3 mph NW43.9 kmh NW 31.0 mph49.9 kmh 30.24 in1024.0 mb 0.00 in0.0 mm 0.00 in0.0 mm 0.00 in0.0 mm
04:56 PM 52.7°F11.5°C 44.3°F6.8°C 73% 25.9 mph NW41.7 kmh NW 31.0 mph49.9 kmh 30.24 in1024.0 mb 0.00 in0.0 mm 0.00 in0.0 mm 0.00 in0.0 mm
04:57 PM 52.8°F11.6°C 44.0°F6.7°C 72% 25.6 mph NW41.2 kmh NW 31.0 mph49.9 kmh 30.24 in1024.0 mb 0.00 in0.0 mm 0.00 in0.0 mm 0.00 in0.0 mm
04:58 PM 52.6°F11.4°C 42.7°F5.9°C 69% 29.2 mph NW47.0 kmh NW 33.0 mph53.1 kmh 30.25 in1024.4 mb 0.00 in0.0 mm 0.00 in0.0 mm 0.00 in0.0 mm
04:59 PM 52.6°F11.4°C 43.5°F6.4°C 71% 27.1 mph NW43.6 kmh NW 33.0 mph53.1 kmh 30.25 in1024.4 mb 0.00 in0.0 mm 0.00 in0.0 mm 0.00 in0.0 mm
05:00 PM 52.6°F11.4°C 43.5°F6.4°C 71% 28.7 mph NW46.2 kmh NW 33.0 mph53.1 kmh 30.25 in1024.4 mb 0.00 in0.0 mm 0.00 in0.0 mm 0.00 in0.0 mm
05:01 PM 52.6°F11.4°C 43.1°F6.2°C 70% 31.5 mph NW50.7 kmh NW 35.0 mph56.3 kmh 30.26 in1024.7 mb 0.00 in0.0 mm 0.00 in0.0 mm 0.00 in0.0 mm
05:02 PM 52.6°F11.4°C 42.3°F5.7°C 68% 29.8 mph NW48.0 kmh NW 35.0 mph56.3 kmh 30.25 in1024.4 mb 0.00 in0.0 mm 0.00 in0.0 mm 0.00 in0.0 mm
05:03 PM 52.5°F11.4°C 43.0°F6.1°C 70% 29.2 mph NW47.0 kmh NW 34.0 mph54.7 kmh 30.25 in1024.4 mb 0.00 in0.0 mm 0.00 in0.0 mm 0.00 in0.0 mm
05:04 PM 52.5°F11.4°C 42.6°F5.9°C 69% 29.3 mph NW47.2 kmh NW 34.0 mph54.7 kmh 30.25 in1024.4 mb 0.00 in0.0 mm 0.00 in0.0 mm 0.00 in0.0 mm
05:05 PM 52.4°F11.3°C 42.5°F5.8°C 69% 28.4 mph NW45.7 kmh NW 32.0 mph51.5 kmh 30.25 in1024.4 mb 0.00 in0.0 mm 0.00 in0.0 mm 0.00 in0.0 mm
05:06 PM 52.5°F11.4°C 43.0°F6.1°C 70% 29.5 mph NW47.5 kmh NW 33.0 mph53.1 kmh 30.25 in1024.4 mb 0.00 in0.0 mm 0.00 in0.0 mm 0.00 in0.0 mm
05:07 PM 52.5°F11.4°C 43.4°F6.3°C 71% 30.8 mph NW49.6 kmh NW 35.0 mph56.3 kmh 30.24 in1024.0 mb 0.00 in0.0 mm 0.00 in0.0 mm 0.00 in0.0 mm
05:08 PM 52.6°F11.4°C 43.1°F6.2°C 70% 29.8 mph NW48.0 kmh NW 35.0 mph56.3 kmh 30.25 in1024.4 mb 0.00 in0.0 mm 0.00 in0.0 mm 0.00 in0.0 mm
05:09 PM 52.5°F11.4°C 42.6°F5.9°C 69% 30.0 mph NW48.3 kmh NW 34.0 mph54.7 kmh 30.25 in1024.4 mb 0.00 in0.0 mm 0.00 in0.0 mm 0.00 in0.0 mm
05:10 PM 52.6°F11.4°C 42.3°F5.7°C 68% 30.8 mph NW49.6 kmh NW 34.0 mph54.7 kmh 30.25 in1024.4 mb 0.00 in0.0 mm 0.00 in0.0 mm 0.00 in0.0 mm
05:11 PM 52.6°F11.4°C 43.1°F6.2°C 70% 30.0 mph NW48.3 kmh NW 34.0 mph54.7 kmh 30.25 in1024.4 mb 0.00 in0.0 mm 0.00 in0.0 mm 0.00 in0.0 mm
05:12 PM 52.6°F11.4°C 42.7°F5.9°C 69% 30.2 mph NW48.6 kmh NW 33.0 mph53.1 kmh 30.25 in1024.4 mb 0.00 in0.0 mm 0.00 in0.0 mm 0.00 in0.0 mm
05:13 PM 52.6°F11.4°C 42.7°F5.9°C 69% 29.6 mph NW47.6 kmh NW 34.0 mph54.7 kmh 30.25 in1024.4 mb 0.00 in0.0 mm 0.00 in0.0 mm 0.00 in0.0 mm
05:14 PM 52.7°F11.5°C 43.6°F6.4°C 71% 29.0 mph NW46.7 kmh NW 34.0 mph54.7 kmh 30.25 in1024.4 mb 0.00 in0.0 mm 0.00 in0.0 mm 0.00 in0.0 mm
05:15 PM 52.8°F11.6°C 44.0°F6.7°C 72% 27.5 mph NW44.3 kmh NW 34.0 mph54.7 kmh 30.25 in1024.4 mb 0.00 in0.0 mm 0.00 in0.0 mm 0.00 in0.0 mm
05:16 PM 52.7°F11.5°C 43.2°F6.2°C 70% 29.1 mph NW46.8 kmh NW 32.0 mph51.5 kmh 30.25 in1024.4 mb 0.00 in0.0 mm 0.00 in0.0 mm 0.00 in0.0 mm
05:17 PM 52.7°F11.5°C 42.4°F5.8°C 68% 29.9 mph NW48.1 kmh NW 33.0 mph53.1 kmh 30.25 in1024.4 mb 0.00 in0.0 mm 0.00 in0.0 mm 0.00 in0.0 mm
05:18 PM 52.6°F11.4°C 42.7°F5.9°C 69% 30.9 mph NW49.7 kmh NW 36.0 mph57.9 kmh 30.25 in1024.4 mb 0.00 in0.0 mm 0.00 in0.0 mm 0.00 in0.0 mm
05:19 PM 52.6°F11.4°C 42.3°F5.7°C 68% 31.0 mph NW49.9 kmh NW 36.0 mph57.9 kmh 30.25 in1024.4 mb 0.00 in0.0 mm 0.00 in0.0 mm 0.00 in0.0 mm
05:20 PM 52.6°F11.4°C 42.7°F5.9°C 69% 29.2 mph NW47.0 kmh NW 34.0 mph54.7 kmh 30.25 in1024.4 mb 0.00 in0.0 mm 0.00 in0.0 mm 0.00 in0.0 mm
05:21 PM 52.7°F11.5°C 42.8°F6.0°C 69% 29.2 mph NW47.0 kmh NW 32.0 mph51.5 kmh 30.25 in1024.4 mb 0.00 in0.0 mm 0.00 in0.0 mm 0.00 in0.0 mm
05:22 PM 52.7°F11.5°C 43.6°F6.4°C 71% 28.0 mph NW45.1 kmh NW 32.0 mph51.5 kmh 30.25 in1024.4 mb 0.00 in0.0 mm 0.00 in0.0 mm 0.00 in0.0 mm
05:23 PM 52.6°F11.4°C 43.1°F6.2°C 70% 27.9 mph NW44.9 kmh NW 33.0 mph53.1 kmh 30.25 in1024.4 mb 0.00 in0.0 mm 0.00 in0.0 mm 0.00 in0.0 mm
05:24 PM 52.6°F11.4°C 43.1°F6.2°C 70% 28.2 mph NW45.4 kmh NW 33.0 mph53.1 kmh 30.25 in1024.4 mb 0.00 in0.0 mm 0.00 in0.0 mm 0.00 in0.0 mm
05:25 PM 52.7°F11.5°C 42.8°F6.0°C 69% 28.5 mph NW45.9 kmh NW 33.0 mph53.1 kmh 30.25 in1024.4 mb 0.00 in0.0 mm 0.00 in0.0 mm 0.00 in0.0 mm
05:26 PM 52.6°F11.4°C 42.3°F5.7°C 68% 28.4 mph NW45.7 kmh NW 33.0 mph53.1 kmh 30.25 in1024.4 mb 0.00 in0.0 mm 0.00 in0.0 mm 0.00 in0.0 mm
05:27 PM 52.6°F11.4°C 43.1°F6.2°C 70% 27.6 mph NW44.4 kmh NW 31.0 mph49.9 kmh 30.25 in1024.4 mb 0.00 in0.0 mm 0.00 in0.0 mm 0.00 in0.0 mm
05:28 PM 52.6°F11.4°C 42.7°F5.9°C 69% 28.8 mph NW46.3 kmh NW 33.0 mph53.1 kmh 30.25 in1024.4 mb 0.00 in0.0 mm 0.00 in0.0 mm 0.00 in0.0 mm
05:29 PM 52.6°F11.4°C 42.7°F5.9°C 69% 26.0 mph NW41.8 kmh NW 33.0 mph53.1 kmh 30.25 in1024.4 mb 0.00 in0.0 mm 0.00 in0.0 mm 0.00 in0.0 mm
05:30 PM 52.6°F11.4°C 43.5°F6.4°C 71% 28.5 mph NW45.9 kmh NW 32.0 mph51.5 kmh 30.25 in1024.4 mb 0.00 in0.0 mm 0.00 in0.0 mm 0.00 in0.0 mm
05:31 PM 52.6°F11.4°C 43.1°F6.2°C 70% 30.1 mph NW48.4 kmh NW 34.0 mph54.7 kmh 30.25 in1024.4 mb 0.00 in0.0 mm 0.00 in0.0 mm 0.00 in0.0 mm
05:32 PM 52.6°F11.4°C 42.7°F5.9°C 69% 28.9 mph NW46.5 kmh NW 34.0 mph54.7 kmh 30.25 in1024.4 mb 0.00 in0.0 mm 0.00 in0.0 mm 0.00 in0.0 mm
05:33 PM 52.6°F11.4°C 43.1°F6.2°C 70% 28.7 mph NW46.2 kmh NW 31.0 mph49.9 kmh 30.25 in1024.4 mb 0.00 in0.0 mm 0.00 in0.0 mm 0.00 in0.0 mm
05:34 PM 52.7°F11.5°C 44.3°F6.8°C 73% 24.9 mph NW40.1 kmh NW 31.0 mph49.9 kmh 30.25 in1024.4 mb 0.00 in0.0 mm 0.00 in0.0 mm 0.00 in0.0 mm
05:35 PM 52.6°F11.4°C 42.7°F5.9°C 69% 26.0 mph NW41.8 kmh NW 31.0 mph49.9 kmh 30.25 in1024.4 mb 0.00 in0.0 mm 0.00 in0.0 mm 0.00 in0.0 mm
05:36 PM 52.6°F11.4°C 43.1°F6.2°C 70% 27.2 mph NW43.8 kmh NW 31.0 mph49.9 kmh 30.25 in1024.4 mb 0.00 in0.0 mm 0.00 in0.0 mm 0.00 in0.0 mm
05:37 PM 52.6°F11.4°C 43.5°F6.4°C 71% 27.5 mph NW44.3 kmh NW 31.0 mph49.9 kmh 30.25 in1024.4 mb 0.00 in0.0 mm 0.00 in0.0 mm 0.00 in0.0 mm
05:38 PM 52.6°F11.4°C 43.1°F6.2°C 70% 25.6 mph NW41.2 kmh NW 31.0 mph49.9 kmh 30.25 in1024.4 mb 0.00 in0.0 mm 0.00 in0.0 mm 0.00 in0.0 mm
05:39 PM 52.5°F11.4°C 43.0°F6.1°C 70% 27.7 mph NW44.6 kmh NW 31.0 mph49.9 kmh 30.25 in1024.4 mb 0.00 in0.0 mm 0.00 in0.0 mm 0.00 in0.0 mm
05:40 PM 52.5°F11.4°C 43.0°F6.1°C 70% 24.9 mph NW40.1 kmh NW 31.0 mph49.9 kmh 30.25 in1024.4 mb 0.00 in0.0 mm 0.00 in0.0 mm 0.00 in0.0 mm
05:41 PM 52.5°F11.4°C 42.6°F5.9°C 69% 25.6 mph NW41.2 kmh NW 29.0 mph46.7 kmh 30.25 in1024.4 mb 0.00 in0.0 mm 0.00 in0.0 mm 0.00 in0.0 mm
05:42 PM 52.5°F11.4°C 43.0°F6.1°C 70% 24.0 mph NW38.6 kmh NW 29.0 mph46.7 kmh 30.25 in1024.4 mb 0.00 in0.0 mm 0.00 in0.0 mm 0.00 in0.0 mm
05:43 PM 52.5°F11.4°C 43.0°F6.1°C 70% 26.5 mph NW42.6 kmh NW 30.0 mph48.3 kmh 30.25 in1024.4 mb 0.00 in0.0 mm 0.00 in0.0 mm 0.00 in0.0 mm
05:44 PM 52.5°F11.4°C 42.6°F5.9°C 69% 26.1 mph NW42.0 kmh NW 30.0 mph48.3 kmh 30.25 in1024.4 mb 0.00 in0.0 mm 0.00 in0.0 mm 0.00 in0.0 mm
05:45 PM 52.5°F11.4°C 43.0°F6.1°C 70% 25.3 mph NW40.7 kmh NW 30.0 mph48.3 kmh 30.25 in1024.4 mb 0.00 in0.0 mm 0.00 in0.0 mm 0.00 in0.0 mm
05:46 PM 52.5°F11.4°C 42.2°F5.7°C 68% 25.5 mph NW41.0 kmh NW 31.0 mph49.9 kmh 30.25 in1024.4 mb 0.00 in0.0 mm 0.00 in0.0 mm 0.00 in0.0 mm
05:47 PM 52.5°F11.4°C 42.6°F5.9°C 69% 27.4 mph NW44.1 kmh NW 31.0 mph49.9 kmh 30.25 in1024.4 mb 0.00 in0.0 mm 0.00 in0.0 mm 0.00 in0.0 mm
05:48 PM 52.5°F11.4°C 42.2°F5.7°C 68% 25.6 mph NW41.2 kmh NW 30.0 mph48.3 kmh 30.25 in1024.4 mb 0.00 in0.0 mm 0.00 in0.0 mm 0.00 in0.0 mm
05:49 PM 52.5°F11.4°C 43.0°F6.1°C 70% 23.3 mph NW37.5 kmh NW 29.0 mph46.7 kmh 30.25 in1024.4 mb 0.00 in0.0 mm 0.00 in0.0 mm 0.00 in0.0 mm
05:50 PM 52.6°F11.4°C 44.2°F6.8°C 73% 22.3 mph NW35.9 kmh NW 26.0 mph41.8 kmh 30.25 in1024.4 mb 0.00 in0.0 mm 0.00 in0.0 mm 0.00 in0.0 mm
05:51 PM 52.5°F11.4°C 42.6°F5.9°C 69% 24.7 mph NW39.8 kmh NW 27.0 mph43.5 kmh 30.26 in1024.7 mb 0.00 in0.0 mm 0.00 in0.0 mm 0.00 in0.0 mm
05:52 PM 52.4°F11.3°C 42.2°F5.7°C 68% 27.5 mph NW44.3 kmh NW 32.0 mph51.5 kmh 30.25 in1024.4 mb 0.00 in0.0 mm 0.00 in0.0 mm 0.00 in0.0 mm
05:53 PM 52.4°F11.3°C 42.9°F6.1°C 70% 25.1 mph NW40.4 kmh NW 32.0 mph51.5 kmh 30.25 in1024.4 mb 0.00 in0.0 mm 0.00 in0.0 mm 0.00 in0.0 mm
05:54 PM 52.4°F11.3°C 42.5°F5.8°C 69% 27.0 mph NW43.5 kmh NW 31.0 mph49.9 kmh 30.25 in1024.4 mb 0.00 in0.0 mm 0.00 in0.0 mm 0.00 in0.0 mm
05:55 PM 52.5°F11.4°C 43.0°F6.1°C 70% 27.9 mph NW44.9 kmh NW 31.0 mph49.9 kmh 30.26 in1024.7 mb 0.00 in0.0 mm 0.00 in0.0 mm 0.00 in0.0 mm
05:56 PM 52.5°F11.4°C 42.6°F5.9°C 69% 29.3 mph NW47.2 kmh NW 33.0 mph53.1 kmh 30.26 in1024.7 mb 0.00 in0.0 mm 0.00 in0.0 mm 0.00 in0.0 mm
05:57 PM 52.5°F11.4°C 42.6°F5.9°C 69% 26.8 mph NW43.1 kmh NW 33.0 mph53.1 kmh 30.26 in1024.7 mb 0.00 in0.0 mm 0.00 in0.0 mm 0.00 in0.0 mm
05:58 PM 52.5°F11.4°C 43.4°F6.3°C 71% 25.2 mph NW40.6 kmh NW 30.0 mph48.3 kmh 30.26 in1024.7 mb 0.00 in0.0 mm 0.00 in0.0 mm 0.00 in0.0 mm
05:59 PM 52.4°F11.3°C 42.2°F5.7°C 68% 27.2 mph NW43.8 kmh NW 31.0 mph49.9 kmh 30.26 in1024.7 mb 0.00 in0.0 mm 0.00 in0.0 mm 0.00 in0.0 mm
06:00 PM 52.3°F11.3°C 42.8°F6.0°C 70% 23.6 mph NW38.0 kmh NW 31.0 mph49.9 kmh 30.26 in1024.7 mb 0.00 in0.0 mm 0.00 in0.0 mm 0.00 in0.0 mm
06:01 PM 52.2°F11.2°C 42.0°F5.6°C 68% 23.8 mph NW38.3 kmh NW 31.0 mph49.9 kmh 30.26 in1024.7 mb 0.00 in0.0 mm 0.00 in0.0 mm 0.00 in0.0 mm
06:02 PM 52.2°F11.2°C 43.1°F6.2°C 71% 23.0 mph NW37.0 kmh NW 27.0 mph43.5 kmh 30.26 in1024.7 mb 0.00 in0.0 mm 0.00 in0.0 mm 0.00 in0.0 mm
06:03 PM 52.2°F11.2°C 42.7°F5.9°C 70% 26.3 mph NW42.3 kmh NW 31.0 mph49.9 kmh 30.26 in1024.7 mb 0.00 in0.0 mm 0.00 in0.0 mm 0.00 in0.0 mm
06:04 PM 52.3°F11.3°C 42.8°F6.0°C 70% 29.2 mph NW47.0 kmh NW 31.0 mph49.9 kmh 30.26 in1024.7 mb 0.00 in0.0 mm 0.00 in0.0 mm 0.00 in0.0 mm
06:05 PM 52.3°F11.3°C 43.2°F6.2°C 71% 27.5 mph NW44.3 kmh NW 31.0 mph49.9 kmh 30.26 in1024.7 mb 0.00 in0.0 mm 0.00 in0.0 mm 0.00 in0.0 mm
06:06 PM 52.4°F11.3°C 43.6°F6.4°C 72% 25.1 mph NW40.4 kmh NW 31.0 mph49.9 kmh 30.26 in1024.7 mb 0.00 in0.0 mm 0.00 in0.0 mm 0.00 in0.0 mm
06:07 PM 52.4°F11.3°C 42.9°F6.1°C 70% 27.1 mph NW43.6 kmh NW 30.0 mph48.3 kmh 30.26 in1024.7 mb 0.00 in0.0 mm 0.00 in0.0 mm 0.00 in0.0 mm
06:08 PM 52.2°F11.2°C 42.7°F5.9°C 70% 24.4 mph NW39.3 kmh NW 30.0 mph48.3 kmh 30.26 in1024.7 mb 0.00 in0.0 mm 0.00 in0.0 mm 0.00 in0.0 mm
06:09 PM 52.1°F11.2°C 42.6°F5.9°C 70% 25.8 mph NW41.5 kmh NW 30.0 mph48.3 kmh 30.26 in1024.7 mb 0.00 in0.0 mm 0.00 in0.0 mm 0.00 in0.0 mm
06:10 PM 52.2°F11.2°C 42.3°F5.7°C 69% 27.2 mph NW43.8 kmh NW 33.0 mph53.1 kmh 30.26 in1024.7 mb 0.00 in0.0 mm 0.00 in0.0 mm 0.00 in0.0 mm
06:11 PM 52.2°F11.2°C 43.1°F6.2°C 71% 27.9 mph NW44.9 kmh NW 33.0 mph53.1 kmh 30.26 in1024.7 mb 0.00 in0.0 mm 0.00 in0.0 mm 0.00 in0.0 mm
06:12 PM 52.3°F11.3°C 42.8°F6.0°C 70% 30.0 mph NW48.3 kmh NW 33.0 mph53.1 kmh 30.27 in1025.1 mb 0.00 in0.0 mm 0.00 in0.0 mm 0.00 in0.0 mm
06:13 PM 52.3°F11.3°C 42.4°F5.8°C 69% 30.2 mph NW48.6 kmh NW 33.0 mph53.1 kmh 30.26 in1024.7 mb 0.00 in0.0 mm 0.00 in0.0 mm 0.00 in0.0 mm
06:14 PM 52.3°F11.3°C 42.4°F5.8°C 69% 28.2 mph NW45.4 kmh NW 32.0 mph51.5 kmh 30.26 in1024.7 mb 0.00 in0.0 mm 0.00 in0.0 mm 0.00 in0.0 mm
06:15 PM 52.3°F11.3°C 42.8°F6.0°C 70% 25.6 mph NW41.2 kmh NW 31.0 mph49.9 kmh 30.27 in1025.1 mb 0.00 in0.0 mm 0.00 in0.0 mm 0.00 in0.0 mm
06:16 PM 52.2°F11.2°C 43.1°F6.2°C 71% 26.9 mph NW43.3 kmh NW 31.0 mph49.9 kmh 30.27 in1025.1 mb 0.00 in0.0 mm 0.00 in0.0 mm 0.00 in0.0 mm
06:17 PM 52.1°F11.2°C 41.9°F5.5°C 68% 23.2 mph NW37.3 kmh NW 31.0 mph49.9 kmh 30.27 in1025.1 mb 0.00 in0.0 mm 0.00 in0.0 mm 0.00 in0.0 mm
06:18 PM 52.1°F11.2°C 42.6°F5.9°C 70% 24.5 mph NW39.4 kmh NW 29.0 mph46.7 kmh 30.27 in1025.1 mb 0.00 in0.0 mm 0.00 in0.0 mm 0.00 in0.0 mm
06:19 PM 52.0°F11.1°C 42.1°F5.6°C 69% 24.2 mph NW38.9 kmh NW 29.0 mph46.7 kmh 30.27 in1025.1 mb 0.00 in0.0 mm 0.00 in0.0 mm 0.00 in0.0 mm
06:20 PM 52.0°F11.1°C 43.3°F6.3°C 72% 20.4 mph NW32.8 kmh NW 28.0 mph45.1 kmh 30.27 in1025.1 mb 0.00 in0.0 mm 0.00 in0.0 mm 0.00 in0.0 mm
06:21 PM 52.0°F11.1°C 42.9°F6.1°C 71% 24.4 mph NW39.3 kmh NW 28.0 mph45.1 kmh 30.27 in1025.1 mb 0.00 in0.0 mm 0.00 in0.0 mm 0.00 in0.0 mm
06:22 PM 52.1°F11.2°C 43.0°F6.1°C 71% 26.8 mph NW43.1 kmh NW 31.0 mph49.9 kmh 30.27 in1025.1 mb 0.00 in0.0 mm 0.00 in0.0 mm 0.00 in0.0 mm
06:23 PM 52.0°F11.1°C 42.9°F6.1°C 71% 25.8 mph NW41.5 kmh NW 31.0 mph49.9 kmh 30.27 in1025.1 mb 0.00 in0.0 mm 0.00 in0.0 mm 0.00 in0.0 mm
06:24 PM 52.0°F11.1°C 42.9°F6.1°C 71% 22.0 mph NW35.4 kmh NW 28.0 mph45.1 kmh 30.27 in1025.1 mb 0.00 in0.0 mm 0.00 in0.0 mm 0.00 in0.0 mm
06:25 PM 52.1°F11.2°C 43.0°F6.1°C 71% 23.7 mph NW38.1 kmh NW 28.0 mph45.1 kmh 30.27 in1025.1 mb 0.00 in0.0 mm 0.00 in0.0 mm 0.00 in0.0 mm
06:26 PM 52.1°F11.2°C 43.4°F6.3°C 72% 23.3 mph NW37.5 kmh NW 28.0 mph45.1 kmh 30.27 in1025.1 mb 0.00 in0.0 mm 0.00 in0.0 mm 0.00 in0.0 mm
06:27 PM 52.1°F11.2°C 43.4°F6.3°C 72% 23.7 mph NW38.1 kmh NW 28.0 mph45.1 kmh 30.27 in1025.1 mb 0.00 in0.0 mm 0.00 in0.0 mm 0.00 in0.0 mm
06:28 PM 52.0°F11.1°C 42.9°F6.1°C 71% 22.2 mph NW35.7 kmh NW 28.0 mph45.1 kmh 30.27 in1025.1 mb 0.00 in0.0 mm 0.00 in0.0 mm 0.00 in0.0 mm
06:29 PM 51.9°F11.1°C 42.8°F6.0°C 71% 24.0 mph NW38.6 kmh NW 28.0 mph45.1 kmh 30.27 in1025.1 mb 0.00 in0.0 mm 0.00 in0.0 mm 0.00 in0.0 mm
06:30 PM 51.8°F11.0°C 42.3°F5.7°C 70% 25.3 mph NW40.7 kmh NW 30.0 mph48.3 kmh 30.27 in1025.1 mb 0.00 in0.0 mm 0.00 in0.0 mm 0.00 in0.0 mm
06:31 PM 51.8°F11.0°C 42.3°F5.7°C 70% 27.5 mph NW44.3 kmh NW 31.0 mph49.9 kmh 30.27 in1025.1 mb 0.00 in0.0 mm 0.00 in0.0 mm 0.00 in0.0 mm
06:32 PM 52.0°F11.1°C 43.3°F6.3°C 72% 24.6 mph NW39.6 kmh NW 31.0 mph49.9 kmh 30.27 in1025.1 mb 0.00 in0.0 mm 0.00 in0.0 mm 0.00 in0.0 mm
06:33 PM 51.9°F11.1°C 42.1°F5.6°C 69% 24.8 mph NW39.9 kmh NW 30.0 mph48.3 kmh 30.27 in1025.1 mb 0.00 in0.0 mm 0.00 in0.0 mm 0.00 in0.0 mm
06:34 PM 52.0°F11.1°C 42.9°F6.1°C 71% 24.5 mph NW39.4 kmh NW 30.0 mph48.3 kmh 30.27 in1025.1 mb 0.00 in0.0 mm 0.00 in0.0 mm 0.00 in0.0 mm
06:35 PM 52.0°F11.1°C 43.3°F6.3°C 72% 24.6 mph NW39.6 kmh NW 29.0 mph46.7 kmh 30.27 in1025.1 mb 0.00 in0.0 mm 0.00 in0.0 mm 0.00 in0.0 mm
06:36 PM 52.0°F11.1°C 42.5°F5.8°C 70% 26.8 mph NW43.1 kmh NW 31.0 mph49.9 kmh 30.27 in1025.1 mb 0.00 in0.0 mm 0.00 in0.0 mm 0.00 in0.0 mm
06:37 PM 52.1°F11.2°C 43.0°F6.1°C 71% 26.4 mph NW42.5 kmh NW 31.0 mph49.9 kmh 30.27 in1025.1 mb 0.00 in0.0 mm 0.00 in0.0 mm 0.00 in0.0 mm
06:38 PM 52.2°F11.2°C 42.7°F5.9°C 70% 28.2 mph NW45.4 kmh NW 32.0 mph51.5 kmh 30.27 in1025.1 mb 0.00 in0.0 mm 0.00 in0.0 mm 0.00 in0.0 mm
06:39 PM 52.2°F11.2°C 43.1°F6.2°C 71% 26.5 mph NW42.6 kmh NW 32.0 mph51.5 kmh 30.28 in1025.4 mb 0.00 in0.0 mm 0.00 in0.0 mm 0.00 in0.0 mm
06:40 PM 52.3°F11.3°C 43.5°F6.4°C 72% 23.6 mph NW38.0 kmh NW 31.0 mph49.9 kmh 30.28 in1025.4 mb 0.00 in0.0 mm 0.00 in0.0 mm 0.00 in0.0 mm
06:41 PM 52.4°F11.3°C 44.4°F6.9°C 74% 24.3 mph NW39.1 kmh NW 28.0 mph45.1 kmh 30.28 in1025.4 mb 0.00 in0.0 mm 0.00 in0.0 mm 0.00 in0.0 mm
06:42 PM 52.2°F11.2°C 42.7°F5.9°C 70% 28.1 mph NW45.2 kmh NW 31.0 mph49.9 kmh 30.28 in1025.4 mb 0.00 in0.0 mm 0.00 in0.0 mm 0.00 in0.0 mm
06:43 PM 52.1°F11.2°C 42.6°F5.9°C 70% 27.0 mph NW43.5 kmh NW 31.0 mph49.9 kmh 30.28 in1025.4 mb 0.00 in0.0 mm 0.00 in0.0 mm 0.00 in0.0 mm
06:44 PM 52.2°F11.2°C 43.1°F6.2°C 71% 26.3 mph NW42.3 kmh NW 31.0 mph49.9 kmh 30.28 in1025.4 mb 0.00 in0.0 mm 0.00 in0.0 mm 0.00 in0.0 mm
06:45 PM 52.2°F11.2°C 43.4°F6.3°C 72% 27.4 mph NW44.1 kmh NW 32.0 mph51.5 kmh 30.28 in1025.4 mb 0.00 in0.0 mm 0.00 in0.0 mm 0.00 in0.0 mm
06:46 PM 52.2°F11.2°C 42.7°F5.9°C 70% 27.2 mph NW43.8 kmh NW 32.0 mph51.5 kmh 30.28 in1025.4 mb 0.00 in0.0 mm 0.00 in0.0 mm 0.00 in0.0 mm
06:47 PM 52.3°F11.3°C 43.9°F6.6°C 73% 25.1 mph NW40.4 kmh NW 31.0 mph49.9 kmh 30.28 in1025.4 mb 0.00 in0.0 mm 0.00 in0.0 mm 0.00 in0.0 mm
06:48 PM 52.2°F11.2°C 42.7°F5.9°C 70% 28.0 mph NW45.1 kmh NW 31.0 mph49.9 kmh 30.28 in1025.4 mb 0.00 in0.0 mm 0.00 in0.0 mm 0.00 in0.0 mm
06:49 PM 52.2°F11.2°C 43.4°F6.3°C 72% 26.0 mph NW41.8 kmh NW 30.0 mph48.3 kmh 30.28 in1025.4 mb 0.00 in0.0 mm 0.00 in0.0 mm 0.00 in0.0 mm
06:50 PM 52.2°F11.2°C 42.7°F5.9°C 70% 25.7 mph NW41.4 kmh NW 30.0 mph48.3 kmh 30.28 in1025.4 mb 0.00 in0.0 mm 0.00 in0.0 mm 0.00 in0.0 mm
06:51 PM 52.1°F11.2°C 42.6°F5.9°C 70% 26.2 mph NW42.2 kmh NW 30.0 mph48.3 kmh 30.28 in1025.4 mb 0.00 in0.0 mm 0.00 in0.0 mm 0.00 in0.0 mm
06:52 PM 52.0°F11.1°C 42.5°F5.8°C 70% 27.7 mph NW44.6 kmh NW 31.0 mph49.9 kmh 30.28 in1025.4 mb 0.00 in0.0 mm 0.00 in0.0 mm 0.00 in0.0 mm
06:53 PM 51.9°F11.1°C 42.1°F5.6°C 69% 26.0 mph NW41.8 kmh NW 31.0 mph49.9 kmh 30.28 in1025.4 mb 0.00 in0.0 mm 0.00 in0.0 mm 0.00 in0.0 mm
06:54 PM 52.0°F11.1°C 43.3°F6.3°C 72% 23.1 mph NW37.2 kmh NW 30.0 mph48.3 kmh 30.28 in1025.4 mb 0.00 in0.0 mm 0.00 in0.0 mm 0.00 in0.0 mm
06:55 PM 51.9°F11.1°C 42.4°F5.8°C 70% 26.1 mph NW42.0 kmh NW 28.0 mph45.1 kmh 30.28 in1025.4 mb 0.00 in0.0 mm 0.00 in0.0 mm 0.00 in0.0 mm
06:56 PM 52.0°F11.1°C 42.5°F5.8°C 70% 23.5 mph NW37.8 kmh NW 28.0 mph45.1 kmh 30.28 in1025.4 mb 0.00 in0.0 mm 0.00 in0.0 mm 0.00 in0.0 mm
06:57 PM 52.0°F11.1°C 43.6°F6.4°C 73% 25.6 mph NW41.2 kmh NW 30.0 mph48.3 kmh 30.28 in1025.4 mb 0.00 in0.0 mm 0.00 in0.0 mm 0.00 in0.0 mm
06:58 PM 51.9°F11.1°C 42.1°F5.6°C 69% 26.0 mph NW41.8 kmh NW 30.0 mph48.3 kmh 30.28 in1025.4 mb 0.00 in0.0 mm 0.00 in0.0 mm 0.00 in0.0 mm
06:59 PM 51.9°F11.1°C 42.8°F6.0°C 71% 26.2 mph NW42.2 kmh NW 29.0 mph46.7 kmh 30.28 in1025.4 mb 0.00 in0.0 mm 0.00 in0.0 mm 0.00 in0.0 mm
07:00 PM 51.8°F11.0°C 42.7°F5.9°C 71% 24.6 mph NW39.6 kmh NW 29.0 mph46.7 kmh 30.28 in1025.4 mb 0.00 in0.0 mm 0.00 in0.0 mm 0.00 in0.0 mm
07:01 PM 51.8°F11.0°C 42.0°F5.6°C 69% 24.5 mph NW39.4 kmh NW 28.0 mph45.1 kmh 30.28 in1025.4 mb 0.00 in0.0 mm 0.00 in0.0 mm 0.00 in0.0 mm
07:02 PM 51.9°F11.1°C 43.5°F6.4°C 73% 23.7 mph NW38.1 kmh NW 27.0 mph43.5 kmh 30.29 in1025.7 mb 0.00 in0.0 mm 0.00 in0.0 mm 0.00 in0.0 mm
07:03 PM 51.9°F11.1°C 42.8°F6.0°C 71% 25.5 mph NW41.0 kmh NW 28.0 mph45.1 kmh 30.29 in1025.7 mb 0.00 in0.0 mm 0.00 in0.0 mm 0.00 in0.0 mm
07:04 PM 51.9°F11.1°C 42.4°F5.8°C 70% 24.0 mph NW38.6 kmh NW 28.0 mph45.1 kmh 30.29 in1025.7 mb 0.00 in0.0 mm 0.00 in0.0 mm 0.00 in0.0 mm
07:05 PM 51.9°F11.1°C 42.8°F6.0°C 71% 26.5 mph NW42.6 kmh NW 31.0 mph49.9 kmh 30.29 in1025.7 mb 0.00 in0.0 mm 0.00 in0.0 mm 0.00 in0.0 mm
07:06 PM 51.9°F11.1°C 42.8°F6.0°C 71% 25.2 mph NW40.6 kmh NW 31.0 mph49.9 kmh 30.29 in1025.7 mb 0.00 in0.0 mm 0.00 in0.0 mm 0.00 in0.0 mm
07:07 PM 51.9°F11.1°C 42.8°F6.0°C 71% 24.6 mph NW39.6 kmh NW 30.0 mph48.3 kmh 30.29 in1025.7 mb 0.00 in0.0 mm 0.00 in0.0 mm 0.00 in0.0 mm
07:08 PM 52.0°F11.1°C 43.3°F6.3°C 72% 24.8 mph NW39.9 kmh NW 29.0 mph46.7 kmh 30.29 in1025.7 mb 0.00 in0.0 mm 0.00 in0.0 mm 0.00 in0.0 mm
07:09 PM 51.9°F11.1°C 42.1°F5.6°C 69% 26.5 mph NW42.6 kmh NW 32.0 mph51.5 kmh 30.29 in1025.7 mb 0.00 in0.0 mm 0.00 in0.0 mm 0.00 in0.0 mm
07:10 PM 51.9°F11.1°C 42.4°F5.8°C 70% 25.3 mph NW40.7 kmh NW 32.0 mph51.5 kmh 30.29 in1025.7 mb 0.00 in0.0 mm 0.00 in0.0 mm 0.00 in0.0 mm
07:11 PM 51.9°F11.1°C 43.2°F6.2°C 72% 22.3 mph NW35.9 kmh NW 27.0 mph43.5 kmh 30.29 in1025.7 mb 0.00 in0.0 mm 0.00 in0.0 mm 0.00 in0.0 mm
07:12 PM 51.9°F11.1°C 42.8°F6.0°C 71% 22.4 mph NW36.0 kmh NW 26.0 mph41.8 kmh 30.29 in1025.7 mb 0.00 in0.0 mm 0.00 in0.0 mm 0.00 in0.0 mm
07:13 PM 51.9°F11.1°C 42.8°F6.0°C 71% 22.9 mph NW36.9 kmh NW 25.0 mph40.2 kmh 30.29 in1025.7 mb 0.00 in0.0 mm 0.00 in0.0 mm 0.00 in0.0 mm
07:14 PM 51.8°F11.0°C 42.7°F5.9°C 71% 23.4 mph NW37.7 kmh NW 27.0 mph43.5 kmh 30.29 in1025.7 mb 0.00 in0.0 mm 0.00 in0.0 mm 0.00 in0.0 mm
07:15 PM 51.8°F11.0°C 42.7°F5.9°C 71% 26.2 mph NW42.2 kmh NW 29.0 mph46.7 kmh 30.29 in1025.7 mb 0.00 in0.0 mm 0.00 in0.0 mm 0.00 in0.0 mm
07:16 PM 51.8°F11.0°C 42.7°F5.9°C 71% 24.1 mph NW38.8 kmh NW 29.0 mph46.7 kmh 30.29 in1025.7 mb 0.00 in0.0 mm 0.00 in0.0 mm 0.00 in0.0 mm
07:17 PM 51.9°F11.1°C 43.5°F6.4°C 73% 22.9 mph NW36.9 kmh NW 27.0 mph43.5 kmh 30.29 in1025.7 mb 0.00 in0.0 mm 0.00 in0.0 mm 0.00 in0.0 mm
07:18 PM 51.9°F11.1°C 43.5°F6.4°C 73% 25.1 mph NW40.4 kmh NW 31.0 mph49.9 kmh 30.29 in1025.7 mb 0.00 in0.0 mm 0.00 in0.0 mm 0.00 in0.0 mm
07:19 PM 51.9°F11.1°C 43.5°F6.4°C 73% 25.6 mph NW41.2 kmh NW 31.0 mph49.9 kmh 30.29 in1025.7 mb 0.00 in0.0 mm 0.00 in0.0 mm 0.00 in0.0 mm
07:20 PM 51.9°F11.1°C 43.2°F6.2°C 72% 22.8 mph NW36.7 kmh NW 31.0 mph49.9 kmh 30.29 in1025.7 mb 0.00 in0.0 mm 0.00 in0.0 mm 0.00 in0.0 mm
07:21 PM 52.0°F11.1°C 43.6°F6.4°C 73% 23.4 mph NW37.7 kmh NW 27.0 mph43.5 kmh 30.30 in1026.1 mb 0.00 in0.0 mm 0.00 in0.0 mm 0.00 in0.0 mm
07:22 PM 51.9°F11.1°C 43.2°F6.2°C 72% 24.9 mph NW40.1 kmh NW 29.0 mph46.7 kmh 30.30 in1026.1 mb 0.00 in0.0 mm 0.00 in0.0 mm 0.00 in0.0 mm
07:23 PM 52.0°F11.1°C 44.3°F6.8°C 75% 21.9 mph NW35.2 kmh NW 29.0 mph46.7 kmh 30.30 in1026.1 mb 0.00 in0.0 mm 0.00 in0.0 mm 0.00 in0.0 mm
07:24 PM 51.9°F11.1°C 42.4°F5.8°C 70% 28.3 mph NW45.5 kmh NW 30.0 mph48.3 kmh 30.30 in1026.1 mb 0.00 in0.0 mm 0.00 in0.0 mm 0.00 in0.0 mm
07:25 PM 51.8°F11.0°C 42.7°F5.9°C 71% 25.7 mph NW41.4 kmh NW 30.0 mph48.3 kmh 30.30 in1026.1 mb 0.00 in0.0 mm 0.00 in0.0 mm 0.00 in0.0 mm
07:26 PM 51.8°F11.0°C 42.7°F5.9°C 71% 24.0 mph NW38.6 kmh NW 29.0 mph46.7 kmh 30.30 in1026.1 mb 0.00 in0.0 mm 0.00 in0.0 mm 0.00 in0.0 mm
07:27 PM 51.8°F11.0°C 43.1°F6.2°C 72% 26.6 mph NW42.8 kmh NW 30.0 mph48.3 kmh 30.30 in1026.1 mb 0.00 in0.0 mm 0.00 in0.0 mm 0.00 in0.0 mm
07:28 PM 51.8°F11.0°C 43.1°F6.2°C 72% 26.0 mph NW41.8 kmh NW 30.0 mph48.3 kmh 30.30 in1026.1 mb 0.00 in0.0 mm 0.00 in0.0 mm 0.00 in0.0 mm
07:29 PM 51.8°F11.0°C 43.1°F6.2°C 72% 26.1 mph NW42.0 kmh NW 30.0 mph48.3 kmh 30.30 in1026.1 mb 0.00 in0.0 mm 0.00 in0.0 mm 0.00 in0.0 mm
07:30 PM 51.8°F11.0°C 42.3°F5.7°C 70% 28.6 mph NW46.0 kmh NW 35.0 mph56.3 kmh 30.30 in1026.1 mb 0.00 in0.0 mm 0.00 in0.0 mm 0.00 in0.0 mm
07:31 PM 51.8°F11.0°C 42.7°F5.9°C 71% 26.8 mph NW43.1 kmh NW 35.0 mph56.3 kmh 30.30 in1026.1 mb 0.00 in0.0 mm 0.00 in0.0 mm 0.00 in0.0 mm
07:32 PM 51.8°F11.0°C 42.3°F5.7°C 70% 26.5 mph NW42.6 kmh NW 29.0 mph46.7 kmh